Darstellungsparameter: Aktuell verwendete Einstellungen:
Skalierung der Graphiken ... ?
xyx+y,   Skalierungsfaktor:      Skalierung: Modus: x, Faktor: 1
Darstellungszeitraum ... ?
Vom - - bis: - -   Zeitraum: 30.06.2010 - 29.12.2010
Min/Max/Avg-Anzeige ... ?
Zeige MMA aktuell
Zeige MMA Monat
Zeige MMA alles
Zeige --A aktuell
Zeige --A Monat
Zeige --A alles
Keine MMA-Anzeige
MMA:
Average (ber die Originaldaten)
MMA-Basis: 30.06.2010 - 29.12.2010
Quicknavigation für Darstellung... ?
Tage:      1T, 2T, 3T, 5T -1T -2T -3T -5T +1T +2T +3T +5T
Wochen: 1W, 2W, 3W -1W -2W -3W +1W +2W +3W
Monate: 1M, 3M, 6M -1M -3M -6M +1M +3M +6M
Jahre:    1J, 3J, 5J, 10J -1J -3J -5J -10J +1J +3J +5J +10J
Nutze für die Darstellung ... ?
Originaldaten oder Mittelwerte auf ...
Stundenbasis Tagesbasis Wochenbasis
Monatsbasis Jahresbasis      Datenbasis: Original-Daten
Darstellen als:
Statistik (Auto) Statistik J:M      Darstellung:
Zur Graphik,    zurück zur Übersicht aller Sensoren.
 
Tabellarische Datenbersicht: ?
 
Sensor: Nr:Datum:Temp:Abs-Feuchte:Windchill:Wind:
Aussen-T/F 1 30-06-2010 00:01:02 21.1 C 10.32 g/m*3 21.1 C 0 km/h
2 30-06-2010 00:13:02 20.9 C 10.38 g/m*3 20.9 C 0 km/h
3 30-06-2010 00:25:03 20.6 C 10.56 g/m*3 20.6 C 0 km/h
4 30-06-2010 00:37:03 20.3 C 10.55 g/m*3 20.3 C 0 km/h
5 30-06-2010 00:49:03 20.1 C 10.6 g/m*3 20.1 C 0 km/h
6 30-06-2010 01:01:03 19.9 C 10.82 g/m*3 19.9 C 0 km/h
7 30-06-2010 01:13:03 19.7 C 10.87 g/m*3 19.7 C 0 km/h
8 30-06-2010 01:25:03 19.5 C 10.91 g/m*3 19.5 C 0 km/h
9 30-06-2010 01:37:03 19.3 C 10.78 g/m*3 19.3 C 0 km/h
10 30-06-2010 01:49:03 19.1 C 10.66 g/m*3 19.1 C 0 km/h
11 30-06-2010 02:01:03 18.9 C 10.85 g/m*3 18.9 C 0 km/h
12 30-06-2010 02:13:03 18.7 C 10.89 g/m*3 18.7 C 0 km/h
13 30-06-2010 02:25:03 18.5 C 10.92 g/m*3 18.5 C 0 km/h
14 30-06-2010 02:37:03 18.4 C 11.01 g/m*3 18.4 C 0 km/h
15 30-06-2010 02:49:03 18.2 C 11.04 g/m*3 18.2 C 0 km/h
16 30-06-2010 03:01:03 18.1 C 10.97 g/m*3 18.1 C 0 km/h
17 30-06-2010 03:13:03 17.9 C 11.15 g/m*3 17.9 C 0 km/h
18 30-06-2010 03:25:03 17.7 C 11.16 g/m*3 17.7 C 0 km/h
19 30-06-2010 03:37:03 17.6 C 11.1 g/m*3 17.6 C 0 km/h
20 30-06-2010 03:49:03 17.5 C 11.18 g/m*3 17.5 C 0 km/h
21 30-06-2010 04:01:03 17.2 C 11.13 g/m*3 17.2 C 0 km/h
22 30-06-2010 04:13:03 17.1 C 10.92 g/m*3 17.1 C 0 km/h
23 30-06-2010 04:25:03 17 C 11 g/m*3 17 C 0 km/h
24 30-06-2010 04:37:03 16.8 C 11.01 g/m*3 16.8 C 0 km/h
25 30-06-2010 04:49:04 16.7 C 11.08 g/m*3 16.7 C 0 km/h
Sensor: Nr:Datum:Temp:Abs-Feuchte:Windchill:Wind:
Aussen-T/F 26 30-06-2010 05:01:04 16.5 C 11.09 g/m*3 16.5 C 0 km/h
27 30-06-2010 05:13:04 16.3 C 10.96 g/m*3 16.3 C 0 km/h
28 30-06-2010 05:25:04 16.3 C 10.96 g/m*3 16.3 C 0 km/h
29 30-06-2010 05:37:04 16.3 C 10.96 g/m*3 16.3 C 0 km/h
30 30-06-2010 05:49:04 16.2 C 10.76 g/m*3 16.2 C 0 km/h
31 30-06-2010 06:01:04 16.1 C 10.83 g/m*3 16.1 C 0 km/h
32 30-06-2010 06:13:04 16.1 C 10.83 g/m*3 16.1 C 0 km/h
33 30-06-2010 06:25:04 16.1 C 10.69 g/m*3 16.1 C 0 km/h
34 30-06-2010 06:37:04 16.2 C 10.76 g/m*3 16.2 C 0 km/h
35 30-06-2010 06:49:03 16.4 C 10.89 g/m*3 16.4 C 0 km/h
36 30-06-2010 07:01:02 16.8 C 11.01 g/m*3 16.8 C 0 km/h
37 30-06-2010 07:13:02 17.2 C 10.84 g/m*3 17.2 C 0 km/h
38 30-06-2010 07:25:03 17.3 C 10.61 g/m*3 17.3 C 0 km/h
39 30-06-2010 07:37:02 17.5 C 10.73 g/m*3 17.5 C 0 km/h
40 30-06-2010 07:49:01 17.8 C 10.62 g/m*3 17.8 C 0 km/h
41 30-06-2010 08:01:02 17.9 C 10.54 g/m*3 17.9 C 0 km/h
42 30-06-2010 08:13:02 17.9 C 10.99 g/m*3 17.9 C 0 km/h
43 30-06-2010 08:25:02 18.1 C 11.12 g/m*3 18.1 C 0 km/h
44 30-06-2010 08:37:02 18.5 C 11.08 g/m*3 18.5 C 0 km/h
45 30-06-2010 08:49:02 19 C 10.92 g/m*3 19 C 0 km/h
46 30-06-2010 09:01:01 19.4 C 11.01 g/m*3 19.4 C 0 km/h
47 30-06-2010 09:13:01 20 C 10.37 g/m*3 20 C 0 km/h
48 30-06-2010 09:25:02 20.3 C 9.67 g/m*3 20.3 C 0 km/h
49 30-06-2010 09:37:01 21.2 C 9.08 g/m*3 21.2 C 0 km/h
50 30-06-2010 09:49:02 21.6 C 9.29 g/m*3 21.6 C 0 km/h
Sensor: Nr:Datum:Temp:Abs-Feuchte:Windchill:Wind:
Aussen-T/F 51 30-06-2010 10:01:02 22.4 C 9.33 g/m*3 22.4 C 0 km/h
52 30-06-2010 10:13:02 23 C 9.45 g/m*3 23 C 0 km/h
53 30-06-2010 10:25:02 23.7 C 9.63 g/m*3 23.7 C 0 km/h
54 30-06-2010 10:37:02 24.1 C 9.41 g/m*3 24.1 C 0 km/h
55 30-06-2010 10:49:02 24.8 C 8.65 g/m*3 24.8 C 0 km/h
56 30-06-2010 11:01:02 25.7 C 8.62 g/m*3 25.7 C 0 km/h
57 30-06-2010 11:13:02 26.1 C 8.57 g/m*3 26.1 C 0 km/h
58 30-06-2010 11:25:01 26.6 C 8.31 g/m*3 26.6 C 0 km/h
59 30-06-2010 11:37:02 27.8 C 8.88 g/m*3 27.8 C 0 km/h
60 30-06-2010 11:49:02 28.3 C 8.02 g/m*3 28.3 C 0 km/h
61 30-06-2010 12:01:02 27.8 C 6.72 g/m*3 27.8 C 0 km/h
62 30-06-2010 12:13:02 28 C 6.53 g/m*3 28 C 0 km/h
63 30-06-2010 12:25:02 29.4 C 6.75 g/m*3 29.4 C 0 km/h
64 30-06-2010 12:37:02 30.3 C 6.47 g/m*3 30.3 C 0 km/h
65 30-06-2010 12:49:02 30.7 C 6.3 g/m*3 30.7 C 0 km/h
66 30-06-2010 13:01:02 30.8 C 6.33 g/m*3 30.8 C 0 km/h
67 30-06-2010 13:13:02 31.5 C 6.57 g/m*3 31.5 C 0 km/h
68 30-06-2010 13:25:02 32 C 6.75 g/m*3 32 C 0 km/h
69 30-06-2010 13:37:02 32.4 C 6.9 g/m*3 32.4 C 0 km/h
70 30-06-2010 13:49:02 32.5 C 6.93 g/m*3 32.5 C 0 km/h
71 30-06-2010 14:01:02 32.1 C 6.79 g/m*3 32.1 C 0 km/h
72 30-06-2010 14:13:02 31.4 C 6.54 g/m*3 31.4 C 0 km/h
73 30-06-2010 14:25:02 31.5 C 6.57 g/m*3 31.5 C 0 km/h
74 30-06-2010 14:37:02 32.1 C 6.79 g/m*3 32.1 C 0 km/h
75 30-06-2010 14:49:02 31.8 C 6.68 g/m*3 31.8 C 0 km/h
Sensor: Nr:Datum:Temp:Abs-Feuchte:Windchill:Wind:
Aussen-T/F 76 30-06-2010 15:01:02 32 C 6.75 g/m*3 32 C 0 km/h
77 30-06-2010 15:13:02 32.5 C 6.93 g/m*3 32.5 C 0 km/h
78 30-06-2010 15:25:03 32.4 C 6.9 g/m*3 32.4 C 0 km/h
79 30-06-2010 15:37:02 32.5 C 6.93 g/m*3 32.5 C 0 km/h
80 30-06-2010 15:49:03 32.3 C 6.86 g/m*3 32.3 C 0 km/h
81 30-06-2010 16:01:02 32.1 C 6.79 g/m*3 32.1 C 0 km/h
82 30-06-2010 16:13:02 31.7 C 6.64 g/m*3 31.7 C 0 km/h
83 30-06-2010 16:25:02 32.5 C 6.93 g/m*3 32.5 C 0 km/h
84 30-06-2010 16:37:02 33 C 7.12 g/m*3 33 C 0 km/h
85 30-06-2010 16:49:02 32.5 C 6.93 g/m*3 32.5 C 0 km/h
86 30-06-2010 17:01:02 32.4 C 6.9 g/m*3 32.4 C 0 km/h
87 30-06-2010 17:13:02 32.6 C 6.97 g/m*3 32.6 C 0 km/h
88 30-06-2010 17:25:02 32.5 C 6.93 g/m*3 32.5 C 0 km/h
89 30-06-2010 17:37:02 32 C 6.75 g/m*3 32 C 0 km/h
90 30-06-2010 17:49:02 32.2 C 6.82 g/m*3 32.2 C 0 km/h
91 30-06-2010 18:01:02 32.3 C 6.86 g/m*3 32.3 C 0 km/h
92 30-06-2010 18:13:02 33.1 C 7.16 g/m*3 33.1 C 0 km/h
93 30-06-2010 18:25:02 32.6 C 6.97 g/m*3 32.6 C 0 km/h
94 30-06-2010 18:37:02 31.9 C 6.72 g/m*3 31.9 C 0 km/h
95 30-06-2010 18:49:02 31.7 C 6.64 g/m*3 31.7 C 0 km/h
96 30-06-2010 19:01:01 31.7 C 6.64 g/m*3 31.7 C 0 km/h
97 30-06-2010 19:13:01 31.5 C 6.57 g/m*3 31.5 C 0 km/h
98 30-06-2010 19:25:02 31.2 C 7.12 g/m*3 31.2 C 0 km/h
99 30-06-2010 19:37:01 30.7 C 6.61 g/m*3 30.7 C 0 km/h
100 30-06-2010 19:49:02 30.3 C 7.7 g/m*3 30.3 C 0 km/h
Sensor: Nr:Datum:Temp:Abs-Feuchte:Windchill:Wind:
Aussen-T/F 101 30-06-2010 20:01:01 30.4 C 7.75 g/m*3 30.4 C 0 km/h
102 30-06-2010 20:13:01 30.4 C 8.06 g/m*3 30.4 C 0 km/h
103 30-06-2010 20:25:01 30.1 C 7.93 g/m*3 30.1 C 0 km/h
104 30-06-2010 20:37:02 29.3 C 8.17 g/m*3 29.3 C 0 km/h
105 30-06-2010 20:49:02 28.5 C 7.83 g/m*3 28.5 C 0 km/h
106 30-06-2010 21:01:02 27.5 C 7.67 g/m*3 27.5 C 0 km/h
107 30-06-2010 21:13:02 26.9 C 7.93 g/m*3 26.9 C 0 km/h
108 30-06-2010 21:25:02 26.5 C 7.76 g/m*3 26.5 C 0 km/h
109 30-06-2010 21:37:02 26 C 7.79 g/m*3 26 C 0 km/h
110 30-06-2010 21:49:02 25.8 C 7.94 g/m*3 25.8 C 0 km/h
111 30-06-2010 22:01:01 25.6 C 8.09 g/m*3 25.6 C 0 km/h
112 30-06-2010 22:13:01 25.1 C 7.87 g/m*3 25.1 C 0 km/h
113 30-06-2010 22:25:02 24.8 C 7.97 g/m*3 24.8 C 0 km/h
114 30-06-2010 22:38:03 24.6 C 8.1 g/m*3 24.6 C 0 km/h
115 30-06-2010 22:50:03 24.8 C 8.42 g/m*3 24.8 C 0 km/h
116 30-06-2010 23:02:04 24.5 C 8.5 g/m*3 24.5 C 0 km/h
117 30-06-2010 23:14:04 24 C 8.49 g/m*3 24 C 0 km/h
118 30-06-2010 23:26:04 23.7 C 8.56 g/m*3 23.7 C 0 km/h
119 30-06-2010 23:38:04 23.6 C 8.72 g/m*3 23.6 C 0 km/h
120 30-06-2010 23:50:04 23.2 C 8.52 g/m*3 23.2 C 0 km/h
121 01-07-2010 00:02:04 22.9 C 8.58 g/m*3 22.9 C 0 km/h
122 01-07-2010 00:14:04 22.7 C 8.49 g/m*3 22.7 C 0 km/h
123 01-07-2010 00:26:04 22.4 C 8.94 g/m*3 22.4 C 0 km/h
124 01-07-2010 00:38:04 22.2 C 8.44 g/m*3 22.2 C 0 km/h
125 01-07-2010 00:50:04 21.9 C 9.07 g/m*3 21.9 C 0 km/h
Sensor: Nr:Datum:Temp:Abs-Feuchte:Windchill:Wind:
Aussen-T/F 126 01-07-2010 01:02:04 21.6 C 8.91 g/m*3 21.6 C 0 km/h
127 01-07-2010 01:14:04 21.4 C 8.81 g/m*3 21.4 C 0 km/h
128 01-07-2010 01:26:04 21.2 C 9.08 g/m*3 21.2 C 0 km/h
129 01-07-2010 01:38:04 20.9 C 9.29 g/m*3 20.9 C 0 km/h
130 01-07-2010 01:50:04 20.7 C 9.36 g/m*3 20.7 C 0 km/h
131 01-07-2010 02:02:04 20.4 C 9.2 g/m*3 20.4 C 0 km/h
132 01-07-2010 02:14:04 20.2 C 9.44 g/m*3 20.2 C 0 km/h
133 01-07-2010 02:26:04 20.1 C 9.39 g/m*3 20.1 C 0 km/h
134 01-07-2010 02:38:04 19.8 C 9.74 g/m*3 19.8 C 0 km/h
135 01-07-2010 02:50:04 19.5 C 9.73 g/m*3 19.5 C 0 km/h
136 01-07-2010 03:02:04 19.4 C 9.84 g/m*3 19.4 C 0 km/h
137 01-07-2010 03:14:05 19.2 C 9.73 g/m*3 19.2 C 0 km/h
138 01-07-2010 03:26:05 19 C 9.78 g/m*3 19 C 0 km/h
139 01-07-2010 03:38:05 18.9 C 9.88 g/m*3 18.9 C 0 km/h
140 01-07-2010 03:50:05 18.8 C 9.99 g/m*3 18.8 C 0 km/h
141 01-07-2010 04:02:05 18.7 C 9.93 g/m*3 18.7 C 0 km/h
142 01-07-2010 04:14:05 18.4 C 9.75 g/m*3 18.4 C 0 km/h
143 01-07-2010 04:26:05 18.3 C 9.85 g/m*3 18.3 C 0 km/h
144 01-07-2010 04:38:05 18.1 C 9.89 g/m*3 18.1 C 0 km/h
145 01-07-2010 04:50:05 18 C 9.83 g/m*3 18 C 0 km/h
146 01-07-2010 05:02:05 17.8 C 10.02 g/m*3 17.8 C 0 km/h
147 01-07-2010 05:14:05 17.6 C 10.2 g/m*3 17.6 C 0 km/h
148 01-07-2010 05:26:05 17.3 C 10.16 g/m*3 17.3 C 0 km/h
149 01-07-2010 05:38:05 17.1 C 10.19 g/m*3 17.1 C 0 km/h
150 01-07-2010 05:50:05 17 C 10.27 g/m*3 17 C 0 km/h
Sensor: Nr:Datum:Temp:Abs-Feuchte:Windchill:Wind:
Aussen-T/F 151 01-07-2010 06:02:05 16.8 C 10.44 g/m*3 16.8 C 0 km/h
152 01-07-2010 06:14:05 16.9 C 10.36 g/m*3 16.9 C 0 km/h
153 01-07-2010 06:26:05 17.1 C 10.34 g/m*3 17.1 C 0 km/h
154 01-07-2010 06:38:05 17.3 C 10.46 g/m*3 17.3 C 0 km/h
155 01-07-2010 06:50:02 17.5 C 10.44 g/m*3 17.5 C 0 km/h
156 01-07-2010 07:02:01 17.5 C 10.44 g/m*3 17.5 C 0 km/h
157 01-07-2010 07:14:01 17.7 C 10.41 g/m*3 17.7 C 0 km/h
158 01-07-2010 07:26:02 17.7 C 10.26 g/m*3 17.7 C 0 km/h
159 01-07-2010 07:38:02 17.7 C 10.41 g/m*3 17.7 C 0 km/h
160 01-07-2010 07:50:02 17.8 C 10.62 g/m*3 17.8 C 0 km/h
161 01-07-2010 08:02:02 18.1 C 10.51 g/m*3 18.1 C 0 km/h
162 01-07-2010 08:14:02 18.5 C 10.76 g/m*3 18.5 C 0 km/h
163 01-07-2010 08:26:02 18.8 C 10.47 g/m*3 18.8 C 0 km/h
164 01-07-2010 08:38:02 19.1 C 10.33 g/m*3 19.1 C 0 km/h
165 01-07-2010 08:50:02 19.6 C 10.64 g/m*3 19.6 C 0 km/h
166 01-07-2010 09:02:02 20.4 C 10.61 g/m*3 20.4 C 0 km/h
167 01-07-2010 09:14:03 20.9 C 10.38 g/m*3 20.9 C 0 km/h
168 01-07-2010 09:26:02 21.6 C 10.43 g/m*3 21.6 C 0 km/h
169 01-07-2010 09:38:02 22.6 C 10.45 g/m*3 22.6 C 0 km/h
170 01-07-2010 09:50:01 23.5 C 10.36 g/m*3 23.5 C 0 km/h
171 01-07-2010 10:02:01 24.3 C 10.18 g/m*3 24.3 C 0 km/h
172 01-07-2010 10:14:01 24.8 C 10.02 g/m*3 24.8 C 0 km/h
173 01-07-2010 10:26:02 25.9 C 10.41 g/m*3 25.9 C 0 km/h
174 01-07-2010 10:38:01 26.6 C 10.07 g/m*3 26.6 C 0 km/h
175 01-07-2010 10:50:03 27.5 C 10.32 g/m*3 27.5 C 0 km/h
Sensor: Nr:Datum:Temp:Abs-Feuchte:Windchill:Wind:
Aussen-T/F 176 01-07-2010 11:02:02 27.7 C 10.16 g/m*3 27.7 C 0 km/h
177 01-07-2010 11:14:02 28.4 C 9.73 g/m*3 28.4 C 0 km/h
178 01-07-2010 11:26:02 28.6 C 8.71 g/m*3 28.6 C 0 km/h
179 01-07-2010 11:38:02 28.9 C 8.57 g/m*3 28.9 C 0 km/h
180 01-07-2010 11:50:02 29.8 C 8.7 g/m*3 29.8 C 0 km/h
181 01-07-2010 12:02:02 30.1 C 7.93 g/m*3 30.1 C 0 km/h
182 01-07-2010 12:14:02 30.7 C 7.24 g/m*3 30.7 C 0 km/h
183 01-07-2010 12:26:02 31.4 C 6.54 g/m*3 31.4 C 0 km/h
184 01-07-2010 12:38:02 31.4 C 6.54 g/m*3 31.4 C 0 km/h
185 01-07-2010 12:50:02 31.9 C 6.72 g/m*3 31.9 C 0 km/h
186 01-07-2010 13:02:01 32.7 C 7.01 g/m*3 32.7 C 0 km/h
187 01-07-2010 13:14:01 33 C 7.12 g/m*3 33 C 0 km/h
188 01-07-2010 13:26:01 32.6 C 6.97 g/m*3 32.6 C 0 km/h
189 01-07-2010 13:38:02 33 C 7.12 g/m*3 33 C 0 km/h
190 01-07-2010 13:50:02 32.7 C 7.01 g/m*3 32.7 C 0 km/h
191 01-07-2010 14:02:02 32.7 C 7.01 g/m*3 32.7 C 0 km/h
192 01-07-2010 14:14:02 32.5 C 6.93 g/m*3 32.5 C 0 km/h
193 01-07-2010 14:26:02 32.1 C 6.79 g/m*3 32.1 C 0 km/h
194 01-07-2010 14:38:02 31.9 C 6.72 g/m*3 31.9 C 0 km/h
195 01-07-2010 14:50:02 31.9 C 6.72 g/m*3 31.9 C 0 km/h
196 01-07-2010 15:02:02 32.5 C 6.93 g/m*3 32.5 C 0 km/h
197 01-07-2010 15:14:03 33.1 C 7.16 g/m*3 33.1 C 0 km/h
198 01-07-2010 15:26:02 32.7 C 7.01 g/m*3 32.7 C 0 km/h
199 01-07-2010 15:38:02 33 C 7.12 g/m*3 33 C 0 km/h
200 01-07-2010 15:50:02 33.1 C 7.16 g/m*3 33.1 C 0 km/h
Sensor: Nr:Datum:Temp:Abs-Feuchte:Windchill:Wind:
Aussen-T/F 201 01-07-2010 16:02:02 33.1 C 7.16 g/m*3 33.1 C 0 km/h
202 01-07-2010 16:14:02 33 C 7.12 g/m*3 33 C 0 km/h
203 01-07-2010 16:26:03 33.3 C 7.23 g/m*3 33.3 C 0 km/h
204 01-07-2010 16:38:02 33.3 C 7.23 g/m*3 33.3 C 0 km/h
205 01-07-2010 16:50:02 33.3 C 7.23 g/m*3 33.3 C 0 km/h
206 01-07-2010 17:02:02 33.5 C 7.31 g/m*3 33.5 C 0 km/h
207 01-07-2010 17:14:02 33.6 C 7.35 g/m*3 33.6 C 0 km/h
208 01-07-2010 17:26:02 33.1 C 7.16 g/m*3 33.1 C 0 km/h
209 01-07-2010 17:38:02 33 C 7.12 g/m*3 33 C 0 km/h
210 01-07-2010 17:50:02 33.3 C 7.23 g/m*3 33.3 C 0 km/h
211 01-07-2010 18:02:02 33.7 C 7.39 g/m*3 33.7 C 0 km/h
212 01-07-2010 18:14:02 34.1 C 7.54 g/m*3 34.1 C 0 km/h
213 01-07-2010 18:26:02 33.9 C 7.46 g/m*3 33.9 C 0 km/h
214 01-07-2010 18:38:01 33.8 C 7.43 g/m*3 33.8 C 0 km/h
215 01-07-2010 18:50:02 33.8 C 7.43 g/m*3 33.8 C 0 km/h
216 01-07-2010 19:02:01 33.7 C 7.39 g/m*3 33.7 C 0 km/h
217 01-07-2010 19:14:01 33.4 C 7.27 g/m*3 33.4 C 0 km/h
218 01-07-2010 19:26:02 33.6 C 7.35 g/m*3 33.6 C 0 km/h
219 01-07-2010 19:38:02 33.3 C 7.23 g/m*3 33.3 C 0 km/h
220 01-07-2010 19:50:02 33.3 C 7.23 g/m*3 33.3 C 0 km/h
221 01-07-2010 20:02:03 33.1 C 7.16 g/m*3 33.1 C 0 km/h
222 01-07-2010 20:14:03 32.6 C 6.97 g/m*3 32.6 C 0 km/h
223 01-07-2010 20:26:02 31.9 C 7.72 g/m*3 31.9 C 0 km/h
224 01-07-2010 20:38:02 30.6 C 8.14 g/m*3 30.6 C 0 km/h
225 01-07-2010 20:50:01 29.4 C 8.22 g/m*3 29.4 C 0 km/h
Sensor: Nr:Datum:Temp:Abs-Feuchte:Windchill:Wind:
Aussen-T/F 226 01-07-2010 21:02:02 28.5 C 8.38 g/m*3 28.5 C 0 km/h
227 01-07-2010 21:14:02 27.8 C 8.34 g/m*3 27.8 C 0 km/h
228 01-07-2010 21:26:01 27.5 C 8.73 g/m*3 27.5 C 0 km/h
229 01-07-2010 21:38:01 26.9 C 8.7 g/m*3 26.9 C 0 km/h
230 01-07-2010 21:50:02 26.4 C 8.71 g/m*3 26.4 C 0 km/h
231 01-07-2010 22:02:02 25.9 C 8.72 g/m*3 25.9 C 0 km/h
232 01-07-2010 22:14:02 25.6 C 8.57 g/m*3 25.6 C 0 km/h
233 01-07-2010 22:26:02 25.5 C 8.52 g/m*3 25.5 C 0 km/h
234 01-07-2010 22:38:02 25.3 C 8.43 g/m*3 25.3 C 0 km/h
235 01-07-2010 22:50:02 25.2 C 8.38 g/m*3 25.2 C 0 km/h
236 01-07-2010 23:02:02 25.1 C 8.33 g/m*3 25.1 C 0 km/h
237 01-07-2010 23:14:02 24.9 C 8.24 g/m*3 24.9 C 0 km/h
238 01-07-2010 23:27:18 24.7 C 8.37 g/m*3 24.7 C 0 km/h
239 01-07-2010 23:39:18 24.6 C 8.55 g/m*3 24.6 C 0 km/h
240 01-07-2010 23:51:18 24.4 C 8.68 g/m*3 24.4 C 0 km/h
241 02-07-2010 00:03:18 24.1 C 8.53 g/m*3 24.1 C 0 km/h
242 02-07-2010 00:15:18 23.7 C 8.98 g/m*3 23.7 C 0 km/h
243 02-07-2010 00:27:19 23.6 C 9.15 g/m*3 23.6 C 0 km/h
244 02-07-2010 00:39:19 23.1 C 8.68 g/m*3 23.1 C 0 km/h
245 02-07-2010 00:51:19 22.9 C 8.79 g/m*3 22.9 C 0 km/h
246 02-07-2010 01:03:19 22.8 C 8.94 g/m*3 22.8 C 0 km/h
247 02-07-2010 01:15:19 22.6 C 9.04 g/m*3 22.6 C 0 km/h
248 02-07-2010 01:27:19 22.4 C 9.14 g/m*3 22.4 C 0 km/h
249 02-07-2010 01:39:19 22.4 C 9.14 g/m*3 22.4 C 0 km/h
250 02-07-2010 01:51:19 22.1 C 8.98 g/m*3 22.1 C 0 km/h
Sensor: Nr:Datum:Temp:Abs-Feuchte:Windchill:Wind:
Aussen-T/F 251 02-07-2010 02:03:19 21.7 C 8.97 g/m*3 21.7 C 0 km/h
252 02-07-2010 02:15:19 21.6 C 9.29 g/m*3 21.6 C 0 km/h
253 02-07-2010 02:27:19 21.3 C 8.76 g/m*3 21.3 C 0 km/h
254 02-07-2010 02:39:19 21.1 C 8.84 g/m*3 21.1 C 0 km/h
255 02-07-2010 02:51:19 20.9 C 8.92 g/m*3 20.9 C 0 km/h
256 02-07-2010 03:03:19 20.9 C 8.92 g/m*3 20.9 C 0 km/h
257 02-07-2010 03:15:19 20.7 C 9.18 g/m*3 20.7 C 0 km/h
258 02-07-2010 03:27:19 20.6 C 9.13 g/m*3 20.6 C 0 km/h
259 02-07-2010 03:39:19 20.4 C 9.2 g/m*3 20.4 C 0 km/h
260 02-07-2010 03:51:19 20.4 C 9.38 g/m*3 20.4 C 0 km/h
261 02-07-2010 04:03:19 20.1 C 9.39 g/m*3 20.1 C 0 km/h
262 02-07-2010 04:15:19 19.9 C 9.62 g/m*3 19.9 C 0 km/h
263 02-07-2010 04:27:19 19.6 C 9.79 g/m*3 19.6 C 0 km/h
264 02-07-2010 04:39:19 19.5 C 9.73 g/m*3 19.5 C 0 km/h
265 02-07-2010 04:51:19 19.3 C 9.79 g/m*3 19.3 C 0 km/h
266 02-07-2010 05:03:20 19.2 C 9.73 g/m*3 19.2 C 0 km/h
267 02-07-2010 05:15:20 19 C 9.61 g/m*3 19 C 0 km/h
268 02-07-2010 05:27:20 18.8 C 9.99 g/m*3 18.8 C 0 km/h
269 02-07-2010 05:39:20 18.7 C 9.77 g/m*3 18.7 C 0 km/h
270 02-07-2010 05:51:20 18.6 C 9.87 g/m*3 18.6 C 0 km/h
271 02-07-2010 06:03:20 18.6 C 10.03 g/m*3 18.6 C 0 km/h
272 02-07-2010 06:15:20 18.6 C 10.19 g/m*3 18.6 C 0 km/h
273 02-07-2010 06:27:20 18.6 C 10.19 g/m*3 18.6 C 0 km/h
274 02-07-2010 06:39:20 18.7 C 10.41 g/m*3 18.7 C 0 km/h
275 02-07-2010 06:51:04 18.9 C 10.53 g/m*3 18.9 C 0 km/h
Sensor: Nr:Datum:Temp:Abs-Feuchte:Windchill:Wind:
Aussen-T/F 276 02-07-2010 07:03:02 19.1 C 10.33 g/m*3 19.1 C 0 km/h
277 02-07-2010 07:15:02 19.4 C 10.51 g/m*3 19.4 C 0 km/h
278 02-07-2010 07:27:02 19.5 C 10.41 g/m*3 19.5 C 0 km/h
279 02-07-2010 07:39:02 19.7 C 10.7 g/m*3 19.7 C 0 km/h
280 02-07-2010 07:51:02 19.9 C 10.65 g/m*3 19.9 C 0 km/h
281 02-07-2010 08:03:02 20.1 C 10.43 g/m*3 20.1 C 0 km/h
282 02-07-2010 08:15:02 20.4 C 10.44 g/m*3 20.4 C 0 km/h
283 02-07-2010 08:27:02 20.8 C 10.5 g/m*3 20.8 C 0 km/h
284 02-07-2010 08:39:02 21.2 C 10.56 g/m*3 21.2 C 0 km/h
285 02-07-2010 08:51:02 21.8 C 10.74 g/m*3 21.8 C 0 km/h
286 02-07-2010 09:03:02 22.6 C 10.65 g/m*3 22.6 C 0 km/h
287 02-07-2010 09:15:02 23.2 C 10.6 g/m*3 23.2 C 0 km/h
288 02-07-2010 09:27:02 24.1 C 10.72 g/m*3 24.1 C 0 km/h
289 02-07-2010 09:39:02 24.9 C 10.76 g/m*3 24.9 C 0 km/h
290 02-07-2010 09:51:03 25.9 C 10.65 g/m*3 25.9 C 0 km/h
291 02-07-2010 10:03:02 26.2 C 10.09 g/m*3 26.2 C 0 km/h
292 02-07-2010 10:15:03 26.9 C 10.49 g/m*3 26.9 C 0 km/h
293 02-07-2010 10:27:03 27.7 C 10.43 g/m*3 27.7 C 0 km/h
294 02-07-2010 10:39:02 28.9 C 10.57 g/m*3 28.9 C 0 km/h
295 02-07-2010 10:51:02 29.6 C 10.39 g/m*3 29.6 C 0 km/h
296 02-07-2010 11:03:01 30.1 C 10.37 g/m*3 30.1 C 0 km/h
297 02-07-2010 11:15:02 29.8 C 9.9 g/m*3 29.8 C 0 km/h
298 02-07-2010 11:27:02 30.1 C 10.06 g/m*3 30.1 C 0 km/h
299 02-07-2010 11:39:02 30.3 C 9.55 g/m*3 30.3 C 0 km/h
300 02-07-2010 11:51:02 30.6 C 9.71 g/m*3 30.6 C 0 km/h
Sensor: Nr:Datum:Temp:Abs-Feuchte:Windchill:Wind:
Aussen-T/F 301 02-07-2010 12:03:03 31.2 C 10.03 g/m*3 31.2 C 0 km/h
302 02-07-2010 12:15:02 31.5 C 8.55 g/m*3 31.5 C 0 km/h
303 02-07-2010 12:27:02 32 C 7.09 g/m*3 32 C 0 km/h
304 02-07-2010 12:39:03 32.9 C 7.08 g/m*3 32.9 C 0 km/h
305 02-07-2010 12:51:02 33 C 7.12 g/m*3 33 C 0 km/h
306 02-07-2010 13:03:02 32.7 C 7.01 g/m*3 32.7 C 0 km/h
307 02-07-2010 13:15:02 33.3 C 7.23 g/m*3 33.3 C 0 km/h
308 02-07-2010 13:27:02 33.7 C 7.39 g/m*3 33.7 C 0 km/h
309 02-07-2010 13:39:02 33.9 C 7.46 g/m*3 33.9 C 0 km/h
310 02-07-2010 13:51:02 33.2 C 7.2 g/m*3 33.2 C 0 km/h
311 02-07-2010 14:03:02 32.4 C 7.59 g/m*3 32.4 C 0 km/h
312 02-07-2010 14:15:03 32.9 C 7.79 g/m*3 32.9 C 0 km/h
313 02-07-2010 14:27:03 32.9 C 7.08 g/m*3 32.9 C 0 km/h
314 02-07-2010 14:39:02 32.8 C 7.04 g/m*3 32.8 C 0 km/h
315 02-07-2010 14:51:01 32.9 C 7.44 g/m*3 32.9 C 0 km/h
316 02-07-2010 15:03:01 32.4 C 6.9 g/m*3 32.4 C 0 km/h
317 02-07-2010 15:15:02 32.4 C 8.62 g/m*3 32.4 C 0 km/h
318 02-07-2010 15:27:02 31.9 C 8.73 g/m*3 31.9 C 0 km/h
319 02-07-2010 15:39:01 32 C 9.11 g/m*3 32 C 0 km/h
320 02-07-2010 15:51:03 32.3 C 9.26 g/m*3 32.3 C 0 km/h
321 02-07-2010 16:03:02 32.1 C 9.5 g/m*3 32.1 C 0 km/h
322 02-07-2010 16:15:03 31.9 C 9.74 g/m*3 31.9 C 0 km/h
323 02-07-2010 16:27:03 32.3 C 8.92 g/m*3 32.3 C 0 km/h
324 02-07-2010 16:39:02 32.9 C 8.14 g/m*3 32.9 C 0 km/h
325 02-07-2010 16:51:02 33.1 C 7.52 g/m*3 33.1 C 0 km/h
Sensor: Nr:Datum:Temp:Abs-Feuchte:Windchill:Wind:
Aussen-T/F 326 02-07-2010 17:03:02 33.7 C 7.39 g/m*3 33.7 C 0 km/h
327 02-07-2010 17:15:02 34.2 C 7.58 g/m*3 34.2 C 0 km/h
328 02-07-2010 17:27:02 34.6 C 7.74 g/m*3 34.6 C 0 km/h
329 02-07-2010 17:39:02 34.4 C 7.66 g/m*3 34.4 C 0 km/h
330 02-07-2010 17:51:02 34.2 C 7.58 g/m*3 34.2 C 0 km/h
331 02-07-2010 18:03:01 34.1 C 7.54 g/m*3 34.1 C 0 km/h
332 02-07-2010 18:15:02 34 C 7.5 g/m*3 34 C 0 km/h
333 02-07-2010 18:27:02 33.5 C 7.31 g/m*3 33.5 C 0 km/h
334 02-07-2010 18:39:02 33.3 C 7.23 g/m*3 33.3 C 0 km/h
335 02-07-2010 18:51:01 33.6 C 7.35 g/m*3 33.6 C 0 km/h
336 02-07-2010 19:03:02 33.4 C 7.27 g/m*3 33.4 C 0 km/h
337 02-07-2010 19:15:01 33.5 C 7.31 g/m*3 33.5 C 0 km/h
338 02-07-2010 19:27:01 34 C 7.5 g/m*3 34 C 0 km/h
339 02-07-2010 19:39:02 34.1 C 7.54 g/m*3 34.1 C 0 km/h
340 02-07-2010 19:51:02 33.8 C 7.43 g/m*3 33.8 C 0 km/h
341 02-07-2010 20:03:02 33.5 C 7.31 g/m*3 33.5 C 0 km/h
342 02-07-2010 20:15:01 33 C 7.48 g/m*3 33 C 0 km/h
343 02-07-2010 20:27:01 32.7 C 7.71 g/m*3 32.7 C 0 km/h
344 02-07-2010 20:39:02 32 C 8.78 g/m*3 32 C 0 km/h
345 02-07-2010 20:51:02 31.6 C 8.92 g/m*3 31.6 C 0 km/h
346 02-07-2010 21:03:02 31 C 8.64 g/m*3 31 C 0 km/h
347 02-07-2010 21:15:03 30.3 C 8.32 g/m*3 30.3 C 0 km/h
348 02-07-2010 21:27:03 29.4 C 8.51 g/m*3 29.4 C 0 km/h
349 02-07-2010 21:39:02 29.1 C 8.38 g/m*3 29.1 C 0 km/h
350 02-07-2010 21:51:03 28.6 C 7.87 g/m*3 28.6 C 0 km/h
Sensor: Nr:Datum:Temp:Abs-Feuchte:Windchill:Wind:
Aussen-T/F 351 02-07-2010 22:03:02 27.8 C 8.34 g/m*3 27.8 C 0 km/h
352 02-07-2010 22:15:03 27.4 C 7.89 g/m*3 27.4 C 0 km/h
353 02-07-2010 22:27:03 27.2 C 7.81 g/m*3 27.2 C 0 km/h
354 02-07-2010 22:39:02 26.8 C 7.89 g/m*3 26.8 C 0 km/h
355 02-07-2010 22:52:03 26.3 C 7.67 g/m*3 26.3 C 0 km/h
356 02-07-2010 23:04:03 26 C 7.79 g/m*3 26 C 0 km/h
357 02-07-2010 23:16:03 25.8 C 8.19 g/m*3 25.8 C 0 km/h
358 02-07-2010 23:28:03 25.6 C 8.33 g/m*3 25.6 C 0 km/h
359 02-07-2010 23:40:03 25.5 C 8.29 g/m*3 25.5 C 0 km/h
360 02-07-2010 23:52:03 25.2 C 8.38 g/m*3 25.2 C 0 km/h
361 03-07-2010 00:04:03 25 C 8.52 g/m*3 25 C 0 km/h
362 03-07-2010 00:16:03 24.7 C 8.83 g/m*3 24.7 C 0 km/h
363 03-07-2010 00:28:03 24.4 C 9.12 g/m*3 24.4 C 0 km/h
364 03-07-2010 00:40:03 24.2 C 9.24 g/m*3 24.2 C 0 km/h
365 03-07-2010 00:52:03 24 C 9.14 g/m*3 24 C 0 km/h
366 03-07-2010 01:04:03 23.8 C 9.68 g/m*3 23.8 C 0 km/h
367 03-07-2010 01:16:03 23.6 C 9.78 g/m*3 23.6 C 0 km/h
368 03-07-2010 01:28:03 23.4 C 9.67 g/m*3 23.4 C 0 km/h
369 03-07-2010 01:40:03 23.1 C 9.92 g/m*3 23.1 C 0 km/h
370 03-07-2010 01:52:03 23 C 10.07 g/m*3 23 C 0 km/h
371 03-07-2010 02:04:04 22.8 C 10.36 g/m*3 22.8 C 0 km/h
372 03-07-2010 02:16:04 22.6 C 10.45 g/m*3 22.6 C 0 km/h
373 03-07-2010 02:28:04 22.5 C 10.39 g/m*3 22.5 C 0 km/h
374 03-07-2010 02:40:04 22.5 C 10.39 g/m*3 22.5 C 0 km/h
375 03-07-2010 02:52:04 22.2 C 10.6 g/m*3 22.2 C 0 km/h
Sensor: Nr:Datum:Temp:Abs-Feuchte:Windchill:Wind:
Aussen-T/F 376 03-07-2010 03:04:04 22 C 10.48 g/m*3 22 C 0 km/h
377 03-07-2010 03:16:04 21.7 C 10.68 g/m*3 21.7 C 0 km/h
378 03-07-2010 03:28:04 21.6 C 10.81 g/m*3 21.6 C 0 km/h
379 03-07-2010 03:40:04 21.4 C 10.87 g/m*3 21.4 C 0 km/h
380 03-07-2010 03:52:04 21.2 C 10.93 g/m*3 21.2 C 0 km/h
381 03-07-2010 04:04:04 21 C 10.81 g/m*3 21 C 0 km/h
382 03-07-2010 04:16:04 20.8 C 11.05 g/m*3 20.8 C 0 km/h
383 03-07-2010 04:28:04 20.8 C 11.23 g/m*3 20.8 C 0 km/h
384 03-07-2010 04:40:04 20.5 C 11.03 g/m*3 20.5 C 0 km/h
385 03-07-2010 04:52:04 20.3 C 11.08 g/m*3 20.3 C 0 km/h
386 03-07-2010 05:04:04 20.3 C 11.08 g/m*3 20.3 C 0 km/h
387 03-07-2010 05:16:04 20.1 C 11.13 g/m*3 20.1 C 0 km/h
388 03-07-2010 05:28:04 19.9 C 11.34 g/m*3 19.9 C 0 km/h
389 03-07-2010 05:40:04 19.9 C 11.51 g/m*3 19.9 C 0 km/h
390 03-07-2010 05:52:04 19.9 C 11.51 g/m*3 19.9 C 0 km/h
391 03-07-2010 06:04:05 20 C 11.23 g/m*3 20 C 0 km/h
392 03-07-2010 06:16:05 20 C 11.41 g/m*3 20 C 0 km/h
393 03-07-2010 06:28:05 20.2 C 11.54 g/m*3 20.2 C 0 km/h
394 03-07-2010 06:40:05 20.2 C 11.54 g/m*3 20.2 C 0 km/h
395 03-07-2010 06:52:02 20.5 C 11.74 g/m*3 20.5 C 0 km/h
396 03-07-2010 07:04:01 20.9 C 11.84 g/m*3 20.9 C 0 km/h
397 03-07-2010 07:16:02 21.1 C 11.61 g/m*3 21.1 C 0 km/h
398 03-07-2010 07:28:02 21.2 C 11.68 g/m*3 21.2 C 0 km/h
399 03-07-2010 07:40:02 21.6 C 11.76 g/m*3 21.6 C 0 km/h
400 03-07-2010 07:52:02 21.8 C 11.9 g/m*3 21.8 C 0 km/h
Sensor: Nr:Datum:Temp:Abs-Feuchte:Windchill:Wind:
Aussen-T/F 401 03-07-2010 08:04:02 22.1 C 11.71 g/m*3 22.1 C 0 km/h
402 03-07-2010 08:16:02 22.3 C 11.65 g/m*3 22.3 C 0 km/h
403 03-07-2010 08:28:02 22.5 C 11.78 g/m*3 22.5 C 0 km/h
404 03-07-2010 08:40:02 22.8 C 11.99 g/m*3 22.8 C 0 km/h
405 03-07-2010 08:52:02 23.2 C 11.85 g/m*3 23.2 C 0 km/h
406 03-07-2010 09:04:02 23.9 C 12.11 g/m*3 23.9 C 0 km/h
407 03-07-2010 09:16:01 24.5 C 11.86 g/m*3 24.5 C 0 km/h
408 03-07-2010 09:28:01 25.1 C 12.04 g/m*3 25.1 C 0 km/h
409 03-07-2010 09:40:02 25.8 C 12.28 g/m*3 25.8 C 0 km/h
410 03-07-2010 09:52:02 26.5 C 12.27 g/m*3 26.5 C 0 km/h
411 03-07-2010 10:04:02 27.3 C 12.56 g/m*3 27.3 C 0 km/h
412 03-07-2010 10:16:02 28.1 C 12.03 g/m*3 28.1 C 0 km/h
413 03-07-2010 10:28:02 29 C 12.06 g/m*3 29 C 0 km/h
414 03-07-2010 10:40:02 29.5 C 11.81 g/m*3 29.5 C 0 km/h
415 03-07-2010 10:52:02 30.3 C 12.02 g/m*3 30.3 C 0 km/h
416 03-07-2010 11:04:03 30.7 C 11.97 g/m*3 30.7 C 0 km/h
417 03-07-2010 11:16:03 30.9 C 11.78 g/m*3 30.9 C 0 km/h
418 03-07-2010 11:28:03 31.1 C 10.62 g/m*3 31.1 C 0 km/h
419 03-07-2010 11:40:02 31.6 C 10.24 g/m*3 31.6 C 0 km/h
420 03-07-2010 11:52:01 32.2 C 9.55 g/m*3 32.2 C 0 km/h
421 03-07-2010 12:04:02 32.7 C 8.76 g/m*3 32.7 C 0 km/h
422 03-07-2010 12:16:01 33.3 C 7.23 g/m*3 33.3 C 0 km/h
423 03-07-2010 12:28:01 33.1 C 7.16 g/m*3 33.1 C 0 km/h
424 03-07-2010 12:40:02 33.4 C 7.27 g/m*3 33.4 C 0 km/h
425 03-07-2010 12:52:02 34 C 7.5 g/m*3 34 C 0 km/h
Sensor: Nr:Datum:Temp:Abs-Feuchte:Windchill:Wind:
Aussen-T/F 426 03-07-2010 13:04:02 34 C 7.5 g/m*3 34 C 0 km/h
427 03-07-2010 13:16:01 34.3 C 7.62 g/m*3 34.3 C 0 km/h
428 03-07-2010 13:28:01 33.9 C 7.46 g/m*3 33.9 C 0 km/h
429 03-07-2010 13:40:02 32.6 C 8.36 g/m*3 32.6 C 0 km/h
430 03-07-2010 13:52:02 34.1 C 7.54 g/m*3 34.1 C 0 km/h
431 03-07-2010 14:04:02 34.2 C 7.58 g/m*3 34.2 C 0 km/h
432 03-07-2010 14:16:01 33.7 C 7.39 g/m*3 33.7 C 0 km/h
433 03-07-2010 14:28:01 33.5 C 7.31 g/m*3 33.5 C 0 km/h
434 03-07-2010 14:40:02 33.8 C 7.43 g/m*3 33.8 C 0 km/h
435 03-07-2010 14:52:02 33.4 C 7.27 g/m*3 33.4 C 0 km/h
436 03-07-2010 15:04:01 32.8 C 7.4 g/m*3 32.8 C 0 km/h
437 03-07-2010 15:16:02 32.3 C 8.58 g/m*3 32.3 C 0 km/h
438 03-07-2010 15:28:02 31.7 C 7.64 g/m*3 31.7 C 0 km/h
439 03-07-2010 15:40:02 31.5 C 7.56 g/m*3 31.5 C 0 km/h
440 03-07-2010 15:52:02 31.4 C 7.85 g/m*3 31.4 C 0 km/h
441 03-07-2010 16:04:03 31.2 C 8.09 g/m*3 31.2 C 0 km/h
442 03-07-2010 16:16:02 31.5 C 8.22 g/m*3 31.5 C 0 km/h
443 03-07-2010 16:28:02 31 C 8.32 g/m*3 31 C 0 km/h
444 03-07-2010 16:40:03 30.2 C 9.2 g/m*3 30.2 C 0 km/h
445 03-07-2010 16:52:02 30.1 C 9.76 g/m*3 30.1 C 0 km/h
446 03-07-2010 17:04:02 30.2 C 10.42 g/m*3 30.2 C 0 km/h
447 03-07-2010 17:16:02 29.7 C 10.14 g/m*3 29.7 C 0 km/h
448 03-07-2010 17:28:02 29.5 C 9.44 g/m*3 29.5 C 0 km/h
449 03-07-2010 17:40:02 29.5 C 9.74 g/m*3 29.5 C 0 km/h
450 03-07-2010 17:52:01 28.1 C 9.57 g/m*3 28.1 C 0 km/h
Sensor: Nr:Datum:Temp:Abs-Feuchte:Windchill:Wind:
Aussen-T/F 451 03-07-2010 18:04:01 27.3 C 9.94 g/m*3 27.3 C 0 km/h
452 03-07-2010 18:16:02 26.3 C 10.64 g/m*3 26.3 C 0 km/h
453 03-07-2010 18:28:02 26.2 C 11.08 g/m*3 26.2 C 0 km/h
454 03-07-2010 18:40:01 26.1 C 11.02 g/m*3 26.1 C 0 km/h
455 03-07-2010 18:52:01 26.5 C 10.76 g/m*3 26.5 C 0 km/h
456 03-07-2010 19:04:02 26.6 C 11.08 g/m*3 26.6 C 0 km/h
457 03-07-2010 19:16:02 27.1 C 11.13 g/m*3 27.1 C 0 km/h
458 03-07-2010 19:28:02 26.8 C 11.71 g/m*3 26.8 C 0 km/h
459 03-07-2010 19:40:02 27.5 C 11.64 g/m*3 27.5 C 0 km/h
460 03-07-2010 19:52:02 27.5 C 11.64 g/m*3 27.5 C 0 km/h
461 03-07-2010 20:04:02 27.8 C 12.1 g/m*3 27.8 C 0 km/h
462 03-07-2010 20:16:02 28.3 C 11.89 g/m*3 28.3 C 0 km/h
463 03-07-2010 20:28:02 28.2 C 12.1 g/m*3 28.2 C 0 km/h
464 03-07-2010 20:40:01 28.4 C 11.95 g/m*3 28.4 C 0 km/h
465 03-07-2010 20:52:02 27.7 C 12.3 g/m*3 27.7 C 0 km/h
466 03-07-2010 21:04:01 27.3 C 12.82 g/m*3 27.3 C 0 km/h
467 03-07-2010 21:16:02 26.6 C 13.09 g/m*3 26.6 C 0 km/h
468 03-07-2010 21:28:02 26.1 C 13.46 g/m*3 26.1 C 0 km/h
469 03-07-2010 21:40:02 25.8 C 13.72 g/m*3 25.8 C 0 km/h
470 03-07-2010 21:52:02 25.4 C 13.89 g/m*3 25.4 C 0 km/h
471 03-07-2010 22:04:03 25.6 C 14.05 g/m*3 25.6 C 0 km/h
472 03-07-2010 22:16:02 25.4 C 14.36 g/m*3 25.4 C 0 km/h
473 03-07-2010 22:28:02 25 C 14.04 g/m*3 25 C 0 km/h
474 03-07-2010 22:40:02 24.6 C 13.95 g/m*3 24.6 C 0 km/h
475 03-07-2010 22:52:01 24.5 C 13.88 g/m*3 24.5 C 0 km/h
Sensor: Nr:Datum:Temp:Abs-Feuchte:Windchill:Wind:
Aussen-T/F 476 03-07-2010 23:04:02 24.2 C 13.64 g/m*3 24.2 C 0 km/h
477 03-07-2010 23:16:01 24.1 C 14 g/m*3 24.1 C 0 km/h
478 03-07-2010 23:28:01 24.1 C 13.78 g/m*3 24.1 C 0 km/h
479 03-07-2010 23:40:02 24 C 13.71 g/m*3 24 C 0 km/h
480 03-07-2010 23:52:01 23.8 C 13.77 g/m*3 23.8 C 0 km/h
481 04-07-2010 00:04:02 23.7 C 13.9 g/m*3 23.7 C 0 km/h
482 04-07-2010 00:16:01 23.5 C 13.96 g/m*3 23.5 C 0 km/h
483 04-07-2010 00:28:01 23.4 C 14.09 g/m*3 23.4 C 0 km/h
484 04-07-2010 00:40:02 23.4 C 14.09 g/m*3 23.4 C 0 km/h
485 04-07-2010 00:52:01 23.3 C 14.01 g/m*3 23.3 C 0 km/h
486 04-07-2010 01:04:02 23.2 C 13.93 g/m*3 23.2 C 0 km/h
487 04-07-2010 01:16:01 23.1 C 13.85 g/m*3 23.1 C 0 km/h
488 04-07-2010 01:28:01 22.9 C 13.9 g/m*3 22.9 C 0 km/h
489 04-07-2010 01:41:02 22.7 C 13.74 g/m*3 22.7 C 0 km/h
490 04-07-2010 01:53:02 22.7 C 13.54 g/m*3 22.7 C 0 km/h
491 04-07-2010 02:05:02 22.6 C 13.66 g/m*3 22.6 C 0 km/h
492 04-07-2010 02:17:02 22.4 C 13.5 g/m*3 22.4 C 0 km/h
493 04-07-2010 02:29:02 22.4 C 13.7 g/m*3 22.4 C 0 km/h
494 04-07-2010 02:41:02 22.3 C 13.62 g/m*3 22.3 C 0 km/h
495 04-07-2010 02:53:02 22.2 C 13.55 g/m*3 22.2 C 0 km/h
496 04-07-2010 03:05:02 22.2 C 13.74 g/m*3 22.2 C 0 km/h
497 04-07-2010 03:17:02 22.2 C 13.94 g/m*3 22.2 C 0 km/h
498 04-07-2010 03:29:02 22.2 C 13.74 g/m*3 22.2 C 0 km/h
499 04-07-2010 03:41:02 22.2 C 13.74 g/m*3 22.2 C 0 km/h
500 04-07-2010 03:53:02 22 C 13.78 g/m*3 22 C 0 km/h
Sensor: Nr:Datum:Temp:Abs-Feuchte:Windchill:Wind:
Aussen-T/F 501 04-07-2010 04:05:02 21.8 C 14.01 g/m*3 21.8 C 0 km/h
502 04-07-2010 04:17:02 21.7 C 13.93 g/m*3 21.7 C 0 km/h
503 04-07-2010 04:29:02 21.7 C 13.93 g/m*3 21.7 C 0 km/h
504 04-07-2010 04:41:02 21.6 C 13.85 g/m*3 21.6 C 0 km/h
505 04-07-2010 04:53:02 21.3 C 13.79 g/m*3 21.3 C 0 km/h
506 04-07-2010 05:05:02 21.1 C 13.82 g/m*3 21.1 C 0 km/h
507 04-07-2010 05:17:02 21 C 13.92 g/m*3 21 C 0 km/h
508 04-07-2010 05:29:02 21 C 13.92 g/m*3 21 C 0 km/h
509 04-07-2010 05:41:03 21.2 C 14.08 g/m*3 21.2 C 0 km/h
510 04-07-2010 05:53:03 21.3 C 13.98 g/m*3 21.3 C 0 km/h
511 04-07-2010 06:05:03 21.5 C 13.95 g/m*3 21.5 C 0 km/h
512 04-07-2010 06:17:03 21.5 C 13.95 g/m*3 21.5 C 0 km/h
513 04-07-2010 06:29:03 21.6 C 14.03 g/m*3 21.6 C 0 km/h
514 04-07-2010 06:41:03 21.8 C 14.01 g/m*3 21.8 C 0 km/h
515 04-07-2010 06:53:03 21.8 C 14.01 g/m*3 21.8 C 0 km/h
516 04-07-2010 07:05:03 22 C 13.97 g/m*3 22 C 0 km/h
517 04-07-2010 07:17:03 22.1 C 13.86 g/m*3 22.1 C 0 km/h
518 04-07-2010 07:29:03 22.1 C 13.86 g/m*3 22.1 C 0 km/h
519 04-07-2010 07:41:03 22.5 C 13.98 g/m*3 22.5 C 0 km/h
520 04-07-2010 07:53:03 23 C 13.77 g/m*3 23 C 0 km/h
521 04-07-2010 08:05:03 23.2 C 13.72 g/m*3 23.2 C 0 km/h
522 04-07-2010 08:17:03 22.9 C 13.49 g/m*3 22.9 C 0 km/h
523 04-07-2010 08:29:03 23 C 13.36 g/m*3 23 C 0 km/h
524 04-07-2010 08:41:03 23.4 C 13.46 g/m*3 23.4 C 0 km/h
525 04-07-2010 08:53:03 23.3 C 13.17 g/m*3 23.3 C 0 km/h
Sensor: Nr:Datum:Temp:Abs-Feuchte:Windchill:Wind:
Aussen-T/F 526 04-07-2010 09:05:03 23.4 C 12.83 g/m*3 23.4 C 0 km/h
527 04-07-2010 09:17:03 23.4 C 12.83 g/m*3 23.4 C 0 km/h
528 04-07-2010 09:29:03 23.9 C 13.2 g/m*3 23.9 C 0 km/h
529 04-07-2010 09:41:03 23.6 C 12.76 g/m*3 23.6 C 0 km/h
530 04-07-2010 09:53:04 23.4 C 13.04 g/m*3 23.4 C 0 km/h
531 04-07-2010 10:05:04 23.9 C 12.76 g/m*3 23.9 C 0 km/h
532 04-07-2010 10:17:02 24.1 C 12.91 g/m*3 24.1 C 0 km/h
533 04-07-2010 10:29:02 24.2 C 12.54 g/m*3 24.2 C 0 km/h
534 04-07-2010 10:41:03 24.8 C 12.52 g/m*3 24.8 C 0 km/h
535 04-07-2010 10:53:02 25.1 C 12.27 g/m*3 25.1 C 0 km/h
536 04-07-2010 11:05:01 24.3 C 12.17 g/m*3 24.3 C 0 km/h
537 04-07-2010 11:17:02 25.4 C 12.24 g/m*3 25.4 C 0 km/h
538 04-07-2010 11:29:02 25.5 C 12.31 g/m*3 25.5 C 0 km/h
539 04-07-2010 11:41:02 27.1 C 11.9 g/m*3 27.1 C 0 km/h
540 04-07-2010 11:53:02 27.8 C 11.57 g/m*3 27.8 C 0 km/h
541 04-07-2010 12:05:03 27 C 11.32 g/m*3 27 C 0 km/h
542 04-07-2010 12:17:02 26.4 C 11.45 g/m*3 26.4 C 0 km/h
543 04-07-2010 12:29:02 27.6 C 11.44 g/m*3 27.6 C 0 km/h
544 04-07-2010 12:41:02 29.4 C 10.27 g/m*3 29.4 C 0 km/h
545 04-07-2010 12:53:02 29.3 C 10.22 g/m*3 29.3 C 0 km/h
546 04-07-2010 13:05:02 29.5 C 10.33 g/m*3 29.5 C 0 km/h
547 04-07-2010 13:17:01 29.3 C 10.22 g/m*3 29.3 C 0 km/h
548 04-07-2010 13:29:01 31.2 C 9.7 g/m*3 31.2 C 0 km/h
549 04-07-2010 13:41:02 31.2 C 8.73 g/m*3 31.2 C 0 km/h
550 04-07-2010 13:53:02 30.5 C 9.03 g/m*3 30.5 C 0 km/h
Sensor: Nr:Datum:Temp:Abs-Feuchte:Windchill:Wind:
Aussen-T/F 551 04-07-2010 14:05:02 31 C 9.28 g/m*3 31 C 0 km/h
552 04-07-2010 14:17:02 31 C 8.96 g/m*3 31 C 0 km/h
553 04-07-2010 14:29:02 30.5 C 9.66 g/m*3 30.5 C 0 km/h
554 04-07-2010 14:41:02 30 C 9.7 g/m*3 30 C 0 km/h
555 04-07-2010 14:53:02 30.3 C 9.86 g/m*3 30.3 C 0 km/h
556 04-07-2010 15:05:02 31.5 C 8.88 g/m*3 31.5 C 0 km/h
557 04-07-2010 15:17:02 32.1 C 8.48 g/m*3 32.1 C 0 km/h
558 04-07-2010 15:29:02 32 C 8.44 g/m*3 32 C 0 km/h
559 04-07-2010 15:41:02 32.3 C 8.23 g/m*3 32.3 C 0 km/h
560 04-07-2010 15:53:02 32 C 8.44 g/m*3 32 C 0 km/h
561 04-07-2010 16:05:02 32.4 C 7.93 g/m*3 32.4 C 0 km/h
562 04-07-2010 16:17:03 31.8 C 8.02 g/m*3 31.8 C 0 km/h
563 04-07-2010 16:29:03 32.2 C 7.85 g/m*3 32.2 C 0 km/h
564 04-07-2010 16:41:02 32.3 C 7.89 g/m*3 32.3 C 0 km/h
565 04-07-2010 16:53:02 32.4 C 7.59 g/m*3 32.4 C 0 km/h
566 04-07-2010 17:05:02 32.1 C 7.81 g/m*3 32.1 C 0 km/h
567 04-07-2010 17:17:02 31.8 C 7.68 g/m*3 31.8 C 0 km/h
568 04-07-2010 17:29:02 32.8 C 7.4 g/m*3 32.8 C 0 km/h
569 04-07-2010 17:41:02 32.8 C 7.4 g/m*3 32.8 C 0 km/h
570 04-07-2010 17:53:02 32.9 C 7.44 g/m*3 32.9 C 0 km/h
571 04-07-2010 18:05:02 32.9 C 7.44 g/m*3 32.9 C 0 km/h
572 04-07-2010 18:17:02 32.9 C 7.44 g/m*3 32.9 C 0 km/h
573 04-07-2010 18:29:03 32.3 C 7.55 g/m*3 32.3 C 0 km/h
574 04-07-2010 18:41:01 31.9 C 7.72 g/m*3 31.9 C 0 km/h
575 04-07-2010 18:53:02 32.5 C 7.63 g/m*3 32.5 C 0 km/h
Sensor: Nr:Datum:Temp:Abs-Feuchte:Windchill:Wind:
Aussen-T/F 576 04-07-2010 19:05:01 31.2 C 8.41 g/m*3 31.2 C 0 km/h
577 04-07-2010 19:17:02 30 C 9.1 g/m*3 30 C 0 km/h
578 04-07-2010 19:29:02 30.1 C 9.45 g/m*3 30.1 C 0 km/h
579 04-07-2010 19:41:02 31.3 C 8.78 g/m*3 31.3 C 0 km/h
580 04-07-2010 19:53:02 32 C 7.76 g/m*3 32 C 0 km/h
581 04-07-2010 20:05:01 31.5 C 8.55 g/m*3 31.5 C 0 km/h
582 04-07-2010 20:17:01 31.6 C 8.26 g/m*3 31.6 C 0 km/h
583 04-07-2010 20:29:01 31.7 C 8.64 g/m*3 31.7 C 0 km/h
584 04-07-2010 20:41:02 30.8 C 8.86 g/m*3 30.8 C 0 km/h
585 04-07-2010 20:53:02 29.7 C 9.55 g/m*3 29.7 C 0 km/h
586 04-07-2010 21:05:01 28.3 C 9.4 g/m*3 28.3 C 0 km/h
587 04-07-2010 21:17:02 27.8 C 9.68 g/m*3 27.8 C 0 km/h
588 04-07-2010 21:29:02 27.9 C 10.01 g/m*3 27.9 C 0 km/h
589 04-07-2010 21:41:02 27.4 C 9.74 g/m*3 27.4 C 0 km/h
590 04-07-2010 21:53:01 27.3 C 9.42 g/m*3 27.3 C 0 km/h
591 04-07-2010 22:05:02 26.9 C 9.73 g/m*3 26.9 C 0 km/h
592 04-07-2010 22:17:01 26.6 C 9.82 g/m*3 26.6 C 0 km/h
593 04-07-2010 22:29:01 26.4 C 9.96 g/m*3 26.4 C 0 km/h
594 04-07-2010 22:41:02 26.2 C 9.35 g/m*3 26.2 C 0 km/h
595 04-07-2010 22:54:03 26.1 C 9.06 g/m*3 26.1 C 0 km/h
596 04-07-2010 23:06:03 26.1 C 9.06 g/m*3 26.1 C 0 km/h
597 04-07-2010 23:18:03 26.1 C 9.3 g/m*3 26.1 C 0 km/h
598 04-07-2010 23:30:03 25.9 C 9.44 g/m*3 25.9 C 0 km/h
599 04-07-2010 23:42:03 25.7 C 9.58 g/m*3 25.7 C 0 km/h
600 04-07-2010 23:54:03 25.2 C 8.85 g/m*3 25.2 C 0 km/h
Sensor: Nr:Datum:Temp:Abs-Feuchte:Windchill:Wind:
Aussen-T/F 601 05-07-2010 00:06:03 24.7 C 8.6 g/m*3 24.7 C 0 km/h
602 05-07-2010 00:18:03 24.5 C 8.06 g/m*3 24.5 C 0 km/h
603 05-07-2010 00:30:03 24.4 C 8.46 g/m*3 24.4 C 0 km/h
604 05-07-2010 00:42:03 24.1 C 7.88 g/m*3 24.1 C 0 km/h
605 05-07-2010 00:54:03 24 C 7.83 g/m*3 24 C 0 km/h
606 05-07-2010 01:06:03 23.9 C 7.57 g/m*3 23.9 C 0 km/h
607 05-07-2010 01:18:04 23.8 C 7.1 g/m*3 23.8 C 0 km/h
608 05-07-2010 01:30:04 23.3 C 6.9 g/m*3 23.3 C 0 km/h
609 05-07-2010 01:42:04 22.9 C 7.15 g/m*3 22.9 C 0 km/h
610 05-07-2010 01:54:04 22.4 C 6.95 g/m*3 22.4 C 0 km/h
611 05-07-2010 02:06:04 22.5 C 7.19 g/m*3 22.5 C 0 km/h
612 05-07-2010 02:18:04 22.2 C 7.07 g/m*3 22.2 C 0 km/h
613 05-07-2010 02:30:04 21.9 C 6.95 g/m*3 21.9 C 0 km/h
614 05-07-2010 02:42:04 21.7 C 7.25 g/m*3 21.7 C 0 km/h
615 05-07-2010 02:54:04 21.4 C 6.94 g/m*3 21.4 C 0 km/h
616 05-07-2010 03:06:04 21.5 C 7.17 g/m*3 21.5 C 0 km/h
617 05-07-2010 03:18:04 21.2 C 7.04 g/m*3 21.2 C 0 km/h
618 05-07-2010 03:30:04 20.8 C 6.7 g/m*3 20.8 C 0 km/h
619 05-07-2010 03:42:04 20.8 C 6.52 g/m*3 20.8 C 0 km/h
620 05-07-2010 03:54:04 20.8 C 6.7 g/m*3 20.8 C 0 km/h
621 05-07-2010 04:06:04 20.5 C 6.41 g/m*3 20.5 C 0 km/h
622 05-07-2010 04:18:04 20.3 C 6.51 g/m*3 20.3 C 0 km/h
623 05-07-2010 04:30:04 20 C 6.22 g/m*3 20 C 0 km/h
624 05-07-2010 04:42:04 19.7 C 6.11 g/m*3 19.7 C 0 km/h
625 05-07-2010 04:54:04 19.3 C 6.14 g/m*3 19.3 C 0 km/h
Sensor: Nr:Datum:Temp:Abs-Feuchte:Windchill:Wind:
Aussen-T/F 626 05-07-2010 05:06:04 19.1 C 6.23 g/m*3 19.1 C 0 km/h
627 05-07-2010 05:18:04 18.9 C 6.32 g/m*3 18.9 C 0 km/h
628 05-07-2010 05:30:05 18.9 C 6.32 g/m*3 18.9 C 0 km/h
629 05-07-2010 05:42:05 18.8 C 6.28 g/m*3 18.8 C 0 km/h
630 05-07-2010 05:54:05 18.6 C 6.37 g/m*3 18.6 C 0 km/h
631 05-07-2010 06:06:05 18.5 C 6.33 g/m*3 18.5 C 0 km/h
632 05-07-2010 06:18:05 18.4 C 6.45 g/m*3 18.4 C 0 km/h
633 05-07-2010 06:30:05 18.4 C 6.61 g/m*3 18.4 C 0 km/h
634 05-07-2010 06:42:05 18.2 C 7.15 g/m*3 18.2 C 0 km/h
635 05-07-2010 06:54:05 18.2 C 7.31 g/m*3 18.2 C 0 km/h
636 05-07-2010 07:06:02 18.3 C 7.35 g/m*3 18.3 C 0 km/h
637 05-07-2010 07:18:03 18.3 C 7.66 g/m*3 18.3 C 0 km/h
638 05-07-2010 07:30:03 18.4 C 7.55 g/m*3 18.4 C 0 km/h
639 05-07-2010 07:42:02 18.5 C 7.44 g/m*3 18.5 C 0 km/h
640 05-07-2010 07:54:02 18.7 C 7.36 g/m*3 18.7 C 0 km/h
641 05-07-2010 08:06:02 18.9 C 7.45 g/m*3 18.9 C 0 km/h
642 05-07-2010 08:18:03 19.2 C 7.09 g/m*3 19.2 C 0 km/h
643 05-07-2010 08:30:03 19.4 C 6.84 g/m*3 19.4 C 0 km/h
644 05-07-2010 08:42:02 19.6 C 6.92 g/m*3 19.6 C 0 km/h
645 05-07-2010 08:54:03 19.9 C 6.7 g/m*3 19.9 C 0 km/h
646 05-07-2010 09:06:02 20.3 C 6.33 g/m*3 20.3 C 0 km/h
647 05-07-2010 09:18:02 20.8 C 6.88 g/m*3 20.8 C 0 km/h
648 05-07-2010 09:30:02 21.4 C 6.75 g/m*3 21.4 C 0 km/h
649 05-07-2010 09:42:02 21.8 C 6.72 g/m*3 21.8 C 0 km/h
650 05-07-2010 09:54:02 22.1 C 6.64 g/m*3 22.1 C 0 km/h
Sensor: Nr:Datum:Temp:Abs-Feuchte:Windchill:Wind:
Aussen-T/F 651 05-07-2010 10:06:01 22.7 C 6.06 g/m*3 22.7 C 0 km/h
652 05-07-2010 10:18:02 23.3 C 6.48 g/m*3 23.3 C 0 km/h
653 05-07-2010 10:30:03 23.3 C 6.48 g/m*3 23.3 C 0 km/h
654 05-07-2010 10:42:01 24.4 C 6.45 g/m*3 24.4 C 0 km/h
655 05-07-2010 10:54:02 24.8 C 6.6 g/m*3 24.8 C 0 km/h
656 05-07-2010 11:06:01 24.9 C 6.87 g/m*3 24.9 C 0 km/h
657 05-07-2010 11:18:01 26.8 C 6.62 g/m*3 26.8 C 0 km/h
658 05-07-2010 11:30:01 27.7 C 6.69 g/m*3 27.7 C 0 km/h
659 05-07-2010 11:42:01 26.5 C 6.26 g/m*3 26.5 C 0 km/h
660 05-07-2010 11:54:02 26.8 C 6.62 g/m*3 26.8 C 0 km/h
661 05-07-2010 12:06:02 27.4 C 6.58 g/m*3 27.4 C 0 km/h
662 05-07-2010 12:18:02 28.2 C 6.32 g/m*3 28.2 C 0 km/h
663 05-07-2010 12:30:02 28.1 C 6.56 g/m*3 28.1 C 0 km/h
664 05-07-2010 12:42:02 28.2 C 6.6 g/m*3 28.2 C 0 km/h
665 05-07-2010 12:54:02 27.8 C 6.99 g/m*3 27.8 C 0 km/h
666 05-07-2010 13:06:02 27.6 C 7.45 g/m*3 27.6 C 0 km/h
667 05-07-2010 13:18:01 29.6 C 7.42 g/m*3 29.6 C 0 km/h
668 05-07-2010 13:30:01 28.9 C 7.43 g/m*3 28.9 C 0 km/h
669 05-07-2010 13:42:02 27.1 C 7.76 g/m*3 27.1 C 0 km/h
670 05-07-2010 13:54:02 26.2 C 7.63 g/m*3 26.2 C 0 km/h
671 05-07-2010 14:06:02 26.5 C 7.51 g/m*3 26.5 C 0 km/h
672 05-07-2010 14:18:01 25.8 C 7.94 g/m*3 25.8 C 0 km/h
673 05-07-2010 14:30:01 26.1 C 8.08 g/m*3 26.1 C 0 km/h
674 05-07-2010 14:42:02 26.4 C 8.21 g/m*3 26.4 C 0 km/h
675 05-07-2010 14:54:02 26.2 C 8.37 g/m*3 26.2 C 0 km/h
Sensor: Nr:Datum:Temp:Abs-Feuchte:Windchill:Wind:
Aussen-T/F 676 05-07-2010 15:06:02 27.2 C 8.07 g/m*3 27.2 C 0 km/h
677 05-07-2010 15:18:02 26.5 C 8.26 g/m*3 26.5 C 0 km/h
678 05-07-2010 15:30:02 25.8 C 7.94 g/m*3 25.8 C 0 km/h
679 05-07-2010 15:42:02 25.1 C 8.33 g/m*3 25.1 C 0 km/h
680 05-07-2010 15:54:02 24.7 C 8.6 g/m*3 24.7 C 0 km/h
681 05-07-2010 16:06:02 24.2 C 8.8 g/m*3 24.2 C 0 km/h
682 05-07-2010 16:18:02 24.2 C 9.02 g/m*3 24.2 C 0 km/h
683 05-07-2010 16:30:02 25.4 C 8.95 g/m*3 25.4 C 0 km/h
684 05-07-2010 16:42:02 25.1 C 8.8 g/m*3 25.1 C 0 km/h
685 05-07-2010 16:54:02 24.9 C 8.93 g/m*3 24.9 C 0 km/h
686 05-07-2010 17:06:02 24.7 C 9.05 g/m*3 24.7 C 0 km/h
687 05-07-2010 17:18:02 24.2 C 9.02 g/m*3 24.2 C 0 km/h
688 05-07-2010 17:30:02 23.7 C 9.41 g/m*3 23.7 C 0 km/h
689 05-07-2010 17:42:02 22.7 C 10.71 g/m*3 22.7 C 0 km/h
690 05-07-2010 17:54:02 22 C 11.65 g/m*3 22 C 0 km/h
691 05-07-2010 18:06:02 22.9 C 11.65 g/m*3 22.9 C 0 km/h
692 05-07-2010 18:18:03 23 C 10.48 g/m*3 23 C 0 km/h
693 05-07-2010 18:30:03 21.6 C 11 g/m*3 21.6 C 0 km/h
694 05-07-2010 18:42:02 19.4 C 12.18 g/m*3 19.4 C 0 km/h
695 05-07-2010 18:54:02 18.6 C 12.73 g/m*3 18.6 C 0 km/h
696 05-07-2010 19:06:02 18.5 C 13.13 g/m*3 18.5 C 0 km/h
697 05-07-2010 19:18:02 18.9 C 13.61 g/m*3 18.9 C 0 km/h
698 05-07-2010 19:30:02 19.7 C 14.09 g/m*3 19.7 C 0 km/h
699 05-07-2010 19:42:02 19.6 C 13.51 g/m*3 19.6 C 0 km/h
700 05-07-2010 19:54:02 19.9 C 13.74 g/m*3 19.9 C 0 km/h
Sensor: Nr:Datum:Temp:Abs-Feuchte:Windchill:Wind:
Aussen-T/F 701 05-07-2010 20:06:02 19.9 C 13.4 g/m*3 19.9 C 0 km/h
702 05-07-2010 20:18:02 19.8 C 13.32 g/m*3 19.8 C 0 km/h
703 05-07-2010 20:30:02 19.3 C 13.1 g/m*3 19.3 C 0 km/h
704 05-07-2010 20:42:02 19.1 C 12.95 g/m*3 19.1 C 0 km/h
705 05-07-2010 20:54:02 19.1 C 12.95 g/m*3 19.1 C 0 km/h
706 05-07-2010 21:06:02 19.1 C 13.11 g/m*3 19.1 C 0 km/h
707 05-07-2010 21:18:02 19.1 C 12.95 g/m*3 19.1 C 0 km/h
708 05-07-2010 21:30:02 19 C 12.87 g/m*3 19 C 0 km/h
709 05-07-2010 21:42:01 18.9 C 12.96 g/m*3 18.9 C 0 km/h
710 05-07-2010 21:54:02 18.7 C 12.81 g/m*3 18.7 C 0 km/h
711 05-07-2010 22:06:01 18.7 C 12.81 g/m*3 18.7 C 0 km/h
712 05-07-2010 22:18:02 18.8 C 12.88 g/m*3 18.8 C 0 km/h
713 05-07-2010 22:30:02 18.7 C 12.81 g/m*3 18.7 C 0 km/h
714 05-07-2010 22:42:01 18.5 C 12.66 g/m*3 18.5 C 0 km/h
715 05-07-2010 22:54:01 18.4 C 12.74 g/m*3 18.4 C 0 km/h
716 05-07-2010 23:07:02 18.2 C 12.59 g/m*3 18.2 C 0 km/h
717 05-07-2010 23:19:02 18 C 12.59 g/m*3 18 C 0 km/h
718 05-07-2010 23:31:02 17.9 C 12.67 g/m*3 17.9 C 0 km/h
719 05-07-2010 23:43:02 17.7 C 12.37 g/m*3 17.7 C 0 km/h
720 05-07-2010 23:55:02 17.6 C 12.15 g/m*3 17.6 C 0 km/h
721 06-07-2010 00:07:02 17.5 C 12.08 g/m*3 17.5 C 0 km/h
722 06-07-2010 00:19:02 17.2 C 11.86 g/m*3 17.2 C 0 km/h
723 06-07-2010 00:31:02 17.1 C 11.94 g/m*3 17.1 C 0 km/h
724 06-07-2010 00:43:02 17.1 C 11.94 g/m*3 17.1 C 0 km/h
725 06-07-2010 00:55:02 17.3 C 12.08 g/m*3 17.3 C 0 km/h
Sensor: Nr:Datum:Temp:Abs-Feuchte:Windchill:Wind:
Aussen-T/F 726 06-07-2010 01:07:02 17.3 C 11.93 g/m*3 17.3 C 0 km/h
727 06-07-2010 01:19:02 17.1 C 11.79 g/m*3 17.1 C 0 km/h
728 06-07-2010 01:31:02 17.2 C 11.86 g/m*3 17.2 C 0 km/h
729 06-07-2010 01:43:02 17.3 C 11.79 g/m*3 17.3 C 0 km/h
730 06-07-2010 01:55:02 17.3 C 11.49 g/m*3 17.3 C 0 km/h
731 06-07-2010 02:07:02 17.1 C 11.21 g/m*3 17.1 C 0 km/h
732 06-07-2010 02:19:02 17.3 C 11.49 g/m*3 17.3 C 0 km/h
733 06-07-2010 02:31:02 16.9 C 11.22 g/m*3 16.9 C 0 km/h
734 06-07-2010 02:43:02 16.6 C 11.16 g/m*3 16.6 C 0 km/h
735 06-07-2010 02:55:02 16.3 C 11.24 g/m*3 16.3 C 0 km/h
736 06-07-2010 03:07:02 16.4 C 11.31 g/m*3 16.4 C 0 km/h
737 06-07-2010 03:19:03 16.4 C 11.17 g/m*3 16.4 C 0 km/h
738 06-07-2010 03:31:03 16.5 C 10.95 g/m*3 16.5 C 0 km/h
739 06-07-2010 03:43:03 16.4 C 10.75 g/m*3 16.4 C 0 km/h
740 06-07-2010 03:55:03 16 C 10.22 g/m*3 16 C 0 km/h
741 06-07-2010 04:07:03 15.7 C 10.3 g/m*3 15.7 C 0 km/h
742 06-07-2010 04:19:03 15.4 C 10.12 g/m*3 15.4 C 0 km/h
743 06-07-2010 04:31:03 15.1 C 10.06 g/m*3 15.1 C 0 km/h
744 06-07-2010 04:43:03 15 C 10 g/m*3 15 C 0 km/h
745 06-07-2010 04:55:03 14.8 C 10.01 g/m*3 14.8 C 0 km/h
746 06-07-2010 05:07:03 14.8 C 10.13 g/m*3 14.8 C 0 km/h
747 06-07-2010 05:19:03 15 C 10.39 g/m*3 15 C 0 km/h
748 06-07-2010 05:31:03 15 C 10.26 g/m*3 15 C 0 km/h
749 06-07-2010 05:43:03 14.8 C 10.26 g/m*3 14.8 C 0 km/h
750 06-07-2010 05:55:03 14.7 C 10.2 g/m*3 14.7 C 0 km/h
Sensor: Nr:Datum:Temp:Abs-Feuchte:Windchill:Wind:
Aussen-T/F 751 06-07-2010 06:07:03 14.7 C 10.2 g/m*3 14.7 C 0 km/h
752 06-07-2010 06:19:03 14.6 C 10.01 g/m*3 14.6 C 0 km/h
753 06-07-2010 06:31:03 14.6 C 10.01 g/m*3 14.6 C 0 km/h
754 06-07-2010 06:43:03 14.7 C 9.69 g/m*3 14.7 C 0 km/h
755 06-07-2010 06:55:03 14.7 C 9.69 g/m*3 14.7 C 0 km/h
756 06-07-2010 07:07:02 14.8 C 9.75 g/m*3 14.8 C 0 km/h
757 06-07-2010 07:19:02 14.9 C 9.81 g/m*3 14.9 C 0 km/h
758 06-07-2010 07:31:02 15.1 C 9.68 g/m*3 15.1 C 0 km/h
759 06-07-2010 07:43:02 15.2 C 9.61 g/m*3 15.2 C 0 km/h
760 06-07-2010 07:55:02 15.4 C 9.72 g/m*3 15.4 C 0 km/h
761 06-07-2010 08:07:02 15.5 C 9.65 g/m*3 15.5 C 0 km/h
762 06-07-2010 08:19:02 15.7 C 9.5 g/m*3 15.7 C 0 km/h
763 06-07-2010 08:31:01 15.8 C 9.29 g/m*3 15.8 C 0 km/h
764 06-07-2010 08:43:01 16.1 C 9.05 g/m*3 16.1 C 0 km/h
765 06-07-2010 08:55:02 16.4 C 8.65 g/m*3 16.4 C 0 km/h
766 06-07-2010 09:07:01 16.8 C 8.72 g/m*3 16.8 C 0 km/h
767 06-07-2010 09:19:01 17.3 C 8.54 g/m*3 17.3 C 0 km/h
768 06-07-2010 09:31:02 17.5 C 8.05 g/m*3 17.5 C 0 km/h
769 06-07-2010 09:43:02 18 C 7.99 g/m*3 18 C 0 km/h
770 06-07-2010 09:55:02 18.1 C 8.03 g/m*3 18.1 C 0 km/h
771 06-07-2010 10:07:01 19 C 7.66 g/m*3 19 C 0 km/h
772 06-07-2010 10:19:01 19.4 C 7.51 g/m*3 19.4 C 0 km/h
773 06-07-2010 10:31:02 20.2 C 7.34 g/m*3 20.2 C 0 km/h
774 06-07-2010 10:43:02 20.4 C 7.08 g/m*3 20.4 C 0 km/h
775 06-07-2010 10:55:02 21.1 C 6.63 g/m*3 21.1 C 0 km/h
Sensor: Nr:Datum:Temp:Abs-Feuchte:Windchill:Wind:
Aussen-T/F 776 06-07-2010 11:07:02 20.9 C 6.92 g/m*3 20.9 C 0 km/h
777 06-07-2010 11:19:02 20.7 C 6.66 g/m*3 20.7 C 0 km/h
778 06-07-2010 11:31:02 22 C 6.79 g/m*3 22 C 0 km/h
779 06-07-2010 11:43:03 21.3 C 6.34 g/m*3 21.3 C 0 km/h
780 06-07-2010 11:55:02 22.5 C 6.19 g/m*3 22.5 C 0 km/h
781 06-07-2010 12:07:02 21.9 C 6.18 g/m*3 21.9 C 0 km/h
782 06-07-2010 12:19:02 22.7 C 5.25 g/m*3 22.7 C 0 km/h
783 06-07-2010 12:31:02 23.3 C 5.23 g/m*3 23.3 C 0 km/h
784 06-07-2010 12:43:02 22.5 C 5.39 g/m*3 22.5 C 0 km/h
785 06-07-2010 12:55:02 24.7 C 5.43 g/m*3 24.7 C 0 km/h
786 06-07-2010 13:07:02 23.6 C 5.32 g/m*3 23.6 C 0 km/h
787 06-07-2010 13:19:02 24.5 C 4.92 g/m*3 24.5 C 0 km/h
788 06-07-2010 13:31:02 27 C 5.15 g/m*3 27 C 0 km/h
789 06-07-2010 13:43:02 23.4 C 4.63 g/m*3 23.4 C 0 km/h
790 06-07-2010 13:55:02 24.5 C 5.15 g/m*3 24.5 C 0 km/h
791 06-07-2010 14:07:02 24.1 C 4.59 g/m*3 24.1 C 0 km/h
792 06-07-2010 14:19:02 23.6 C 4.68 g/m*3 23.6 C 0 km/h
793 06-07-2010 14:31:02 23.8 C 5.16 g/m*3 23.8 C 0 km/h
794 06-07-2010 14:43:02 25.3 C 4.68 g/m*3 25.3 C 0 km/h
795 06-07-2010 14:55:02 24.6 C 4.5 g/m*3 24.6 C 0 km/h
796 06-07-2010 15:07:02 24.2 C 4.4 g/m*3 24.2 C 0 km/h
797 06-07-2010 15:19:02 24.8 C 4.55 g/m*3 24.8 C 0 km/h
798 06-07-2010 15:31:01 23.7 C 4.28 g/m*3 23.7 C 0 km/h
799 06-07-2010 15:43:01 24.9 C 4.58 g/m*3 24.9 C 0 km/h
800 06-07-2010 15:55:02 25 C 4.6 g/m*3 25 C 0 km/h
Sensor: Nr:Datum:Temp:Abs-Feuchte:Windchill:Wind:
Aussen-T/F 801 06-07-2010 16:07:01 25.2 C 4.66 g/m*3 25.2 C 0 km/h
802 06-07-2010 16:19:01 25.4 C 4.71 g/m*3 25.4 C 0 km/h
803 06-07-2010 16:31:02 26.6 C 5.03 g/m*3 26.6 C 0 km/h
804 06-07-2010 16:43:02 25.7 C 4.79 g/m*3 25.7 C 0 km/h
805 06-07-2010 16:55:02 26.3 C 4.95 g/m*3 26.3 C 0 km/h
806 06-07-2010 17:07:01 27.3 C 5.23 g/m*3 27.3 C 0 km/h
807 06-07-2010 17:19:02 26.3 C 4.95 g/m*3 26.3 C 0 km/h
808 06-07-2010 17:31:02 26.7 C 5.06 g/m*3 26.7 C 0 km/h
809 06-07-2010 17:43:02 27.1 C 5.18 g/m*3 27.1 C 0 km/h
810 06-07-2010 17:55:01 27.2 C 5.2 g/m*3 27.2 C 0 km/h
811 06-07-2010 18:07:02 25.1 C 4.63 g/m*3 25.1 C 0 km/h
812 06-07-2010 18:19:01 25.3 C 4.68 g/m*3 25.3 C 0 km/h
813 06-07-2010 18:31:02 25.5 C 4.73 g/m*3 25.5 C 0 km/h
814 06-07-2010 18:43:02 25.3 C 4.68 g/m*3 25.3 C 0 km/h
815 06-07-2010 18:55:02 26.1 C 4.9 g/m*3 26.1 C 0 km/h
816 06-07-2010 19:07:02 26 C 4.87 g/m*3 26 C 0 km/h
817 06-07-2010 19:19:01 25.8 C 5.06 g/m*3 25.8 C 0 km/h
818 06-07-2010 19:31:02 25.1 C 4.63 g/m*3 25.1 C 0 km/h
819 06-07-2010 19:43:03 24.1 C 4.59 g/m*3 24.1 C 0 km/h
820 06-07-2010 19:55:02 24.3 C 4.87 g/m*3 24.3 C 0 km/h
821 06-07-2010 20:07:02 24.7 C 4.98 g/m*3 24.7 C 0 km/h
822 06-07-2010 20:19:01 25.2 C 4.89 g/m*3 25.2 C 0 km/h
823 06-07-2010 20:31:02 24.3 C 5.09 g/m*3 24.3 C 0 km/h
824 06-07-2010 20:43:02 23.7 C 5.78 g/m*3 23.7 C 0 km/h
825 06-07-2010 20:55:02 23.6 C 5.74 g/m*3 23.6 C 0 km/h
Sensor: Nr:Datum:Temp:Abs-Feuchte:Windchill:Wind:
Aussen-T/F 826 06-07-2010 21:07:02 23 C 5.96 g/m*3 23 C 0 km/h
827 06-07-2010 21:19:02 22.3 C 6.32 g/m*3 22.3 C 0 km/h
828 06-07-2010 21:31:02 21.2 C 6.12 g/m*3 21.2 C 0 km/h
829 06-07-2010 21:43:02 20.5 C 6.41 g/m*3 20.5 C 0 km/h
830 06-07-2010 21:55:02 19.8 C 6.32 g/m*3 19.8 C 0 km/h
831 06-07-2010 22:07:02 19.3 C 6.3 g/m*3 19.3 C 0 km/h
832 06-07-2010 22:19:02 19.1 C 6.39 g/m*3 19.1 C 0 km/h
833 06-07-2010 22:31:02 18.9 C 6.48 g/m*3 18.9 C 0 km/h
834 06-07-2010 22:43:02 18.6 C 6.68 g/m*3 18.6 C 0 km/h
835 06-07-2010 22:56:03 18.3 C 6.72 g/m*3 18.3 C 0 km/h
836 06-07-2010 23:08:03 18.1 C 6.95 g/m*3 18.1 C 0 km/h
837 06-07-2010 23:20:03 17.8 C 7.13 g/m*3 17.8 C 0 km/h
838 06-07-2010 23:32:03 17.7 C 6.79 g/m*3 17.7 C 0 km/h
839 06-07-2010 23:44:03 17.5 C 6.56 g/m*3 17.5 C 0 km/h
840 06-07-2010 23:56:03 17.3 C 6.63 g/m*3 17.3 C 0 km/h
841 07-07-2010 00:08:03 16.8 C 6.72 g/m*3 16.8 C 0 km/h
842 07-07-2010 00:20:03 16.7 C 6.82 g/m*3 16.7 C 0 km/h
843 07-07-2010 00:32:03 16.5 C 6.74 g/m*3 16.5 C 0 km/h
844 07-07-2010 00:44:03 16.4 C 6.98 g/m*3 16.4 C 0 km/h
845 07-07-2010 00:56:03 16.1 C 7.13 g/m*3 16.1 C 0 km/h
846 07-07-2010 01:08:04 15.8 C 7.27 g/m*3 15.8 C 0 km/h
847 07-07-2010 01:20:04 15.7 C 7.36 g/m*3 15.7 C 0 km/h
848 07-07-2010 01:32:04 15.6 C 7.45 g/m*3 15.6 C 0 km/h
849 07-07-2010 01:44:04 15.3 C 7.44 g/m*3 15.3 C 0 km/h
850 07-07-2010 01:56:04 15.2 C 7.53 g/m*3 15.2 C 0 km/h
Sensor: Nr:Datum:Temp:Abs-Feuchte:Windchill:Wind:
Aussen-T/F 851 07-07-2010 02:08:04 15.2 C 7.53 g/m*3 15.2 C 0 km/h
852 07-07-2010 02:20:04 15 C 7.69 g/m*3 15 C 0 km/h
853 07-07-2010 02:32:04 14.8 C 7.73 g/m*3 14.8 C 0 km/h
854 07-07-2010 02:44:04 14.6 C 7.63 g/m*3 14.6 C 0 km/h
855 07-07-2010 02:56:04 14.4 C 7.79 g/m*3 14.4 C 0 km/h
856 07-07-2010 03:08:04 14.1 C 7.77 g/m*3 14.1 C 0 km/h
857 07-07-2010 03:20:04 13.9 C 7.79 g/m*3 13.9 C 0 km/h
858 07-07-2010 03:32:04 14 C 7.72 g/m*3 14 C 0 km/h
859 07-07-2010 03:44:04 13.9 C 7.79 g/m*3 13.9 C 0 km/h
860 07-07-2010 03:56:04 13.7 C 7.82 g/m*3 13.7 C 0 km/h
861 07-07-2010 04:08:04 13.5 C 7.72 g/m*3 13.5 C 0 km/h
862 07-07-2010 04:20:04 13.4 C 7.67 g/m*3 13.4 C 0 km/h
863 07-07-2010 04:32:04 13.3 C 7.74 g/m*3 13.3 C 0 km/h
864 07-07-2010 04:44:04 13.2 C 7.81 g/m*3 13.2 C 0 km/h
865 07-07-2010 04:56:04 13.1 C 7.76 g/m*3 13.1 C 0 km/h
866 07-07-2010 05:08:04 13 C 7.83 g/m*3 13 C 0 km/h
867 07-07-2010 05:20:04 12.9 C 8 g/m*3 12.9 C 0 km/h
868 07-07-2010 05:32:05 12.8 C 7.95 g/m*3 12.8 C 0 km/h
869 07-07-2010 05:44:05 12.6 C 8.08 g/m*3 12.6 C 0 km/h
870 07-07-2010 05:56:05 12.5 C 8.14 g/m*3 12.5 C 0 km/h
871 07-07-2010 06:08:05 12.5 C 8.14 g/m*3 12.5 C 0 km/h
872 07-07-2010 06:20:03 12.6 C 8.19 g/m*3 12.6 C 0 km/h
873 07-07-2010 06:32:03 12.7 C 8.24 g/m*3 12.7 C 0 km/h
874 07-07-2010 06:44:03 12.8 C 8.29 g/m*3 12.8 C 0 km/h
875 07-07-2010 06:56:02 12.9 C 8.34 g/m*3 12.9 C 0 km/h
Sensor: Nr:Datum:Temp:Abs-Feuchte:Windchill:Wind:
Aussen-T/F 876 07-07-2010 07:08:02 13 C 8.39 g/m*3 13 C 0 km/h
877 07-07-2010 07:20:03 13.2 C 8.38 g/m*3 13.2 C 0 km/h
878 07-07-2010 07:32:02 13.3 C 8.32 g/m*3 13.3 C 0 km/h
879 07-07-2010 07:44:02 13.4 C 8.37 g/m*3 13.4 C 0 km/h
880 07-07-2010 07:56:03 13.8 C 8.46 g/m*3 13.8 C 0 km/h
881 07-07-2010 08:08:02 14.1 C 8.37 g/m*3 14.1 C 0 km/h
882 07-07-2010 08:20:02 14.3 C 8.23 g/m*3 14.3 C 0 km/h
883 07-07-2010 08:32:02 14.7 C 8.44 g/m*3 14.7 C 0 km/h
884 07-07-2010 08:44:02 15.1 C 8.39 g/m*3 15.1 C 0 km/h
885 07-07-2010 08:56:02 15.6 C 8.11 g/m*3 15.6 C 0 km/h
886 07-07-2010 09:08:02 16.2 C 8.14 g/m*3 16.2 C 0 km/h
887 07-07-2010 09:20:02 16.9 C 8.2 g/m*3 16.9 C 0 km/h
888 07-07-2010 09:32:02 17.7 C 8.15 g/m*3 17.7 C 0 km/h
889 07-07-2010 09:44:02 18.4 C 8.02 g/m*3 18.4 C 0 km/h
890 07-07-2010 09:56:02 19.1 C 8.03 g/m*3 19.1 C 0 km/h
891 07-07-2010 10:08:01 19.8 C 8.03 g/m*3 19.8 C 0 km/h
892 07-07-2010 10:20:01 20.3 C 8.09 g/m*3 20.3 C 0 km/h
893 07-07-2010 10:32:02 21.3 C 8.2 g/m*3 21.3 C 0 km/h
894 07-07-2010 10:44:02 21.7 C 8.01 g/m*3 21.7 C 0 km/h
895 07-07-2010 10:56:02 22.1 C 7.42 g/m*3 22.1 C 0 km/h
896 07-07-2010 11:08:02 23 C 6.58 g/m*3 23 C 0 km/h
897 07-07-2010 11:20:02 23 C 6.17 g/m*3 23 C 0 km/h
898 07-07-2010 11:32:02 23.5 C 5.92 g/m*3 23.5 C 0 km/h
899 07-07-2010 11:44:02 23.9 C 5.62 g/m*3 23.9 C 0 km/h
900 07-07-2010 11:56:01 24.7 C 5.66 g/m*3 24.7 C 0 km/h
Sensor: Nr:Datum:Temp:Abs-Feuchte:Windchill:Wind:
Aussen-T/F 901 07-07-2010 12:08:02 25.4 C 5.41 g/m*3 25.4 C 0 km/h
902 07-07-2010 12:20:01 26.1 C 5.14 g/m*3 26.1 C 0 km/h
903 07-07-2010 12:32:01 26.5 C 5.26 g/m*3 26.5 C 0 km/h
904 07-07-2010 12:44:01 28 C 5.44 g/m*3 28 C 0 km/h
905 07-07-2010 12:56:02 27.9 C 5.41 g/m*3 27.9 C 0 km/h
906 07-07-2010 13:08:02 28.1 C 5.47 g/m*3 28.1 C 0 km/h
907 07-07-2010 13:20:01 28.4 C 5.56 g/m*3 28.4 C 0 km/h
908 07-07-2010 13:32:02 30.1 C 6.1 g/m*3 30.1 C 0 km/h
909 07-07-2010 13:44:02 30.5 C 6.23 g/m*3 30.5 C 0 km/h
910 07-07-2010 13:56:02 29.8 C 6 g/m*3 29.8 C 0 km/h
911 07-07-2010 14:08:02 28.2 C 5.5 g/m*3 28.2 C 0 km/h
912 07-07-2010 14:20:01 27.7 C 5.35 g/m*3 27.7 C 0 km/h
913 07-07-2010 14:32:02 28.1 C 5.47 g/m*3 28.1 C 0 km/h
914 07-07-2010 14:44:02 28.9 C 5.71 g/m*3 28.9 C 0 km/h
915 07-07-2010 14:56:02 28.8 C 5.68 g/m*3 28.8 C 0 km/h
916 07-07-2010 15:08:02 29.3 C 5.84 g/m*3 29.3 C 0 km/h
917 07-07-2010 15:20:02 30.1 C 6.1 g/m*3 30.1 C 0 km/h
918 07-07-2010 15:32:02 30.1 C 6.1 g/m*3 30.1 C 0 km/h
919 07-07-2010 15:44:02 31 C 6.4 g/m*3 31 C 0 km/h
920 07-07-2010 15:56:02 31.5 C 6.57 g/m*3 31.5 C 0 km/h
921 07-07-2010 16:08:02 31.8 C 6.68 g/m*3 31.8 C 0 km/h
922 07-07-2010 16:20:02 31.9 C 6.72 g/m*3 31.9 C 0 km/h
923 07-07-2010 16:32:02 31.7 C 6.64 g/m*3 31.7 C 0 km/h
924 07-07-2010 16:44:02 32 C 6.75 g/m*3 32 C 0 km/h
925 07-07-2010 16:56:01 32.4 C 6.9 g/m*3 32.4 C 0 km/h
Sensor: Nr:Datum:Temp:Abs-Feuchte:Windchill:Wind:
Aussen-T/F 926 07-07-2010 17:08:02 32.5 C 6.93 g/m*3 32.5 C 0 km/h
927 07-07-2010 17:20:02 32.1 C 6.79 g/m*3 32.1 C 0 km/h
928 07-07-2010 17:32:02 32.7 C 7.01 g/m*3 32.7 C 0 km/h
929 07-07-2010 17:44:02 32.6 C 6.97 g/m*3 32.6 C 0 km/h
930 07-07-2010 17:56:02 32.8 C 7.04 g/m*3 32.8 C 0 km/h
931 07-07-2010 18:08:02 33 C 7.12 g/m*3 33 C 0 km/h
932 07-07-2010 18:20:02 33.2 C 7.2 g/m*3 33.2 C 0 km/h
933 07-07-2010 18:32:01 32.8 C 7.04 g/m*3 32.8 C 0 km/h
934 07-07-2010 18:44:01 32.8 C 7.04 g/m*3 32.8 C 0 km/h
935 07-07-2010 18:56:02 32.6 C 6.97 g/m*3 32.6 C 0 km/h
936 07-07-2010 19:08:02 32.5 C 6.93 g/m*3 32.5 C 0 km/h
937 07-07-2010 19:20:02 32.5 C 6.93 g/m*3 32.5 C 0 km/h
938 07-07-2010 19:32:02 32.5 C 6.93 g/m*3 32.5 C 0 km/h
939 07-07-2010 19:44:02 32.4 C 6.9 g/m*3 32.4 C 0 km/h
940 07-07-2010 19:56:02 32.1 C 6.79 g/m*3 32.1 C 0 km/h
941 07-07-2010 20:08:01 32 C 6.75 g/m*3 32 C 0 km/h
942 07-07-2010 20:20:02 31.7 C 6.64 g/m*3 31.7 C 0 km/h
943 07-07-2010 20:32:02 31.3 C 6.5 g/m*3 31.3 C 0 km/h
944 07-07-2010 20:44:02 30.9 C 6.37 g/m*3 30.9 C 0 km/h
945 07-07-2010 20:56:02 30.4 C 6.2 g/m*3 30.4 C 0 km/h
946 07-07-2010 21:08:02 29.1 C 6.35 g/m*3 29.1 C 0 km/h
947 07-07-2010 21:20:02 27.5 C 6.61 g/m*3 27.5 C 0 km/h
948 07-07-2010 21:32:02 26.5 C 6.76 g/m*3 26.5 C 0 km/h
949 07-07-2010 21:44:03 25.9 C 6.78 g/m*3 25.9 C 0 km/h
950 07-07-2010 21:56:01 25.3 C 6.79 g/m*3 25.3 C 0 km/h
Sensor: Nr:Datum:Temp:Abs-Feuchte:Windchill:Wind:
Aussen-T/F 951 07-07-2010 22:08:02 24.9 C 6.87 g/m*3 24.9 C 0 km/h
952 07-07-2010 22:20:01 24.6 C 6.75 g/m*3 24.6 C 0 km/h
953 07-07-2010 22:32:01 24.4 C 6.9 g/m*3 24.4 C 0 km/h
954 07-07-2010 22:44:01 24.1 C 6.78 g/m*3 24.1 C 0 km/h
955 07-07-2010 22:56:01 24 C 6.96 g/m*3 24 C 0 km/h
956 07-07-2010 23:08:01 23.8 C 7.1 g/m*3 23.8 C 0 km/h
957 07-07-2010 23:20:02 23.7 C 6.84 g/m*3 23.7 C 0 km/h
958 07-07-2010 23:32:01 23.7 C 7.06 g/m*3 23.7 C 0 km/h
959 07-07-2010 23:44:01 23.7 C 7.27 g/m*3 23.7 C 0 km/h
960 07-07-2010 23:56:01 23.6 C 7.23 g/m*3 23.6 C 0 km/h
961 08-07-2010 00:08:01 23.3 C 7.32 g/m*3 23.3 C 0 km/h
962 08-07-2010 00:21:04 22.8 C 7.52 g/m*3 22.8 C 0 km/h
963 08-07-2010 00:33:04 22.3 C 7.7 g/m*3 22.3 C 0 km/h
964 08-07-2010 00:45:04 22 C 7.96 g/m*3 22 C 0 km/h
965 08-07-2010 00:57:04 21.5 C 8.11 g/m*3 21.5 C 0 km/h
966 08-07-2010 01:09:04 21.1 C 7.92 g/m*3 21.1 C 0 km/h
967 08-07-2010 01:21:04 20.8 C 7.97 g/m*3 20.8 C 0 km/h
968 08-07-2010 01:33:04 20.4 C 7.96 g/m*3 20.4 C 0 km/h
969 08-07-2010 01:45:04 20.3 C 8.09 g/m*3 20.3 C 0 km/h
970 08-07-2010 01:57:04 20.1 C 8 g/m*3 20.1 C 0 km/h
971 08-07-2010 02:09:04 20 C 8.3 g/m*3 20 C 0 km/h
972 08-07-2010 02:21:04 19.9 C 8.42 g/m*3 19.9 C 0 km/h
973 08-07-2010 02:33:04 19.8 C 8.2 g/m*3 19.8 C 0 km/h
974 08-07-2010 02:45:04 19.7 C 7.98 g/m*3 19.7 C 0 km/h
975 08-07-2010 02:57:05 19.5 C 8.06 g/m*3 19.5 C 0 km/h
Sensor: Nr:Datum:Temp:Abs-Feuchte:Windchill:Wind:
Aussen-T/F 976 08-07-2010 03:09:05 19.4 C 8.01 g/m*3 19.4 C 0 km/h
977 08-07-2010 03:21:05 19.6 C 8.1 g/m*3 19.6 C 0 km/h
978 08-07-2010 03:33:05 19.6 C 8.1 g/m*3 19.6 C 0 km/h
979 08-07-2010 03:45:05 19.3 C 8.29 g/m*3 19.3 C 0 km/h
980 08-07-2010 03:57:05 19.1 C 8.2 g/m*3 19.1 C 0 km/h
981 08-07-2010 04:09:05 18.8 C 8.21 g/m*3 18.8 C 0 km/h
982 08-07-2010 04:21:05 18.7 C 8.33 g/m*3 18.7 C 0 km/h
983 08-07-2010 04:33:05 18.4 C 8.18 g/m*3 18.4 C 0 km/h
984 08-07-2010 04:45:05 18.4 C 8.65 g/m*3 18.4 C 0 km/h
985 08-07-2010 04:57:05 18.3 C 8.76 g/m*3 18.3 C 0 km/h
986 08-07-2010 05:09:05 18.1 C 8.5 g/m*3 18.1 C 0 km/h
987 08-07-2010 05:21:05 17.9 C 8.4 g/m*3 17.9 C 0 km/h
988 08-07-2010 05:33:05 17.8 C 8.5 g/m*3 17.8 C 0 km/h
989 08-07-2010 05:45:05 17.6 C 8.4 g/m*3 17.6 C 0 km/h
990 08-07-2010 05:57:05 17.5 C 8.2 g/m*3 17.5 C 0 km/h
991 08-07-2010 06:09:05 17.4 C 8.15 g/m*3 17.4 C 0 km/h
992 08-07-2010 06:21:03 17.3 C 8.4 g/m*3 17.3 C 0 km/h
993 08-07-2010 06:33:03 17.3 C 8.4 g/m*3 17.3 C 0 km/h
994 08-07-2010 06:45:02 17.4 C 8.74 g/m*3 17.4 C 0 km/h
995 08-07-2010 06:57:02 17.5 C 8.8 g/m*3 17.5 C 0 km/h
996 08-07-2010 07:09:02 17.7 C 8.9 g/m*3 17.7 C 0 km/h
997 08-07-2010 07:21:02 17.7 C 8.9 g/m*3 17.7 C 0 km/h
998 08-07-2010 07:33:01 17.9 C 9.01 g/m*3 17.9 C 0 km/h
999 08-07-2010 07:45:02 18.1 C 8.96 g/m*3 18.1 C 0 km/h
1000 08-07-2010 07:57:02 18.2 C 8.86 g/m*3 18.2 C 0 km/h
Sensor: Nr:Datum:Temp:Abs-Feuchte:Windchill:Wind:
Aussen-T/F 1001 08-07-2010 08:09:01 18.5 C 9.02 g/m*3 18.5 C 0 km/h
1002 08-07-2010 08:21:02 18.7 C 8.81 g/m*3 18.7 C 0 km/h
1003 08-07-2010 08:33:01 19.1 C 8.85 g/m*3 19.1 C 0 km/h
1004 08-07-2010 08:45:02 19.4 C 8.84 g/m*3 19.4 C 0 km/h
1005 08-07-2010 08:57:02 19.9 C 8.93 g/m*3 19.9 C 0 km/h
1006 08-07-2010 09:09:02 20.6 C 9.13 g/m*3 20.6 C 0 km/h
1007 08-07-2010 09:21:02 21.3 C 9.32 g/m*3 21.3 C 0 km/h
1008 08-07-2010 09:33:02 22.3 C 9.08 g/m*3 22.3 C 0 km/h
1009 08-07-2010 09:45:02 23.1 C 9.1 g/m*3 23.1 C 0 km/h
1010 08-07-2010 09:57:03 23.9 C 9.09 g/m*3 23.9 C 0 km/h
1011 08-07-2010 10:09:01 24.6 C 9.23 g/m*3 24.6 C 0 km/h
1012 08-07-2010 10:21:01 25.3 C 8.66 g/m*3 25.3 C 0 km/h
1013 08-07-2010 10:33:02 26 C 9.01 g/m*3 26 C 0 km/h
1014 08-07-2010 10:45:02 26.5 C 9.01 g/m*3 26.5 C 0 km/h
1015 08-07-2010 10:57:02 27.4 C 8.68 g/m*3 27.4 C 0 km/h
1016 08-07-2010 11:09:02 27.8 C 6.99 g/m*3 27.8 C 0 km/h
1017 08-07-2010 11:21:01 28.6 C 7.03 g/m*3 28.6 C 0 km/h
1018 08-07-2010 11:33:02 29.3 C 7.01 g/m*3 29.3 C 0 km/h
1019 08-07-2010 11:45:02 29.9 C 7.54 g/m*3 29.9 C 0 km/h
1020 08-07-2010 11:57:02 30.3 C 6.78 g/m*3 30.3 C 0 km/h
1021 08-07-2010 12:09:02 30.8 C 6.33 g/m*3 30.8 C 0 km/h
1022 08-07-2010 12:21:01 31.4 C 6.54 g/m*3 31.4 C 0 km/h
1023 08-07-2010 12:33:02 31.8 C 6.68 g/m*3 31.8 C 0 km/h
1024 08-07-2010 12:45:02 31.9 C 6.72 g/m*3 31.9 C 0 km/h
1025 08-07-2010 12:57:02 31.6 C 6.61 g/m*3 31.6 C 0 km/h
Sensor: Nr:Datum:Temp:Abs-Feuchte:Windchill:Wind:
Aussen-T/F 1026 08-07-2010 13:09:02 32.1 C 6.79 g/m*3 32.1 C 0 km/h
1027 08-07-2010 13:21:01 32.8 C 7.04 g/m*3 32.8 C 0 km/h
1028 08-07-2010 13:33:02 33 C 7.12 g/m*3 33 C 0 km/h
1029 08-07-2010 13:45:01 33.3 C 7.23 g/m*3 33.3 C 0 km/h
1030 08-07-2010 13:57:01 33.2 C 7.2 g/m*3 33.2 C 0 km/h
1031 08-07-2010 14:09:02 32.5 C 6.93 g/m*3 32.5 C 0 km/h
1032 08-07-2010 14:21:01 32.3 C 6.86 g/m*3 32.3 C 0 km/h
1033 08-07-2010 14:33:02 32.3 C 6.86 g/m*3 32.3 C 0 km/h
1034 08-07-2010 14:45:01 32.3 C 6.86 g/m*3 32.3 C 0 km/h
1035 08-07-2010 14:57:01 32.4 C 6.9 g/m*3 32.4 C 0 km/h
1036 08-07-2010 15:09:02 32.7 C 7.01 g/m*3 32.7 C 0 km/h
1037 08-07-2010 15:21:01 32.9 C 7.08 g/m*3 32.9 C 0 km/h
1038 08-07-2010 15:33:01 33.3 C 7.23 g/m*3 33.3 C 0 km/h
1039 08-07-2010 15:45:01 33.7 C 7.39 g/m*3 33.7 C 0 km/h
1040 08-07-2010 15:57:01 33.7 C 7.39 g/m*3 33.7 C 0 km/h
1041 08-07-2010 16:09:02 33.8 C 7.43 g/m*3 33.8 C 0 km/h
1042 08-07-2010 16:21:02 33.8 C 7.43 g/m*3 33.8 C 0 km/h
1043 08-07-2010 16:33:01 33.9 C 7.46 g/m*3 33.9 C 0 km/h
1044 08-07-2010 16:45:01 33.3 C 7.23 g/m*3 33.3 C 0 km/h
1045 08-07-2010 16:57:01 33.3 C 7.23 g/m*3 33.3 C 0 km/h
1046 08-07-2010 17:09:01 33.3 C 7.23 g/m*3 33.3 C 0 km/h
1047 08-07-2010 17:21:02 33.5 C 7.31 g/m*3 33.5 C 0 km/h
1048 08-07-2010 17:33:01 34.2 C 7.58 g/m*3 34.2 C 0 km/h
1049 08-07-2010 17:45:03 34.6 C 7.74 g/m*3 34.6 C 0 km/h
1050 08-07-2010 17:57:03 34.2 C 7.58 g/m*3 34.2 C 0 km/h
Sensor: Nr:Datum:Temp:Abs-Feuchte:Windchill:Wind:
Aussen-T/F 1051 08-07-2010 18:09:02 34.7 C 7.78 g/m*3 34.7 C 0 km/h
1052 08-07-2010 18:21:02 34 C 7.5 g/m*3 34 C 0 km/h
1053 08-07-2010 18:33:02 34.2 C 7.58 g/m*3 34.2 C 0 km/h
1054 08-07-2010 18:45:02 34.4 C 7.66 g/m*3 34.4 C 0 km/h
1055 08-07-2010 18:57:02 34.6 C 7.74 g/m*3 34.6 C 0 km/h
1056 08-07-2010 19:09:02 34.5 C 7.7 g/m*3 34.5 C 0 km/h
1057 08-07-2010 19:21:02 34.4 C 7.66 g/m*3 34.4 C 0 km/h
1058 08-07-2010 19:33:02 34.1 C 7.54 g/m*3 34.1 C 0 km/h
1059 08-07-2010 19:45:02 33.9 C 7.46 g/m*3 33.9 C 0 km/h
1060 08-07-2010 19:57:03 33.8 C 7.43 g/m*3 33.8 C 0 km/h
1061 08-07-2010 20:09:01 33.7 C 7.39 g/m*3 33.7 C 0 km/h
1062 08-07-2010 20:21:01 33.3 C 7.23 g/m*3 33.3 C 0 km/h
1063 08-07-2010 20:33:02 33 C 7.12 g/m*3 33 C 0 km/h
1064 08-07-2010 20:45:02 32.7 C 7.01 g/m*3 32.7 C 0 km/h
1065 08-07-2010 20:57:02 32.3 C 7.2 g/m*3 32.3 C 0 km/h
1066 08-07-2010 21:09:02 31.4 C 7.52 g/m*3 31.4 C 0 km/h
1067 08-07-2010 21:21:02 30.4 C 8.37 g/m*3 30.4 C 0 km/h
1068 08-07-2010 21:33:02 29.9 C 8.45 g/m*3 29.9 C 0 km/h
1069 08-07-2010 21:45:02 29.3 C 8.47 g/m*3 29.3 C 0 km/h
1070 08-07-2010 21:57:02 28.9 C 8.57 g/m*3 28.9 C 0 km/h
1071 08-07-2010 22:09:03 28.4 C 8.06 g/m*3 28.4 C 0 km/h
1072 08-07-2010 22:21:02 28.3 C 8.29 g/m*3 28.3 C 0 km/h
1073 08-07-2010 22:33:02 28 C 8.16 g/m*3 28 C 0 km/h
1074 08-07-2010 22:46:02 27.8 C 8.34 g/m*3 27.8 C 0 km/h
1075 08-07-2010 22:58:02 27.6 C 8.25 g/m*3 27.6 C 0 km/h
Sensor: Nr:Datum:Temp:Abs-Feuchte:Windchill:Wind:
Aussen-T/F 1076 08-07-2010 23:10:02 27.5 C 8.2 g/m*3 27.5 C 0 km/h
1077 08-07-2010 23:22:02 27.2 C 8.33 g/m*3 27.2 C 0 km/h
1078 08-07-2010 23:34:03 27 C 7.98 g/m*3 27 C 0 km/h
1079 08-07-2010 23:46:03 27 C 7.98 g/m*3 27 C 0 km/h
1080 08-07-2010 23:58:03 26.9 C 7.93 g/m*3 26.9 C 0 km/h
1081 09-07-2010 00:10:03 26.8 C 7.89 g/m*3 26.8 C 0 km/h
1082 09-07-2010 00:22:03 26.2 C 8.12 g/m*3 26.2 C 0 km/h
1083 09-07-2010 00:34:03 25.5 C 8.29 g/m*3 25.5 C 0 km/h
1084 09-07-2010 00:46:03 25.3 C 8.66 g/m*3 25.3 C 0 km/h
1085 09-07-2010 00:58:03 24.5 C 8.95 g/m*3 24.5 C 0 km/h
1086 09-07-2010 01:10:03 24.3 C 8.85 g/m*3 24.3 C 0 km/h
1087 09-07-2010 01:22:03 24.1 C 8.75 g/m*3 24.1 C 0 km/h
1088 09-07-2010 01:34:03 23.7 C 8.77 g/m*3 23.7 C 0 km/h
1089 09-07-2010 01:46:03 23.5 C 8.88 g/m*3 23.5 C 0 km/h
1090 09-07-2010 01:58:03 23.3 C 8.78 g/m*3 23.3 C 0 km/h
1091 09-07-2010 02:10:03 23 C 8.84 g/m*3 23 C 0 km/h
1092 09-07-2010 02:22:03 22.8 C 9.14 g/m*3 22.8 C 0 km/h
1093 09-07-2010 02:34:03 22.4 C 9.14 g/m*3 22.4 C 0 km/h
1094 09-07-2010 02:46:03 22 C 8.73 g/m*3 22 C 0 km/h
1095 09-07-2010 02:58:03 21.8 C 8.83 g/m*3 21.8 C 0 km/h
1096 09-07-2010 03:10:03 21.7 C 8.97 g/m*3 21.7 C 0 km/h
1097 09-07-2010 03:22:03 21.4 C 9.37 g/m*3 21.4 C 0 km/h
1098 09-07-2010 03:34:03 21.3 C 9.32 g/m*3 21.3 C 0 km/h
1099 09-07-2010 03:46:04 21 C 9.16 g/m*3 21 C 0 km/h
1100 09-07-2010 03:58:04 20.8 C 9.23 g/m*3 20.8 C 0 km/h
Sensor: Nr:Datum:Temp:Abs-Feuchte:Windchill:Wind:
Aussen-T/F 1101 09-07-2010 04:10:04 20.5 C 9.43 g/m*3 20.5 C 0 km/h
1102 09-07-2010 04:22:04 20.3 C 9.32 g/m*3 20.3 C 0 km/h
1103 09-07-2010 04:34:04 20.2 C 9.44 g/m*3 20.2 C 0 km/h
1104 09-07-2010 04:46:04 20 C 9.51 g/m*3 20 C 0 km/h
1105 09-07-2010 04:58:04 19.8 C 9.57 g/m*3 19.8 C 0 km/h
1106 09-07-2010 05:10:04 19.4 C 9.51 g/m*3 19.4 C 0 km/h
1107 09-07-2010 05:22:04 19.3 C 9.45 g/m*3 19.3 C 0 km/h
1108 09-07-2010 05:34:04 19.2 C 9.4 g/m*3 19.2 C 0 km/h
1109 09-07-2010 05:46:04 19.1 C 9.51 g/m*3 19.1 C 0 km/h
1110 09-07-2010 05:58:04 19.1 C 9.51 g/m*3 19.1 C 0 km/h
1111 09-07-2010 06:10:04 19 C 9.78 g/m*3 19 C 0 km/h
1112 09-07-2010 06:22:04 19.1 C 9.84 g/m*3 19.1 C 0 km/h
1113 09-07-2010 06:34:04 18.9 C 10.04 g/m*3 18.9 C 0 km/h
1114 09-07-2010 06:46:04 19.1 C 10 g/m*3 19.1 C 0 km/h
1115 09-07-2010 06:58:04 19.2 C 10.22 g/m*3 19.2 C 0 km/h
1116 09-07-2010 07:10:02 19.3 C 10.12 g/m*3 19.3 C 0 km/h
1117 09-07-2010 07:22:02 19.4 C 10.18 g/m*3 19.4 C 0 km/h
1118 09-07-2010 07:34:02 19.9 C 10.31 g/m*3 19.9 C 0 km/h
1119 09-07-2010 07:46:02 20.3 C 9.85 g/m*3 20.3 C 0 km/h
1120 09-07-2010 07:58:02 20.6 C 10.02 g/m*3 20.6 C 0 km/h
1121 09-07-2010 08:10:01 20.8 C 9.96 g/m*3 20.8 C 0 km/h
1122 09-07-2010 08:22:01 21.3 C 10.07 g/m*3 21.3 C 0 km/h
1123 09-07-2010 08:34:02 21.5 C 9.99 g/m*3 21.5 C 0 km/h
1124 09-07-2010 08:46:02 21.8 C 9.98 g/m*3 21.8 C 0 km/h
1125 09-07-2010 08:58:02 22.1 C 9.76 g/m*3 22.1 C 0 km/h
Sensor: Nr:Datum:Temp:Abs-Feuchte:Windchill:Wind:
Aussen-T/F 1126 09-07-2010 09:10:02 22.6 C 10.04 g/m*3 22.6 C 0 km/h
1127 09-07-2010 09:22:02 23.3 C 10.04 g/m*3 23.3 C 0 km/h
1128 09-07-2010 09:34:02 24.1 C 10.06 g/m*3 24.1 C 0 km/h
1129 09-07-2010 09:46:02 25 C 10.13 g/m*3 25 C 0 km/h
1130 09-07-2010 09:58:02 25.8 C 10.35 g/m*3 25.8 C 0 km/h
1131 09-07-2010 10:10:02 26.5 C 10.26 g/m*3 26.5 C 0 km/h
1132 09-07-2010 10:22:02 27.3 C 10.2 g/m*3 27.3 C 0 km/h
1133 09-07-2010 10:34:02 27.8 C 10.49 g/m*3 27.8 C 0 km/h
1134 09-07-2010 10:46:01 28.8 C 10.23 g/m*3 28.8 C 0 km/h
1135 09-07-2010 10:58:01 29.3 C 10.22 g/m*3 29.3 C 0 km/h
1136 09-07-2010 11:10:02 30 C 10.01 g/m*3 30 C 0 km/h
1137 09-07-2010 11:22:01 30.2 C 10.42 g/m*3 30.2 C 0 km/h
1138 09-07-2010 11:34:01 30.8 C 9.5 g/m*3 30.8 C 0 km/h
1139 09-07-2010 11:46:01 31.3 C 8.46 g/m*3 31.3 C 0 km/h
1140 09-07-2010 11:58:01 31.8 C 7.35 g/m*3 31.8 C 0 km/h
1141 09-07-2010 12:10:02 32.3 C 6.86 g/m*3 32.3 C 0 km/h
1142 09-07-2010 12:22:01 32.7 C 7.01 g/m*3 32.7 C 0 km/h
1143 09-07-2010 12:34:01 33.2 C 7.2 g/m*3 33.2 C 0 km/h
1144 09-07-2010 12:46:01 33.6 C 7.35 g/m*3 33.6 C 0 km/h
1145 09-07-2010 12:58:01 33.9 C 7.46 g/m*3 33.9 C 0 km/h
1146 09-07-2010 13:10:02 34.2 C 7.58 g/m*3 34.2 C 0 km/h
1147 09-07-2010 13:22:02 34.2 C 7.58 g/m*3 34.2 C 0 km/h
1148 09-07-2010 13:34:01 34.6 C 7.74 g/m*3 34.6 C 0 km/h
1149 09-07-2010 13:46:01 35 C 7.91 g/m*3 35 C 0 km/h
1150 09-07-2010 13:58:01 34.8 C 7.82 g/m*3 34.8 C 0 km/h
Sensor: Nr:Datum:Temp:Abs-Feuchte:Windchill:Wind:
Aussen-T/F 1151 09-07-2010 14:10:02 33.9 C 7.46 g/m*3 33.9 C 0 km/h
1152 09-07-2010 14:22:02 33.5 C 7.31 g/m*3 33.5 C 0 km/h
1153 09-07-2010 14:34:01 33.1 C 7.16 g/m*3 33.1 C 0 km/h
1154 09-07-2010 14:46:01 33 C 7.12 g/m*3 33 C 0 km/h
1155 09-07-2010 14:58:01 32.8 C 7.04 g/m*3 32.8 C 0 km/h
1156 09-07-2010 15:10:02 33.2 C 7.2 g/m*3 33.2 C 0 km/h
1157 09-07-2010 15:22:02 33.2 C 7.2 g/m*3 33.2 C 0 km/h
1158 09-07-2010 15:34:01 33.8 C 7.43 g/m*3 33.8 C 0 km/h
1159 09-07-2010 15:46:02 33.9 C 7.46 g/m*3 33.9 C 0 km/h
1160 09-07-2010 15:58:02 33.3 C 7.23 g/m*3 33.3 C 0 km/h
1161 09-07-2010 16:10:01 33.2 C 7.2 g/m*3 33.2 C 0 km/h
1162 09-07-2010 16:22:02 32.9 C 7.08 g/m*3 32.9 C 0 km/h
1163 09-07-2010 16:34:01 32.1 C 7.13 g/m*3 32.1 C 0 km/h
1164 09-07-2010 16:46:03 31.8 C 8.35 g/m*3 31.8 C 0 km/h
1165 09-07-2010 16:58:03 31.4 C 8.83 g/m*3 31.4 C 0 km/h
1166 09-07-2010 17:10:02 31.2 C 8.73 g/m*3 31.2 C 0 km/h
1167 09-07-2010 17:22:02 31.8 C 8.35 g/m*3 31.8 C 0 km/h
1168 09-07-2010 17:34:02 32.8 C 7.04 g/m*3 32.8 C 0 km/h
1169 09-07-2010 17:46:02 32.7 C 7.36 g/m*3 32.7 C 0 km/h
1170 09-07-2010 17:58:02 33.1 C 7.16 g/m*3 33.1 C 0 km/h
1171 09-07-2010 18:10:02 33.2 C 7.2 g/m*3 33.2 C 0 km/h
1172 09-07-2010 18:22:02 33.4 C 7.27 g/m*3 33.4 C 0 km/h
1173 09-07-2010 18:34:02 33.1 C 7.16 g/m*3 33.1 C 0 km/h
1174 09-07-2010 18:46:02 33.6 C 7.35 g/m*3 33.6 C 0 km/h
1175 09-07-2010 18:58:02 33.8 C 7.43 g/m*3 33.8 C 0 km/h
Sensor: Nr:Datum:Temp:Abs-Feuchte:Windchill:Wind:
Aussen-T/F 1176 09-07-2010 19:10:03 33.6 C 7.35 g/m*3 33.6 C 0 km/h
1177 09-07-2010 19:22:03 33.5 C 7.31 g/m*3 33.5 C 0 km/h
1178 09-07-2010 19:34:03 33.5 C 7.31 g/m*3 33.5 C 0 km/h
1179 09-07-2010 19:46:01 33.5 C 7.31 g/m*3 33.5 C 0 km/h
1180 09-07-2010 19:58:01 33.3 C 7.23 g/m*3 33.3 C 0 km/h
1181 09-07-2010 20:10:01 33.1 C 7.16 g/m*3 33.1 C 0 km/h
1182 09-07-2010 20:22:00 32.9 C 7.08 g/m*3 32.9 C 0 km/h
1183 09-07-2010 20:34:01 32.1 C 7.47 g/m*3 32.1 C 0 km/h
1184 09-07-2010 20:46:01 31.3 C 7.81 g/m*3 31.3 C 0 km/h
1185 09-07-2010 20:58:01 30.8 C 8.23 g/m*3 30.8 C 0 km/h
1186 09-07-2010 21:10:02 30.4 C 8.37 g/m*3 30.4 C 0 km/h
1187 09-07-2010 21:22:01 30.2 C 8.58 g/m*3 30.2 C 0 km/h
1188 09-07-2010 21:34:01 30 C 8.79 g/m*3 30 C 0 km/h
1189 09-07-2010 21:46:02 29.6 C 8.9 g/m*3 29.6 C 0 km/h
1190 09-07-2010 21:58:02 29.5 C 8.85 g/m*3 29.5 C 0 km/h
1191 09-07-2010 22:10:02 29.2 C 9 g/m*3 29.2 C 0 km/h
1192 09-07-2010 22:22:02 28.9 C 9.43 g/m*3 28.9 C 0 km/h
1193 09-07-2010 22:34:02 28.9 C 9.71 g/m*3 28.9 C 0 km/h
1194 09-07-2010 22:47:03 28.6 C 9.84 g/m*3 28.6 C 0 km/h
1195 09-07-2010 22:59:03 28.3 C 9.4 g/m*3 28.3 C 0 km/h
1196 09-07-2010 23:11:03 28 C 9.25 g/m*3 28 C 0 km/h
1197 09-07-2010 23:23:04 27.9 C 9.47 g/m*3 27.9 C 0 km/h
1198 09-07-2010 23:35:04 27.8 C 9.68 g/m*3 27.8 C 0 km/h
1199 09-07-2010 23:47:04 27.6 C 9.84 g/m*3 27.6 C 0 km/h
1200 09-07-2010 23:59:04 27.6 C 9.84 g/m*3 27.6 C 0 km/h
Sensor: Nr:Datum:Temp:Abs-Feuchte:Windchill:Wind:
Aussen-T/F 1201 10-07-2010 00:11:04 27 C 9.78 g/m*3 27 C 0 km/h
1202 10-07-2010 00:23:04 26.6 C 10.07 g/m*3 26.6 C 0 km/h
1203 10-07-2010 00:35:04 26.3 C 10.15 g/m*3 26.3 C 0 km/h
1204 10-07-2010 00:47:04 25.9 C 10.17 g/m*3 25.9 C 0 km/h
1205 10-07-2010 00:59:04 25.7 C 10.29 g/m*3 25.7 C 0 km/h
1206 10-07-2010 01:11:04 25.3 C 10.3 g/m*3 25.3 C 0 km/h
1207 10-07-2010 01:23:04 25.2 C 10.48 g/m*3 25.2 C 0 km/h
1208 10-07-2010 01:35:04 24.8 C 10.7 g/m*3 24.8 C 0 km/h
1209 10-07-2010 01:47:04 24.8 C 10.7 g/m*3 24.8 C 0 km/h
1210 10-07-2010 01:59:04 24.7 C 10.64 g/m*3 24.7 C 0 km/h
1211 10-07-2010 02:11:04 24.5 C 10.52 g/m*3 24.5 C 0 km/h
1212 10-07-2010 02:23:04 24.5 C 10.74 g/m*3 24.5 C 0 km/h
1213 10-07-2010 02:35:04 24.2 C 10.78 g/m*3 24.2 C 0 km/h
1214 10-07-2010 02:47:04 24.1 C 10.94 g/m*3 24.1 C 0 km/h
1215 10-07-2010 02:59:04 23.7 C 10.91 g/m*3 23.7 C 0 km/h
1216 10-07-2010 03:11:04 23.5 C 11.21 g/m*3 23.5 C 0 km/h
1217 10-07-2010 03:23:04 23.2 C 11.23 g/m*3 23.2 C 0 km/h
1218 10-07-2010 03:35:05 23.1 C 11.58 g/m*3 23.1 C 0 km/h
1219 10-07-2010 03:47:05 22.9 C 11.44 g/m*3 22.9 C 0 km/h
1220 10-07-2010 03:59:05 22.8 C 11.58 g/m*3 22.8 C 0 km/h
1221 10-07-2010 04:11:05 22.7 C 11.52 g/m*3 22.7 C 0 km/h
1222 10-07-2010 04:23:05 22.5 C 11.39 g/m*3 22.5 C 0 km/h
1223 10-07-2010 04:35:05 22.3 C 11.45 g/m*3 22.3 C 0 km/h
1224 10-07-2010 04:47:05 22.2 C 11.58 g/m*3 22.2 C 0 km/h
1225 10-07-2010 04:59:05 22 C 11.45 g/m*3 22 C 0 km/h
Sensor: Nr:Datum:Temp:Abs-Feuchte:Windchill:Wind:
Aussen-T/F 1226 10-07-2010 05:11:05 21.8 C 11.7 g/m*3 21.8 C 0 km/h
1227 10-07-2010 05:23:05 21.8 C 11.7 g/m*3 21.8 C 0 km/h
1228 10-07-2010 05:35:05 21.7 C 11.64 g/m*3 21.7 C 0 km/h
1229 10-07-2010 05:47:05 21.6 C 11.57 g/m*3 21.6 C 0 km/h
1230 10-07-2010 05:59:05 21.3 C 11.74 g/m*3 21.3 C 0 km/h
1231 10-07-2010 06:11:05 21.2 C 11.86 g/m*3 21.2 C 0 km/h
1232 10-07-2010 06:23:05 21.1 C 11.98 g/m*3 21.1 C 0 km/h
1233 10-07-2010 06:35:03 21.3 C 11.93 g/m*3 21.3 C 0 km/h
1234 10-07-2010 06:47:02 21.3 C 11.93 g/m*3 21.3 C 0 km/h
1235 10-07-2010 06:59:02 21.6 C 12.14 g/m*3 21.6 C 0 km/h
1236 10-07-2010 07:11:02 21.6 C 11.95 g/m*3 21.6 C 0 km/h
1237 10-07-2010 07:23:01 21.6 C 12.14 g/m*3 21.6 C 0 km/h
1238 10-07-2010 07:35:01 21.8 C 12.47 g/m*3 21.8 C 0 km/h
1239 10-07-2010 07:47:01 22.1 C 12.3 g/m*3 22.1 C 0 km/h
1240 10-07-2010 07:59:01 22.4 C 12.31 g/m*3 22.4 C 0 km/h
1241 10-07-2010 08:11:01 22.7 C 12.32 g/m*3 22.7 C 0 km/h
1242 10-07-2010 08:23:02 23 C 11.92 g/m*3 23 C 0 km/h
1243 10-07-2010 08:35:01 23.3 C 11.92 g/m*3 23.3 C 0 km/h
1244 10-07-2010 08:47:02 23.7 C 11.98 g/m*3 23.7 C 0 km/h
1245 10-07-2010 08:59:02 24.2 C 11.88 g/m*3 24.2 C 0 km/h
1246 10-07-2010 09:11:02 24.6 C 11.93 g/m*3 24.6 C 0 km/h
1247 10-07-2010 09:23:02 25.2 C 11.87 g/m*3 25.2 C 0 km/h
1248 10-07-2010 09:35:02 25.9 C 11.62 g/m*3 25.9 C 0 km/h
1249 10-07-2010 09:47:02 26.8 C 11.45 g/m*3 26.8 C 0 km/h
1250 10-07-2010 09:59:02 27.7 C 11.77 g/m*3 27.7 C 0 km/h
Sensor: Nr:Datum:Temp:Abs-Feuchte:Windchill:Wind:
Aussen-T/F 1251 10-07-2010 10:11:02 28.1 C 11.48 g/m*3 28.1 C 0 km/h
1252 10-07-2010 10:23:02 28.9 C 12 g/m*3 28.9 C 0 km/h
1253 10-07-2010 10:35:02 29.8 C 11.7 g/m*3 29.8 C 0 km/h
1254 10-07-2010 10:47:02 30 C 11.22 g/m*3 30 C 0 km/h
1255 10-07-2010 10:59:02 30.4 C 11.16 g/m*3 30.4 C 0 km/h
1256 10-07-2010 11:11:02 30.9 C 10.5 g/m*3 30.9 C 0 km/h
1257 10-07-2010 11:23:02 31.2 C 9.7 g/m*3 31.2 C 0 km/h
1258 10-07-2010 11:35:02 31.3 C 8.78 g/m*3 31.3 C 0 km/h
1259 10-07-2010 11:47:02 31.8 C 8.68 g/m*3 31.8 C 0 km/h
1260 10-07-2010 11:59:02 32.1 C 8.48 g/m*3 32.1 C 0 km/h
1261 10-07-2010 12:11:02 32.6 C 8.02 g/m*3 32.6 C 0 km/h
1262 10-07-2010 12:23:02 32.9 C 7.08 g/m*3 32.9 C 0 km/h
1263 10-07-2010 12:35:02 33.5 C 7.31 g/m*3 33.5 C 0 km/h
1264 10-07-2010 12:47:02 34 C 7.5 g/m*3 34 C 0 km/h
1265 10-07-2010 12:59:02 34.1 C 7.54 g/m*3 34.1 C 0 km/h
1266 10-07-2010 13:11:02 34.2 C 7.58 g/m*3 34.2 C 0 km/h
1267 10-07-2010 13:23:02 34.8 C 7.82 g/m*3 34.8 C 0 km/h
1268 10-07-2010 13:35:02 35.1 C 7.95 g/m*3 35.1 C 0 km/h
1269 10-07-2010 13:47:02 35.1 C 7.95 g/m*3 35.1 C 0 km/h
1270 10-07-2010 13:59:02 34.8 C 7.82 g/m*3 34.8 C 0 km/h
1271 10-07-2010 14:11:02 34.5 C 7.7 g/m*3 34.5 C 0 km/h
1272 10-07-2010 14:23:01 34.6 C 7.74 g/m*3 34.6 C 0 km/h
1273 10-07-2010 14:35:02 34.6 C 7.74 g/m*3 34.6 C 0 km/h
1274 10-07-2010 14:47:01 34.3 C 7.62 g/m*3 34.3 C 0 km/h
1275 10-07-2010 14:59:01 34.2 C 7.58 g/m*3 34.2 C 0 km/h
Sensor: Nr:Datum:Temp:Abs-Feuchte:Windchill:Wind:
Aussen-T/F 1276 10-07-2010 15:11:02 34.8 C 7.82 g/m*3 34.8 C 0 km/h
1277 10-07-2010 15:23:02 35.1 C 7.95 g/m*3 35.1 C 0 km/h
1278 10-07-2010 15:35:01 35.2 C 7.99 g/m*3 35.2 C 0 km/h
1279 10-07-2010 15:47:02 35.4 C 8.07 g/m*3 35.4 C 0 km/h
1280 10-07-2010 15:59:02 35.5 C 8.11 g/m*3 35.5 C 0 km/h
1281 10-07-2010 16:11:01 35.4 C 8.07 g/m*3 35.4 C 0 km/h
1282 10-07-2010 16:23:02 35.6 C 8.16 g/m*3 35.6 C 0 km/h
1283 10-07-2010 16:35:01 35.7 C 8.2 g/m*3 35.7 C 0 km/h
1284 10-07-2010 16:47:03 35.7 C 8.2 g/m*3 35.7 C 0 km/h
1285 10-07-2010 16:59:03 35.7 C 8.2 g/m*3 35.7 C 0 km/h
1286 10-07-2010 17:11:02 35.7 C 8.2 g/m*3 35.7 C 0 km/h
1287 10-07-2010 17:23:03 35.9 C 8.28 g/m*3 35.9 C 0 km/h
1288 10-07-2010 17:35:02 35.8 C 8.24 g/m*3 35.8 C 0 km/h
1289 10-07-2010 17:47:03 36 C 8.33 g/m*3 36 C 0 km/h
1290 10-07-2010 17:59:03 35.6 C 8.16 g/m*3 35.6 C 0 km/h
1291 10-07-2010 18:11:02 35.8 C 8.24 g/m*3 35.8 C 0 km/h
1292 10-07-2010 18:23:02 36 C 8.33 g/m*3 36 C 0 km/h
1293 10-07-2010 18:35:02 35.9 C 8.28 g/m*3 35.9 C 0 km/h
1294 10-07-2010 18:47:02 36 C 8.33 g/m*3 36 C 0 km/h
1295 10-07-2010 18:59:02 35.9 C 8.28 g/m*3 35.9 C 0 km/h
1296 10-07-2010 19:11:01 35.7 C 8.2 g/m*3 35.7 C 0 km/h
1297 10-07-2010 19:23:02 35.6 C 8.16 g/m*3 35.6 C 0 km/h
1298 10-07-2010 19:35:01 35.4 C 8.07 g/m*3 35.4 C 0 km/h
1299 10-07-2010 19:47:02 35.3 C 8.03 g/m*3 35.3 C 0 km/h
1300 10-07-2010 19:59:02 34.9 C 7.87 g/m*3 34.9 C 0 km/h
Sensor: Nr:Datum:Temp:Abs-Feuchte:Windchill:Wind:
Aussen-T/F 1301 10-07-2010 20:11:01 34.5 C 7.7 g/m*3 34.5 C 0 km/h
1302 10-07-2010 20:23:01 34 C 7.5 g/m*3 34 C 0 km/h
1303 10-07-2010 20:35:02 33.6 C 8.08 g/m*3 33.6 C 0 km/h
1304 10-07-2010 20:47:02 33.1 C 8.59 g/m*3 33.1 C 0 km/h
1305 10-07-2010 20:59:03 32.7 C 9.11 g/m*3 32.7 C 0 km/h
1306 10-07-2010 21:11:01 32.2 C 9.21 g/m*3 32.2 C 0 km/h
1307 10-07-2010 21:23:02 31.6 C 9.58 g/m*3 31.6 C 0 km/h
1308 10-07-2010 21:35:02 31.2 C 9.38 g/m*3 31.2 C 0 km/h
1309 10-07-2010 21:47:01 30.8 C 9.5 g/m*3 30.8 C 0 km/h
1310 10-07-2010 21:59:01 30.7 C 9.45 g/m*3 30.7 C 0 km/h
1311 10-07-2010 22:11:01 30.5 C 9.97 g/m*3 30.5 C 0 km/h
1312 10-07-2010 22:23:01 30.4 C 9.92 g/m*3 30.4 C 0 km/h
1313 10-07-2010 22:35:02 30.4 C 9.92 g/m*3 30.4 C 0 km/h
1314 10-07-2010 22:47:02 30.5 C 9.97 g/m*3 30.5 C 0 km/h
1315 10-07-2010 22:59:02 30.4 C 9.92 g/m*3 30.4 C 0 km/h
1316 10-07-2010 23:11:02 30.6 C 9.4 g/m*3 30.6 C 0 km/h
1317 10-07-2010 23:23:02 30.2 C 9.81 g/m*3 30.2 C 0 km/h
1318 10-07-2010 23:35:02 30.1 C 10.06 g/m*3 30.1 C 0 km/h
1319 10-07-2010 23:47:02 30.1 C 9.76 g/m*3 30.1 C 0 km/h
1320 10-07-2010 23:59:02 30 C 10.01 g/m*3 30 C 0 km/h
1321 11-07-2010 00:11:03 29.9 C 9.95 g/m*3 29.9 C 0 km/h
1322 11-07-2010 00:23:02 30 C 9.7 g/m*3 30 C 0 km/h
1323 11-07-2010 00:36:04 29.7 C 9.85 g/m*3 29.7 C 0 km/h
1324 11-07-2010 00:48:04 29.8 C 9.9 g/m*3 29.8 C 0 km/h
1325 11-07-2010 01:00:04 29.8 C 9.9 g/m*3 29.8 C 0 km/h
Sensor: Nr:Datum:Temp:Abs-Feuchte:Windchill:Wind:
Aussen-T/F 1326 11-07-2010 01:12:04 29.6 C 9.79 g/m*3 29.6 C 0 km/h
1327 11-07-2010 01:24:04 29.5 C 10.03 g/m*3 29.5 C 0 km/h
1328 11-07-2010 01:36:04 28.3 C 10.23 g/m*3 28.3 C 0 km/h
1329 11-07-2010 01:48:04 25.4 C 14.83 g/m*3 25.4 C 0 km/h
1330 11-07-2010 02:00:04 24 C 16.1 g/m*3 24 C 0 km/h
1331 11-07-2010 02:12:04 24.5 C 15.44 g/m*3 24.5 C 0 km/h
1332 11-07-2010 02:24:04 25 C 14.73 g/m*3 25 C 0 km/h
1333 11-07-2010 02:36:04 23.7 C 16.47 g/m*3 23.7 C 0 km/h
1334 11-07-2010 02:48:04 22.9 C 16.55 g/m*3 22.9 C 0 km/h
1335 11-07-2010 03:00:04 23.2 C 16.42 g/m*3 23.2 C 0 km/h
1336 11-07-2010 03:12:04 23.6 C 16.59 g/m*3 23.6 C 0 km/h
1337 11-07-2010 03:24:04 23.7 C 16.47 g/m*3 23.7 C 0 km/h
1338 11-07-2010 03:36:05 23.3 C 15.89 g/m*3 23.3 C 0 km/h
1339 11-07-2010 03:48:05 23.1 C 15.92 g/m*3 23.1 C 0 km/h
1340 11-07-2010 04:00:05 22.5 C 16.18 g/m*3 22.5 C 0 km/h
1341 11-07-2010 04:12:05 22.1 C 16.4 g/m*3 22.1 C 0 km/h
1342 11-07-2010 04:24:05 21.9 C 16.6 g/m*3 21.9 C 0 km/h
1343 11-07-2010 04:36:05 21.6 C 16.31 g/m*3 21.6 C 0 km/h
1344 11-07-2010 04:48:05 21.8 C 16.69 g/m*3 21.8 C 0 km/h
1345 11-07-2010 05:00:05 21.9 C 16.6 g/m*3 21.9 C 0 km/h
1346 11-07-2010 05:12:05 22 C 16.11 g/m*3 22 C 0 km/h
1347 11-07-2010 05:24:05 22.2 C 16.3 g/m*3 22.2 C 0 km/h
1348 11-07-2010 05:36:05 21.9 C 16.02 g/m*3 21.9 C 0 km/h
1349 11-07-2010 05:48:05 22 C 16.11 g/m*3 22 C 0 km/h
1350 11-07-2010 06:00:05 21.9 C 16.21 g/m*3 21.9 C 0 km/h
Sensor: Nr:Datum:Temp:Abs-Feuchte:Windchill:Wind:
Aussen-T/F 1351 11-07-2010 06:12:05 21.8 C 16.12 g/m*3 21.8 C 0 km/h
1352 11-07-2010 06:24:05 21.8 C 16.12 g/m*3 21.8 C 0 km/h
1353 11-07-2010 06:36:05 21.7 C 16.02 g/m*3 21.7 C 0 km/h
1354 11-07-2010 06:48:05 22 C 15.91 g/m*3 22 C 0 km/h
1355 11-07-2010 07:00:05 22.5 C 15.98 g/m*3 22.5 C 0 km/h
1356 11-07-2010 07:12:05 22.6 C 15.47 g/m*3 22.6 C 0 km/h
1357 11-07-2010 07:24:05 22.8 C 15.65 g/m*3 22.8 C 0 km/h
1358 11-07-2010 07:36:05 22.8 C 15.65 g/m*3 22.8 C 0 km/h
1359 11-07-2010 07:48:06 23.1 C 15.92 g/m*3 23.1 C 0 km/h
1360 11-07-2010 08:00:06 23.5 C 15.65 g/m*3 23.5 C 0 km/h
1361 11-07-2010 08:12:06 24 C 15.45 g/m*3 24 C 0 km/h
1362 11-07-2010 08:24:06 24.5 C 15.44 g/m*3 24.5 C 0 km/h
1363 11-07-2010 08:36:06 24.7 C 15.39 g/m*3 24.7 C 0 km/h
1364 11-07-2010 08:48:02 24.4 C 15.36 g/m*3 24.4 C 0 km/h
1365 11-07-2010 09:00:02 23.8 C 15.06 g/m*3 23.8 C 0 km/h
1366 11-07-2010 09:12:02 23.9 C 15.36 g/m*3 23.9 C 0 km/h
1367 11-07-2010 09:24:03 24.4 C 14.91 g/m*3 24.4 C 0 km/h
1368 11-07-2010 09:36:02 24.7 C 14.49 g/m*3 24.7 C 0 km/h
1369 11-07-2010 09:48:03 25.3 C 14.05 g/m*3 25.3 C 0 km/h
1370 11-07-2010 10:00:03 25.9 C 13.56 g/m*3 25.9 C 0 km/h
1371 11-07-2010 10:12:02 26.3 C 12.87 g/m*3 26.3 C 0 km/h
1372 11-07-2010 10:24:02 26.9 C 13.05 g/m*3 26.9 C 0 km/h
1373 11-07-2010 10:36:02 27.1 C 12.42 g/m*3 27.1 C 0 km/h
1374 11-07-2010 10:53:34 27.8 C 12.64 g/m*3 27.8 C 0 km/h
1375 11-07-2010 11:05:34 27.8 C 12.64 g/m*3 27.8 C 0 km/h
Sensor: Nr:Datum:Temp:Abs-Feuchte:Windchill:Wind:
Aussen-T/F 1376 11-07-2010 11:17:34 28 C 12.24 g/m*3 28 C 0 km/h
1377 11-07-2010 11:29:34 28.4 C 12.51 g/m*3 28.4 C 0 km/h
1378 11-07-2010 11:41:34 29.1 C 12.13 g/m*3 29.1 C 0 km/h
1379 11-07-2010 11:53:35 29.4 C 11.74 g/m*3 29.4 C 0 km/h
1380 11-07-2010 12:05:35 30.3 C 11.4 g/m*3 30.3 C 0 km/h
1381 11-07-2010 12:17:35 30.3 C 10.79 g/m*3 30.3 C 0 km/h
1382 11-07-2010 12:29:35 30.8 C 10.76 g/m*3 30.8 C 0 km/h
1383 11-07-2010 12:41:35 30.7 C 10.39 g/m*3 30.7 C 0 km/h
1384 11-07-2010 12:53:35 30.1 C 10.67 g/m*3 30.1 C 0 km/h
1385 11-07-2010 13:05:35 31.5 C 9.86 g/m*3 31.5 C 0 km/h
1386 11-07-2010 13:17:35 32.1 C 8.82 g/m*3 32.1 C 0 km/h
1387 11-07-2010 13:29:35 30.7 C 9.76 g/m*3 30.7 C 0 km/h
1388 11-07-2010 13:41:35 31.7 C 8.97 g/m*3 31.7 C 0 km/h
1389 11-07-2010 13:53:35 32.3 C 8.23 g/m*3 32.3 C 0 km/h
1390 11-07-2010 14:05:35 32.1 C 8.48 g/m*3 32.1 C 0 km/h
1391 11-07-2010 14:17:35 32.1 C 8.48 g/m*3 32.1 C 0 km/h
1392 11-07-2010 14:29:35 31.8 C 8.35 g/m*3 31.8 C 0 km/h
1393 11-07-2010 14:41:35 32 C 8.44 g/m*3 32 C 0 km/h
1394 11-07-2010 14:53:35 32.3 C 7.89 g/m*3 32.3 C 0 km/h
1395 11-07-2010 15:05:35 32.3 C 7.55 g/m*3 32.3 C 0 km/h
1396 11-07-2010 15:17:35 32.8 C 7.75 g/m*3 32.8 C 0 km/h
1397 11-07-2010 15:29:35 33 C 7.48 g/m*3 33 C 0 km/h
1398 11-07-2010 15:41:35 33 C 7.48 g/m*3 33 C 0 km/h
1399 11-07-2010 15:53:35 33.1 C 7.52 g/m*3 33.1 C 0 km/h
1400 11-07-2010 16:05:36 33.7 C 7.39 g/m*3 33.7 C 0 km/h
Sensor: Nr:Datum:Temp:Abs-Feuchte:Windchill:Wind:
Aussen-T/F 1401 11-07-2010 16:17:36 33.7 C 7.39 g/m*3 33.7 C 0 km/h
1402 11-07-2010 16:29:36 33.7 C 7.39 g/m*3 33.7 C 0 km/h
1403 11-07-2010 16:41:36 33.8 C 7.43 g/m*3 33.8 C 0 km/h
1404 11-07-2010 16:53:36 33.6 C 7.35 g/m*3 33.6 C 0 km/h
1405 11-07-2010 17:05:36 34 C 7.5 g/m*3 34 C 0 km/h
1406 11-07-2010 17:17:36 34 C 7.5 g/m*3 34 C 0 km/h
1407 11-07-2010 17:29:36 34.5 C 7.7 g/m*3 34.5 C 0 km/h
1408 11-07-2010 17:41:36 34.6 C 7.74 g/m*3 34.6 C 0 km/h
1409 11-07-2010 17:53:36 34.2 C 7.58 g/m*3 34.2 C 0 km/h
1410 11-07-2010 18:05:36 34.1 C 7.54 g/m*3 34.1 C 0 km/h
1411 11-07-2010 18:17:36 34.1 C 7.54 g/m*3 34.1 C 0 km/h
1412 11-07-2010 18:29:36 34 C 7.5 g/m*3 34 C 0 km/h
1413 11-07-2010 18:41:36 34.2 C 7.58 g/m*3 34.2 C 0 km/h
1414 11-07-2010 18:53:36 34.2 C 7.58 g/m*3 34.2 C 0 km/h
1415 11-07-2010 19:05:36 34.3 C 7.62 g/m*3 34.3 C 0 km/h
1416 11-07-2010 19:17:36 34.2 C 7.58 g/m*3 34.2 C 0 km/h
1417 11-07-2010 19:29:36 33.8 C 7.43 g/m*3 33.8 C 0 km/h
1418 11-07-2010 19:41:36 33.8 C 7.43 g/m*3 33.8 C 0 km/h
1419 11-07-2010 19:53:36 33.5 C 7.31 g/m*3 33.5 C 0 km/h
1420 11-07-2010 20:05:37 33.7 C 7.39 g/m*3 33.7 C 0 km/h
1421 11-07-2010 20:17:37 33.7 C 7.39 g/m*3 33.7 C 0 km/h
1422 11-07-2010 20:29:37 33.4 C 7.63 g/m*3 33.4 C 0 km/h
1423 11-07-2010 20:41:37 33.1 C 8.23 g/m*3 33.1 C 0 km/h
1424 11-07-2010 20:53:37 32.6 C 8.71 g/m*3 32.6 C 0 km/h
1425 11-07-2010 21:05:37 31.9 C 9.4 g/m*3 31.9 C 0 km/h
Sensor: Nr:Datum:Temp:Abs-Feuchte:Windchill:Wind:
Aussen-T/F 1426 11-07-2010 21:17:37 31.2 C 9.7 g/m*3 31.2 C 0 km/h
1427 11-07-2010 21:29:37 30.7 C 10.08 g/m*3 30.7 C 0 km/h
1428 11-07-2010 21:41:37 30.4 C 10.54 g/m*3 30.4 C 0 km/h
1429 11-07-2010 21:53:37 30.2 C 10.73 g/m*3 30.2 C 0 km/h
1430 11-07-2010 22:05:37 30.1 C 10.67 g/m*3 30.1 C 0 km/h
1431 11-07-2010 22:17:37 30 C 10.92 g/m*3 30 C 0 km/h
1432 11-07-2010 22:29:37 29.9 C 10.86 g/m*3 29.9 C 0 km/h
1433 11-07-2010 22:41:37 29.7 C 11.04 g/m*3 29.7 C 0 km/h
1434 11-07-2010 22:53:37 29.4 C 10.86 g/m*3 29.4 C 0 km/h
1435 11-07-2010 23:05:37 29.1 C 10.97 g/m*3 29.1 C 0 km/h
1436 11-07-2010 23:17:37 28.6 C 11.24 g/m*3 28.6 C 0 km/h
1437 11-07-2010 23:29:37 28.4 C 11.12 g/m*3 28.4 C 0 km/h
1438 11-07-2010 23:41:37 28.5 C 11.18 g/m*3 28.5 C 0 km/h
1439 11-07-2010 23:53:37 28.1 C 11.21 g/m*3 28.1 C 0 km/h
1440 12-07-2010 00:05:37 27.8 C 11.57 g/m*3 27.8 C 0 km/h
1441 12-07-2010 00:17:38 27.4 C 11.84 g/m*3 27.4 C 0 km/h
1442 12-07-2010 00:29:38 27.2 C 11.71 g/m*3 27.2 C 0 km/h
1443 12-07-2010 00:41:38 27 C 11.84 g/m*3 27 C 0 km/h
1444 12-07-2010 00:53:38 26.8 C 12.22 g/m*3 26.8 C 0 km/h
1445 12-07-2010 01:05:38 26.5 C 12.27 g/m*3 26.5 C 0 km/h
1446 12-07-2010 01:17:38 26.2 C 12.06 g/m*3 26.2 C 0 km/h
1447 12-07-2010 01:29:38 26 C 12.17 g/m*3 26 C 0 km/h
1448 12-07-2010 01:41:38 25.7 C 12.69 g/m*3 25.7 C 0 km/h
1449 12-07-2010 01:53:38 25.7 C 12.45 g/m*3 25.7 C 0 km/h
1450 12-07-2010 02:05:38 25.6 C 12.38 g/m*3 25.6 C 0 km/h
Sensor: Nr:Datum:Temp:Abs-Feuchte:Windchill:Wind:
Aussen-T/F 1451 12-07-2010 02:17:38 25.3 C 12.41 g/m*3 25.3 C 0 km/h
1452 12-07-2010 02:29:38 25.2 C 12.57 g/m*3 25.2 C 0 km/h
1453 12-07-2010 02:41:38 24.9 C 13.05 g/m*3 24.9 C 0 km/h
1454 12-07-2010 02:53:38 24.6 C 13.05 g/m*3 24.6 C 0 km/h
1455 12-07-2010 03:05:38 24.6 C 13.05 g/m*3 24.6 C 0 km/h
1456 12-07-2010 03:17:38 24.2 C 13.2 g/m*3 24.2 C 0 km/h
1457 12-07-2010 03:29:38 24 C 13.05 g/m*3 24 C 0 km/h
1458 12-07-2010 03:41:38 24.1 C 13.13 g/m*3 24.1 C 0 km/h
1459 12-07-2010 03:53:38 24 C 13.05 g/m*3 24 C 0 km/h
1460 12-07-2010 04:05:38 23.7 C 13.05 g/m*3 23.7 C 0 km/h
1461 12-07-2010 04:17:39 23.4 C 13.04 g/m*3 23.4 C 0 km/h
1462 12-07-2010 04:29:39 23.3 C 13.17 g/m*3 23.3 C 0 km/h
1463 12-07-2010 04:41:39 23.2 C 12.89 g/m*3 23.2 C 0 km/h
1464 12-07-2010 04:53:39 23 C 13.15 g/m*3 23 C 0 km/h
1465 12-07-2010 05:05:39 22.9 C 13.28 g/m*3 22.9 C 0 km/h
1466 12-07-2010 05:17:39 22.6 C 13.26 g/m*3 22.6 C 0 km/h
1467 12-07-2010 05:29:39 22.7 C 13.13 g/m*3 22.7 C 0 km/h
1468 12-07-2010 05:41:39 22.6 C 13.06 g/m*3 22.6 C 0 km/h
1469 12-07-2010 05:53:39 22.5 C 13.18 g/m*3 22.5 C 0 km/h
1470 12-07-2010 06:05:39 22.4 C 13.11 g/m*3 22.4 C 0 km/h
1471 12-07-2010 06:17:39 22.4 C 13.5 g/m*3 22.4 C 0 km/h
1472 12-07-2010 06:29:39 22.4 C 13.31 g/m*3 22.4 C 0 km/h
1473 12-07-2010 06:41:39 22.7 C 13.54 g/m*3 22.7 C 0 km/h
1474 12-07-2010 06:53:39 22.8 C 13.41 g/m*3 22.8 C 0 km/h
1475 12-07-2010 07:05:39 22.8 C 13.61 g/m*3 22.8 C 0 km/h
Sensor: Nr:Datum:Temp:Abs-Feuchte:Windchill:Wind:
Aussen-T/F 1476 12-07-2010 07:17:39 22.7 C 13.54 g/m*3 22.7 C 0 km/h
1477 12-07-2010 07:29:39 22.9 C 13.69 g/m*3 22.9 C 0 km/h
1478 12-07-2010 07:41:39 23 C 13.57 g/m*3 23 C 0 km/h
1479 12-07-2010 07:53:39 22.9 C 13.69 g/m*3 22.9 C 0 km/h
1480 12-07-2010 08:05:39 23.1 C 13.64 g/m*3 23.1 C 0 km/h
1481 12-07-2010 08:17:39 23.4 C 13.46 g/m*3 23.4 C 0 km/h
1482 12-07-2010 08:29:40 23.7 C 13.48 g/m*3 23.7 C 0 km/h
1483 12-07-2010 08:41:40 24.3 C 13.72 g/m*3 24.3 C 0 km/h
1484 12-07-2010 08:53:40 24.8 C 13.88 g/m*3 24.8 C 0 km/h
1485 12-07-2010 09:05:40 25.4 C 13.65 g/m*3 25.4 C 0 km/h
1486 12-07-2010 09:17:40 26.1 C 13.71 g/m*3 26.1 C 0 km/h
1487 12-07-2010 09:29:40 26.7 C 13.67 g/m*3 26.7 C 0 km/h
1488 12-07-2010 09:41:40 27.3 C 13.34 g/m*3 27.3 C 0 km/h
1489 12-07-2010 09:53:40 28.1 C 13.4 g/m*3 28.1 C 0 km/h
1490 12-07-2010 10:05:40 28.9 C 13.43 g/m*3 28.9 C 0 km/h
1491 12-07-2010 10:17:40 29.7 C 12.83 g/m*3 29.7 C 0 km/h
1492 12-07-2010 10:29:40 30 C 12.74 g/m*3 30 C 0 km/h
1493 12-07-2010 10:41:40 30.3 C 12.02 g/m*3 30.3 C 0 km/h
1494 12-07-2010 10:53:40 30.9 C 11.46 g/m*3 30.9 C 0 km/h
1495 12-07-2010 11:05:40 31.4 C 11.12 g/m*3 31.4 C 0 km/h
1496 12-07-2010 11:17:40 31.5 C 10.52 g/m*3 31.5 C 0 km/h
1497 12-07-2010 11:29:40 31.9 C 10.41 g/m*3 31.9 C 0 km/h
1498 12-07-2010 11:41:40 32 C 8.78 g/m*3 32 C 0 km/h
1499 12-07-2010 11:53:40 32.1 C 8.82 g/m*3 32.1 C 0 km/h
1500 12-07-2010 12:05:40 32.3 C 8.58 g/m*3 32.3 C 0 km/h
Sensor: Nr:Datum:Temp:Abs-Feuchte:Windchill:Wind:
Aussen-T/F 1501 12-07-2010 12:17:40 32.4 C 8.62 g/m*3 32.4 C 0 km/h
1502 12-07-2010 12:29:41 32.8 C 8.45 g/m*3 32.8 C 0 km/h
1503 12-07-2010 12:41:41 31.8 C 7.35 g/m*3 31.8 C 0 km/h
1504 12-07-2010 12:53:41 25.9 C 7.51 g/m*3 25.9 C 0 km/h
1505 12-07-2010 13:05:41 25.1 C 14.58 g/m*3 25.1 C 0 km/h
1506 12-07-2010 13:17:41 27.9 C 11.09 g/m*3 27.9 C 0 km/h
1507 12-07-2010 13:29:41 28.3 C 11.06 g/m*3 28.3 C 0 km/h
1508 12-07-2010 13:41:41 29.2 C 11.91 g/m*3 29.2 C 0 km/h
1509 12-07-2010 13:53:41 30.1 C 9.15 g/m*3 30.1 C 0 km/h
1510 12-07-2010 14:05:41 30.3 C 9.55 g/m*3 30.3 C 0 km/h
1511 12-07-2010 14:17:41 30.5 C 10.59 g/m*3 30.5 C 0 km/h
1512 12-07-2010 14:29:41 30.7 C 10.08 g/m*3 30.7 C 0 km/h
1513 12-07-2010 14:41:41 31 C 8.32 g/m*3 31 C 0 km/h
1514 12-07-2010 14:53:41 31 C 8.64 g/m*3 31 C 0 km/h
1515 12-07-2010 15:05:41 31.1 C 9.65 g/m*3 31.1 C 0 km/h
1516 12-07-2010 15:17:41 31.5 C 8.55 g/m*3 31.5 C 0 km/h
1517 12-07-2010 15:29:41 32 C 7.43 g/m*3 32 C 0 km/h
1518 12-07-2010 15:41:41 31.8 C 7.01 g/m*3 31.8 C 0 km/h
1519 12-07-2010 15:53:41 31.7 C 6.98 g/m*3 31.7 C 0 km/h
1520 12-07-2010 16:05:41 32.3 C 6.86 g/m*3 32.3 C 0 km/h
1521 12-07-2010 16:17:41 32 C 6.75 g/m*3 32 C 0 km/h
1522 12-07-2010 16:29:42 31.9 C 6.72 g/m*3 31.9 C 0 km/h
1523 12-07-2010 16:41:42 31.8 C 6.68 g/m*3 31.8 C 0 km/h
1524 12-07-2010 16:53:42 31.5 C 6.57 g/m*3 31.5 C 0 km/h
1525 12-07-2010 17:05:42 31.4 C 6.54 g/m*3 31.4 C 0 km/h
Sensor: Nr:Datum:Temp:Abs-Feuchte:Windchill:Wind:
Aussen-T/F 1526 12-07-2010 17:17:42 31.7 C 6.64 g/m*3 31.7 C 0 km/h
1527 12-07-2010 17:29:42 32 C 6.75 g/m*3 32 C 0 km/h
1528 12-07-2010 17:41:42 31.6 C 6.61 g/m*3 31.6 C 0 km/h
1529 12-07-2010 17:53:42 31 C 6.4 g/m*3 31 C 0 km/h
1530 12-07-2010 18:05:42 30.6 C 6.58 g/m*3 30.6 C 0 km/h
1531 12-07-2010 18:17:42 30.3 C 7.4 g/m*3 30.3 C 0 km/h
1532 12-07-2010 18:29:42 30 C 7.58 g/m*3 30 C 0 km/h
1533 12-07-2010 18:41:42 30 C 7.58 g/m*3 30 C 0 km/h
1534 12-07-2010 18:53:42 30 C 7.88 g/m*3 30 C 0 km/h
1535 12-07-2010 19:05:42 29.5 C 7.67 g/m*3 29.5 C 0 km/h
1536 12-07-2010 19:17:42 29 C 7.47 g/m*3 29 C 0 km/h
1537 12-07-2010 19:29:42 28.6 C 7.87 g/m*3 28.6 C 0 km/h
1538 12-07-2010 19:41:42 28.2 C 7.7 g/m*3 28.2 C 0 km/h
1539 12-07-2010 19:53:42 28.1 C 7.38 g/m*3 28.1 C 0 km/h
1540 12-07-2010 20:05:42 27.8 C 7.53 g/m*3 27.8 C 0 km/h
1541 12-07-2010 20:17:42 27.6 C 7.71 g/m*3 27.6 C 0 km/h
1542 12-07-2010 20:29:42 27 C 7.72 g/m*3 27 C 0 km/h
1543 12-07-2010 20:41:43 26.4 C 7.97 g/m*3 26.4 C 0 km/h
1544 12-07-2010 20:53:43 26 C 8.28 g/m*3 26 C 0 km/h
1545 12-07-2010 21:05:43 26 C 8.52 g/m*3 26 C 0 km/h
1546 12-07-2010 21:17:43 25.8 C 8.67 g/m*3 25.8 C 0 km/h
1547 12-07-2010 21:29:43 25.7 C 8.86 g/m*3 25.7 C 0 km/h
1548 12-07-2010 21:41:43 25.7 C 9.34 g/m*3 25.7 C 0 km/h
1549 12-07-2010 21:53:43 25.4 C 9.42 g/m*3 25.4 C 0 km/h
1550 12-07-2010 22:05:43 24.9 C 9.61 g/m*3 24.9 C 0 km/h
Sensor: Nr:Datum:Temp:Abs-Feuchte:Windchill:Wind:
Aussen-T/F 1551 12-07-2010 22:17:43 24.9 C 9.16 g/m*3 24.9 C 0 km/h
1552 12-07-2010 22:29:43 24.2 C 9.02 g/m*3 24.2 C 0 km/h
1553 12-07-2010 22:41:43 24.6 C 9.23 g/m*3 24.6 C 0 km/h
1554 12-07-2010 22:53:43 24.5 C 9.18 g/m*3 24.5 C 0 km/h
1555 12-07-2010 23:05:43 24.3 C 9.29 g/m*3 24.3 C 0 km/h
1556 12-07-2010 23:17:43 24 C 9.57 g/m*3 24 C 0 km/h
1557 12-07-2010 23:29:43 23.4 C 9.67 g/m*3 23.4 C 0 km/h
1558 12-07-2010 23:41:43 23 C 9.87 g/m*3 23 C 0 km/h
1559 12-07-2010 23:53:43 22.7 C 10.1 g/m*3 22.7 C 0 km/h
1560 13-07-2010 00:05:43 22.6 C 10.25 g/m*3 22.6 C 0 km/h
1561 13-07-2010 00:17:43 22.5 C 10.39 g/m*3 22.5 C 0 km/h
1562 13-07-2010 00:29:43 22.3 C 10.27 g/m*3 22.3 C 0 km/h
1563 13-07-2010 00:41:44 22.1 C 10.35 g/m*3 22.1 C 0 km/h
1564 13-07-2010 00:53:44 22 C 10.48 g/m*3 22 C 0 km/h
1565 13-07-2010 01:05:44 21.6 C 10.62 g/m*3 21.6 C 0 km/h
1566 13-07-2010 01:17:44 21.5 C 10.56 g/m*3 21.5 C 0 km/h
1567 13-07-2010 01:29:44 21.4 C 10.69 g/m*3 21.4 C 0 km/h
1568 13-07-2010 01:41:44 21.3 C 10.81 g/m*3 21.3 C 0 km/h
1569 13-07-2010 01:53:44 21.3 C 10.81 g/m*3 21.3 C 0 km/h
1570 13-07-2010 02:05:44 21 C 10.62 g/m*3 21 C 0 km/h
1571 13-07-2010 02:17:44 20.8 C 10.86 g/m*3 20.8 C 0 km/h
1572 13-07-2010 02:29:44 20.7 C 10.98 g/m*3 20.7 C 0 km/h
1573 13-07-2010 02:41:44 20.5 C 11.03 g/m*3 20.5 C 0 km/h
1574 13-07-2010 02:53:44 20.3 C 11.08 g/m*3 20.3 C 0 km/h
1575 13-07-2010 03:05:44 20.2 C 11.02 g/m*3 20.2 C 0 km/h
Sensor: Nr:Datum:Temp:Abs-Feuchte:Windchill:Wind:
Aussen-T/F 1576 13-07-2010 03:17:44 20 C 11.06 g/m*3 20 C 0 km/h
1577 13-07-2010 03:29:44 19.8 C 11.27 g/m*3 19.8 C 0 km/h
1578 13-07-2010 03:41:44 19.7 C 11.38 g/m*3 19.7 C 0 km/h
1579 13-07-2010 03:53:44 19.7 C 11.38 g/m*3 19.7 C 0 km/h
1580 13-07-2010 04:05:44 19.8 C 11.44 g/m*3 19.8 C 0 km/h
1581 13-07-2010 04:17:44 19.8 C 11.44 g/m*3 19.8 C 0 km/h
1582 13-07-2010 04:29:44 19.7 C 11.38 g/m*3 19.7 C 0 km/h
1583 13-07-2010 04:41:44 19.7 C 11.89 g/m*3 19.7 C 0 km/h
1584 13-07-2010 04:53:45 19.1 C 12.13 g/m*3 19.1 C 0 km/h
1585 13-07-2010 05:05:45 18.9 C 12.31 g/m*3 18.9 C 0 km/h
1586 13-07-2010 05:17:45 18.7 C 12.33 g/m*3 18.7 C 0 km/h
1587 13-07-2010 05:29:45 18.7 C 12.33 g/m*3 18.7 C 0 km/h
1588 13-07-2010 05:41:45 18.7 C 12.17 g/m*3 18.7 C 0 km/h
1589 13-07-2010 05:53:45 18.6 C 12.1 g/m*3 18.6 C 0 km/h
1590 13-07-2010 06:05:45 18.7 C 12.17 g/m*3 18.7 C 0 km/h
1591 13-07-2010 06:17:45 18.8 C 12.08 g/m*3 18.8 C 0 km/h
1592 13-07-2010 06:29:45 18.8 C 12.08 g/m*3 18.8 C 0 km/h
1593 13-07-2010 06:41:45 18.8 C 12.08 g/m*3 18.8 C 0 km/h
1594 13-07-2010 06:53:45 18.9 C 12.15 g/m*3 18.9 C 0 km/h
1595 13-07-2010 07:05:45 19.2 C 12.04 g/m*3 19.2 C 0 km/h
1596 13-07-2010 07:17:45 19.5 C 12.08 g/m*3 19.5 C 0 km/h
1597 13-07-2010 07:29:45 19.7 C 12.06 g/m*3 19.7 C 0 km/h
1598 13-07-2010 07:41:45 19.7 C 12.06 g/m*3 19.7 C 0 km/h
1599 13-07-2010 07:53:45 20 C 11.92 g/m*3 20 C 0 km/h
1600 13-07-2010 08:05:45 20.4 C 12.03 g/m*3 20.4 C 0 km/h
Sensor: Nr:Datum:Temp:Abs-Feuchte:Windchill:Wind:
Aussen-T/F 1601 13-07-2010 08:17:45 20.5 C 12.1 g/m*3 20.5 C 0 km/h
1602 13-07-2010 08:29:45 21 C 12.09 g/m*3 21 C 0 km/h
1603 13-07-2010 08:41:45 21.5 C 11.88 g/m*3 21.5 C 0 km/h
1604 13-07-2010 08:53:45 21.2 C 11.68 g/m*3 21.2 C 0 km/h
1605 13-07-2010 09:05:46 21.4 C 12 g/m*3 21.4 C 0 km/h
1606 13-07-2010 09:17:46 21.9 C 12.16 g/m*3 21.9 C 0 km/h
1607 13-07-2010 09:29:46 22.7 C 11.72 g/m*3 22.7 C 0 km/h
1608 13-07-2010 09:41:46 23.3 C 11.5 g/m*3 23.3 C 0 km/h
1609 13-07-2010 09:53:46 23.9 C 11.47 g/m*3 23.9 C 0 km/h
1610 13-07-2010 10:05:46 24.4 C 11.57 g/m*3 24.4 C 0 km/h
1611 13-07-2010 10:17:46 24.8 C 11.15 g/m*3 24.8 C 0 km/h
1612 13-07-2010 10:29:46 24.2 C 11 g/m*3 24.2 C 0 km/h
1613 13-07-2010 10:41:46 24.5 C 10.97 g/m*3 24.5 C 0 km/h
1614 13-07-2010 10:53:46 25.1 C 10.65 g/m*3 25.1 C 0 km/h
1615 13-07-2010 11:05:46 25.4 C 10.59 g/m*3 25.4 C 0 km/h
1616 13-07-2010 11:17:46 25.7 C 10.29 g/m*3 25.7 C 0 km/h
1617 13-07-2010 11:29:46 25.4 C 10.12 g/m*3 25.4 C 0 km/h
1618 13-07-2010 11:41:46 25.7 C 10.29 g/m*3 25.7 C 0 km/h
1619 13-07-2010 11:53:46 28.3 C 9.95 g/m*3 28.3 C 0 km/h
1620 13-07-2010 12:05:46 29.5 C 8.85 g/m*3 29.5 C 0 km/h
1621 13-07-2010 12:17:46 30 C 9.1 g/m*3 30 C 0 km/h
1622 13-07-2010 12:29:46 29.4 C 8.51 g/m*3 29.4 C 0 km/h
1623 13-07-2010 12:41:46 28.8 C 8.52 g/m*3 28.8 C 0 km/h
1624 13-07-2010 12:53:46 29.5 C 7.97 g/m*3 29.5 C 0 km/h
1625 13-07-2010 13:05:46 29.1 C 7.8 g/m*3 29.1 C 0 km/h
Sensor: Nr:Datum:Temp:Abs-Feuchte:Windchill:Wind:
Aussen-T/F 1626 13-07-2010 13:17:47 28.5 C 8.66 g/m*3 28.5 C 0 km/h
1627 13-07-2010 13:29:47 28.9 C 8 g/m*3 28.9 C 0 km/h
1628 13-07-2010 13:41:47 29.7 C 7.76 g/m*3 29.7 C 0 km/h
1629 13-07-2010 13:53:47 30.4 C 7.75 g/m*3 30.4 C 0 km/h
1630 13-07-2010 14:05:47 29.4 C 8.22 g/m*3 29.4 C 0 km/h
1631 13-07-2010 14:17:47 28.7 C 8.76 g/m*3 28.7 C 0 km/h
1632 13-07-2010 14:29:47 28.1 C 8.48 g/m*3 28.1 C 0 km/h
1633 13-07-2010 14:41:47 29 C 8.62 g/m*3 29 C 0 km/h
1634 13-07-2010 14:53:47 30 C 7.58 g/m*3 30 C 0 km/h
1635 13-07-2010 15:05:47 30.4 C 7.75 g/m*3 30.4 C 0 km/h
1636 13-07-2010 15:17:47 31.1 C 7.72 g/m*3 31.1 C 0 km/h
1637 13-07-2010 15:29:47 30.6 C 6.89 g/m*3 30.6 C 0 km/h
1638 13-07-2010 15:41:47 30.5 C 7.17 g/m*3 30.5 C 0 km/h
1639 13-07-2010 15:53:47 31 C 7.04 g/m*3 31 C 0 km/h
1640 13-07-2010 16:05:47 31.2 C 6.47 g/m*3 31.2 C 0 km/h
1641 13-07-2010 16:17:47 31 C 6.72 g/m*3 31 C 0 km/h
1642 13-07-2010 16:29:47 30.8 C 7.28 g/m*3 30.8 C 0 km/h
1643 13-07-2010 16:41:47 30.8 C 7.28 g/m*3 30.8 C 0 km/h
1644 13-07-2010 16:53:47 31.5 C 6.57 g/m*3 31.5 C 0 km/h
1645 13-07-2010 17:05:47 31.8 C 6.68 g/m*3 31.8 C 0 km/h
1646 13-07-2010 17:17:47 31.5 C 6.57 g/m*3 31.5 C 0 km/h
1647 13-07-2010 17:29:48 31.8 C 6.68 g/m*3 31.8 C 0 km/h
1648 13-07-2010 17:41:48 31.8 C 6.68 g/m*3 31.8 C 0 km/h
1649 13-07-2010 17:53:48 31.8 C 6.68 g/m*3 31.8 C 0 km/h
1650 13-07-2010 18:05:48 32.1 C 6.79 g/m*3 32.1 C 0 km/h
Sensor: Nr:Datum:Temp:Abs-Feuchte:Windchill:Wind:
Aussen-T/F 1651 13-07-2010 18:17:48 31.8 C 6.68 g/m*3 31.8 C 0 km/h
1652 13-07-2010 18:29:48 31.7 C 6.64 g/m*3 31.7 C 0 km/h
1653 13-07-2010 18:41:48 32.1 C 6.79 g/m*3 32.1 C 0 km/h
1654 13-07-2010 18:53:48 31.6 C 6.61 g/m*3 31.6 C 0 km/h
1655 13-07-2010 19:05:48 31.4 C 6.54 g/m*3 31.4 C 0 km/h
1656 13-07-2010 19:17:48 31.4 C 6.54 g/m*3 31.4 C 0 km/h
1657 13-07-2010 19:29:48 31.4 C 6.54 g/m*3 31.4 C 0 km/h
1658 13-07-2010 19:41:48 31.4 C 6.54 g/m*3 31.4 C 0 km/h
1659 13-07-2010 19:53:48 31.2 C 6.47 g/m*3 31.2 C 0 km/h
1660 13-07-2010 20:05:48 31.4 C 6.54 g/m*3 31.4 C 0 km/h
1661 13-07-2010 20:17:48 31.4 C 6.54 g/m*3 31.4 C 0 km/h
1662 13-07-2010 20:29:48 31.2 C 6.79 g/m*3 31.2 C 0 km/h
1663 13-07-2010 20:41:48 31 C 6.72 g/m*3 31 C 0 km/h
1664 13-07-2010 20:53:48 30.6 C 7.2 g/m*3 30.6 C 0 km/h
1665 13-07-2010 21:05:48 29.8 C 7.8 g/m*3 29.8 C 0 km/h
1666 13-07-2010 21:17:48 28.6 C 7.87 g/m*3 28.6 C 0 km/h
1667 13-07-2010 21:29:48 27.6 C 7.98 g/m*3 27.6 C 0 km/h
1668 13-07-2010 21:41:49 26.8 C 8.14 g/m*3 26.8 C 0 km/h
1669 13-07-2010 21:53:49 26.4 C 8.21 g/m*3 26.4 C 0 km/h
1670 13-07-2010 22:05:49 25.9 C 8.47 g/m*3 25.9 C 0 km/h
1671 13-07-2010 22:17:49 25.5 C 8.52 g/m*3 25.5 C 0 km/h
1672 13-07-2010 22:29:49 25.4 C 8.48 g/m*3 25.4 C 0 km/h
1673 13-07-2010 22:41:49 25.4 C 8.71 g/m*3 25.4 C 0 km/h
1674 13-07-2010 22:53:49 25.1 C 8.8 g/m*3 25.1 C 0 km/h
1675 13-07-2010 23:05:49 24.7 C 9.05 g/m*3 24.7 C 0 km/h
Sensor: Nr:Datum:Temp:Abs-Feuchte:Windchill:Wind:
Aussen-T/F 1676 13-07-2010 23:17:49 24.6 C 9 g/m*3 24.6 C 0 km/h
1677 13-07-2010 23:29:49 24.4 C 9.12 g/m*3 24.4 C 0 km/h
1678 13-07-2010 23:41:49 24.1 C 9.19 g/m*3 24.1 C 0 km/h
1679 13-07-2010 23:53:49 24.3 C 9.29 g/m*3 24.3 C 0 km/h
1680 14-07-2010 00:05:49 24.1 C 9.19 g/m*3 24.1 C 0 km/h
1681 14-07-2010 00:17:49 23.8 C 9.68 g/m*3 23.8 C 0 km/h
1682 14-07-2010 00:29:49 23.6 C 9.57 g/m*3 23.6 C 0 km/h
1683 14-07-2010 00:41:49 23.4 C 9.67 g/m*3 23.4 C 0 km/h
1684 14-07-2010 00:53:49 23.5 C 9.94 g/m*3 23.5 C 0 km/h
1685 14-07-2010 01:05:49 23.6 C 10 g/m*3 23.6 C 0 km/h
1686 14-07-2010 01:17:49 23.6 C 10 g/m*3 23.6 C 0 km/h
1687 14-07-2010 01:29:49 23.1 C 9.92 g/m*3 23.1 C 0 km/h
1688 14-07-2010 01:41:50 22.9 C 10.01 g/m*3 22.9 C 0 km/h
1689 14-07-2010 01:53:50 22.6 C 10.04 g/m*3 22.6 C 0 km/h
1690 14-07-2010 02:05:50 22.7 C 10.3 g/m*3 22.7 C 0 km/h
1691 14-07-2010 02:17:50 22.7 C 10.1 g/m*3 22.7 C 0 km/h
1692 14-07-2010 02:29:50 22.7 C 10.51 g/m*3 22.7 C 0 km/h
1693 14-07-2010 02:41:50 22.5 C 10.39 g/m*3 22.5 C 0 km/h
1694 14-07-2010 02:53:50 22.1 C 10.35 g/m*3 22.1 C 0 km/h
1695 14-07-2010 03:05:50 22 C 10.29 g/m*3 22 C 0 km/h
1696 14-07-2010 03:17:50 21.8 C 10.55 g/m*3 21.8 C 0 km/h
1697 14-07-2010 03:29:50 21.5 C 10.75 g/m*3 21.5 C 0 km/h
1698 14-07-2010 03:41:50 21.3 C 10.62 g/m*3 21.3 C 0 km/h
1699 14-07-2010 03:53:50 21.3 C 10.81 g/m*3 21.3 C 0 km/h
1700 14-07-2010 04:05:50 21.2 C 10.93 g/m*3 21.2 C 0 km/h
Sensor: Nr:Datum:Temp:Abs-Feuchte:Windchill:Wind:
Aussen-T/F 1701 14-07-2010 04:17:50 20.8 C 11.05 g/m*3 20.8 C 0 km/h
1702 14-07-2010 04:29:50 20.7 C 11.16 g/m*3 20.7 C 0 km/h
1703 14-07-2010 04:41:50 20.5 C 11.03 g/m*3 20.5 C 0 km/h
1704 14-07-2010 04:53:50 20.4 C 10.97 g/m*3 20.4 C 0 km/h
1705 14-07-2010 05:05:50 20.2 C 11.02 g/m*3 20.2 C 0 km/h
1706 14-07-2010 05:17:50 20.1 C 11.13 g/m*3 20.1 C 0 km/h
1707 14-07-2010 05:29:50 20.1 C 11.13 g/m*3 20.1 C 0 km/h
1708 14-07-2010 05:41:50 20.1 C 11.13 g/m*3 20.1 C 0 km/h
1709 14-07-2010 05:53:51 20 C 11.23 g/m*3 20 C 0 km/h
1710 14-07-2010 06:05:51 20 C 11.06 g/m*3 20 C 0 km/h
1711 14-07-2010 06:17:51 20.3 C 11.43 g/m*3 20.3 C 0 km/h
1712 14-07-2010 06:29:51 20.3 C 11.26 g/m*3 20.3 C 0 km/h
1713 14-07-2010 06:41:51 20.5 C 11.39 g/m*3 20.5 C 0 km/h
1714 14-07-2010 06:53:51 20.4 C 11.32 g/m*3 20.4 C 0 km/h
1715 14-07-2010 07:05:51 20.3 C 11.43 g/m*3 20.3 C 0 km/h
1716 14-07-2010 07:17:51 20.3 C 11.43 g/m*3 20.3 C 0 km/h
1717 14-07-2010 07:29:51 20.4 C 11.68 g/m*3 20.4 C 0 km/h
1718 14-07-2010 07:41:51 20.7 C 11.7 g/m*3 20.7 C 0 km/h
1719 14-07-2010 07:53:51 21.2 C 11.68 g/m*3 21.2 C 0 km/h
1720 14-07-2010 08:05:51 21.5 C 11.69 g/m*3 21.5 C 0 km/h
1721 14-07-2010 08:17:51 21.5 C 11.69 g/m*3 21.5 C 0 km/h
1722 14-07-2010 08:29:51 21.7 C 11.83 g/m*3 21.7 C 0 km/h
1723 14-07-2010 08:41:51 22 C 11.65 g/m*3 22 C 0 km/h
1724 14-07-2010 08:53:51 22.4 C 11.92 g/m*3 22.4 C 0 km/h
1725 14-07-2010 09:05:51 22.9 C 12.06 g/m*3 22.9 C 0 km/h
Sensor: Nr:Datum:Temp:Abs-Feuchte:Windchill:Wind:
Aussen-T/F 1726 14-07-2010 09:17:51 24 C 12.18 g/m*3 24 C 0 km/h
1727 14-07-2010 09:29:51 25.2 C 11.64 g/m*3 25.2 C 0 km/h
1728 14-07-2010 09:41:51 25.3 C 11.71 g/m*3 25.3 C 0 km/h
1729 14-07-2010 09:53:52 25.9 C 11.86 g/m*3 25.9 C 0 km/h
1730 14-07-2010 10:05:52 26.5 C 11.51 g/m*3 26.5 C 0 km/h
1731 14-07-2010 10:17:52 27.1 C 10.61 g/m*3 27.1 C 0 km/h
1732 14-07-2010 10:29:52 27.8 C 10.22 g/m*3 27.8 C 0 km/h
1733 14-07-2010 10:41:52 28.7 C 10.17 g/m*3 28.7 C 0 km/h
1734 14-07-2010 10:53:52 29.3 C 9.63 g/m*3 29.3 C 0 km/h
1735 14-07-2010 11:05:52 30 C 9.4 g/m*3 30 C 0 km/h
1736 14-07-2010 11:17:52 30.3 C 9.25 g/m*3 30.3 C 0 km/h
1737 14-07-2010 11:29:52 30.4 C 9.3 g/m*3 30.4 C 0 km/h
1738 14-07-2010 11:41:52 30.5 C 9.03 g/m*3 30.5 C 0 km/h
1739 14-07-2010 11:53:52 30.8 C 9.18 g/m*3 30.8 C 0 km/h
1740 14-07-2010 12:05:52 31.2 C 8.41 g/m*3 31.2 C 0 km/h
1741 14-07-2010 12:17:52 31.5 C 8.22 g/m*3 31.5 C 0 km/h
1742 14-07-2010 12:29:52 31.3 C 8.13 g/m*3 31.3 C 0 km/h
1743 14-07-2010 12:41:52 31.5 C 7.89 g/m*3 31.5 C 0 km/h
1744 14-07-2010 12:53:52 31.7 C 8.31 g/m*3 31.7 C 0 km/h
1745 14-07-2010 13:05:52 31.7 C 7.64 g/m*3 31.7 C 0 km/h
1746 14-07-2010 13:17:52 32.3 C 7.2 g/m*3 32.3 C 0 km/h
1747 14-07-2010 13:29:52 33.5 C 7.31 g/m*3 33.5 C 0 km/h
1748 14-07-2010 13:41:52 32.6 C 7.32 g/m*3 32.6 C 0 km/h
1749 14-07-2010 13:53:52 32 C 7.43 g/m*3 32 C 0 km/h
1750 14-07-2010 14:05:53 32.5 C 6.93 g/m*3 32.5 C 0 km/h
Sensor: Nr:Datum:Temp:Abs-Feuchte:Windchill:Wind:
Aussen-T/F 1751 14-07-2010 14:17:53 33.3 C 7.23 g/m*3 33.3 C 0 km/h
1752 14-07-2010 14:29:53 32.8 C 7.04 g/m*3 32.8 C 0 km/h
1753 14-07-2010 14:41:53 32.8 C 7.04 g/m*3 32.8 C 0 km/h
1754 14-07-2010 14:53:53 33.3 C 7.23 g/m*3 33.3 C 0 km/h
1755 14-07-2010 15:05:53 33 C 7.12 g/m*3 33 C 0 km/h
1756 14-07-2010 15:17:53 32.9 C 7.08 g/m*3 32.9 C 0 km/h
1757 14-07-2010 15:29:53 33.1 C 7.16 g/m*3 33.1 C 0 km/h
1758 14-07-2010 15:41:53 33.5 C 7.31 g/m*3 33.5 C 0 km/h
1759 14-07-2010 15:53:53 33.8 C 7.43 g/m*3 33.8 C 0 km/h
1760 14-07-2010 16:05:53 33.9 C 7.46 g/m*3 33.9 C 0 km/h
1761 14-07-2010 16:17:53 34.1 C 7.54 g/m*3 34.1 C 0 km/h
1762 14-07-2010 16:29:53 34.6 C 7.74 g/m*3 34.6 C 0 km/h
1763 14-07-2010 16:41:53 34.6 C 7.74 g/m*3 34.6 C 0 km/h
1764 14-07-2010 16:53:53 34.8 C 7.82 g/m*3 34.8 C 0 km/h
1765 14-07-2010 17:05:53 34.8 C 7.82 g/m*3 34.8 C 0 km/h
1766 14-07-2010 17:17:53 34.6 C 7.74 g/m*3 34.6 C 0 km/h
1767 14-07-2010 17:29:53 34.6 C 7.74 g/m*3 34.6 C 0 km/h
1768 14-07-2010 17:41:53 34.1 C 7.54 g/m*3 34.1 C 0 km/h
1769 14-07-2010 17:53:53 34.4 C 7.66 g/m*3 34.4 C 0 km/h
1770 14-07-2010 18:05:54 34.4 C 7.66 g/m*3 34.4 C 0 km/h
1771 14-07-2010 18:17:54 34.8 C 7.82 g/m*3 34.8 C 0 km/h
1772 14-07-2010 18:29:54 35 C 7.91 g/m*3 35 C 0 km/h
1773 14-07-2010 18:41:54 34.8 C 7.82 g/m*3 34.8 C 0 km/h
1774 14-07-2010 18:53:54 34.3 C 7.62 g/m*3 34.3 C 0 km/h
1775 14-07-2010 19:05:54 33.5 C 7.31 g/m*3 33.5 C 0 km/h
Sensor: Nr:Datum:Temp:Abs-Feuchte:Windchill:Wind:
Aussen-T/F 1776 14-07-2010 19:17:54 27.6 C 9.31 g/m*3 27.6 C 0 km/h
1777 14-07-2010 19:29:54 24.1 C 14 g/m*3 24.1 C 0 km/h
1778 14-07-2010 19:41:54 22.2 C 15.51 g/m*3 22.2 C 0 km/h
1779 14-07-2010 19:53:54 21.8 C 16.12 g/m*3 21.8 C 0 km/h
1780 14-07-2010 20:05:54 21.8 C 16.12 g/m*3 21.8 C 0 km/h
1781 14-07-2010 20:17:54 22.5 C 17.18 g/m*3 22.5 C 0 km/h
1782 14-07-2010 20:29:54 22.6 C 16.87 g/m*3 22.6 C 0 km/h
1783 14-07-2010 20:41:54 22.5 C 16.38 g/m*3 22.5 C 0 km/h
1784 14-07-2010 20:53:54 22.3 C 15.99 g/m*3 22.3 C 0 km/h
1785 14-07-2010 21:05:54 22 C 15.53 g/m*3 22 C 0 km/h
1786 14-07-2010 21:17:54 22 C 15.53 g/m*3 22 C 0 km/h
1787 14-07-2010 21:29:54 21.8 C 15.35 g/m*3 21.8 C 0 km/h
1788 14-07-2010 21:41:54 21.4 C 15.19 g/m*3 21.4 C 0 km/h
1789 14-07-2010 21:53:54 21.5 C 15.46 g/m*3 21.5 C 0 km/h
1790 14-07-2010 22:05:54 21.6 C 15.36 g/m*3 21.6 C 0 km/h
1791 14-07-2010 22:17:55 21.6 C 14.98 g/m*3 21.6 C 0 km/h
1792 14-07-2010 22:29:55 21.4 C 14.44 g/m*3 21.4 C 0 km/h
1793 14-07-2010 22:41:55 21.5 C 14.33 g/m*3 21.5 C 0 km/h
1794 14-07-2010 22:53:55 21.4 C 14.25 g/m*3 21.4 C 0 km/h
1795 14-07-2010 23:05:55 21.5 C 14.14 g/m*3 21.5 C 0 km/h
1796 14-07-2010 23:17:55 21.4 C 14.06 g/m*3 21.4 C 0 km/h
1797 14-07-2010 23:29:55 21.4 C 14.06 g/m*3 21.4 C 0 km/h
1798 14-07-2010 23:41:55 21.2 C 13.9 g/m*3 21.2 C 0 km/h
1799 14-07-2010 23:53:55 20.9 C 13.84 g/m*3 20.9 C 0 km/h
1800 15-07-2010 00:05:55 21 C 13.92 g/m*3 21 C 0 km/h
Sensor: Nr:Datum:Temp:Abs-Feuchte:Windchill:Wind:
Aussen-T/F 1801 15-07-2010 00:17:55 21 C 13.56 g/m*3 21 C 0 km/h
1802 15-07-2010 00:29:55 21.2 C 13.53 g/m*3 21.2 C 0 km/h
1803 15-07-2010 00:41:55 21.1 C 13.45 g/m*3 21.1 C 0 km/h
1804 15-07-2010 00:53:55 20.9 C 12.75 g/m*3 20.9 C 0 km/h
1805 15-07-2010 01:05:55 20.6 C 12.35 g/m*3 20.6 C 0 km/h
1806 15-07-2010 01:17:55 20.2 C 11.89 g/m*3 20.2 C 0 km/h
1807 15-07-2010 01:29:55 20.1 C 11.65 g/m*3 20.1 C 0 km/h
1808 15-07-2010 01:41:55 20 C 11.41 g/m*3 20 C 0 km/h
1809 15-07-2010 01:53:55 19.9 C 11.51 g/m*3 19.9 C 0 km/h
1810 15-07-2010 02:05:55 19.7 C 11.55 g/m*3 19.7 C 0 km/h
1811 15-07-2010 02:17:55 19.7 C 11.55 g/m*3 19.7 C 0 km/h
1812 15-07-2010 02:29:56 19.5 C 11.58 g/m*3 19.5 C 0 km/h
1813 15-07-2010 02:41:56 19.5 C 11.75 g/m*3 19.5 C 0 km/h
1814 15-07-2010 02:53:56 19.5 C 11.75 g/m*3 19.5 C 0 km/h
1815 15-07-2010 03:05:56 19.4 C 11.35 g/m*3 19.4 C 0 km/h
1816 15-07-2010 03:17:56 19.3 C 10.95 g/m*3 19.3 C 0 km/h
1817 15-07-2010 03:29:56 19.3 C 10.95 g/m*3 19.3 C 0 km/h
1818 15-07-2010 03:41:56 19.3 C 10.95 g/m*3 19.3 C 0 km/h
1819 15-07-2010 03:53:56 19.3 C 11.11 g/m*3 19.3 C 0 km/h
1820 15-07-2010 04:05:56 19.2 C 11.05 g/m*3 19.2 C 0 km/h
1821 15-07-2010 04:17:56 19.1 C 10.98 g/m*3 19.1 C 0 km/h
1822 15-07-2010 04:29:56 19 C 10.92 g/m*3 19 C 0 km/h
1823 15-07-2010 04:41:56 18.8 C 11.11 g/m*3 18.8 C 0 km/h
1824 15-07-2010 04:53:56 18.6 C 11.14 g/m*3 18.6 C 0 km/h
1825 15-07-2010 05:05:56 18.6 C 11.14 g/m*3 18.6 C 0 km/h
Sensor: Nr:Datum:Temp:Abs-Feuchte:Windchill:Wind:
Aussen-T/F 1826 15-07-2010 05:17:56 18.6 C 11.14 g/m*3 18.6 C 0 km/h
1827 15-07-2010 05:29:56 18.7 C 11.21 g/m*3 18.7 C 0 km/h
1828 15-07-2010 05:41:56 18.9 C 11.34 g/m*3 18.9 C 0 km/h
1829 15-07-2010 05:53:56 19 C 11.08 g/m*3 19 C 0 km/h
1830 15-07-2010 06:05:56 19 C 11.08 g/m*3 19 C 0 km/h
1831 15-07-2010 06:17:56 19 C 10.76 g/m*3 19 C 0 km/h
1832 15-07-2010 06:29:56 18.9 C 11.02 g/m*3 18.9 C 0 km/h
1833 15-07-2010 06:41:56 18.8 C 11.11 g/m*3 18.8 C 0 km/h
1834 15-07-2010 06:53:57 18.8 C 10.95 g/m*3 18.8 C 0 km/h
1835 15-07-2010 07:05:57 19.4 C 11.01 g/m*3 19.4 C 0 km/h
1836 15-07-2010 07:17:57 18.7 C 11.53 g/m*3 18.7 C 0 km/h
1837 15-07-2010 07:29:57 18.4 C 12.11 g/m*3 18.4 C 0 km/h
1838 15-07-2010 07:41:57 18.1 C 12.36 g/m*3 18.1 C 0 km/h
1839 15-07-2010 07:53:57 17.9 C 12.37 g/m*3 17.9 C 0 km/h
1840 15-07-2010 08:05:57 18.2 C 12.28 g/m*3 18.2 C 0 km/h
1841 15-07-2010 08:17:57 18.4 C 12.11 g/m*3 18.4 C 0 km/h
1842 15-07-2010 08:29:57 18.3 C 11.57 g/m*3 18.3 C 0 km/h
1843 15-07-2010 08:41:57 18.5 C 11.23 g/m*3 18.5 C 0 km/h
1844 15-07-2010 08:53:57 18.7 C 11.21 g/m*3 18.7 C 0 km/h
1845 15-07-2010 09:05:57 19 C 10.27 g/m*3 19 C 0 km/h
1846 15-07-2010 09:17:57 19.2 C 9.4 g/m*3 19.2 C 0 km/h
1847 15-07-2010 09:29:57 19.5 C 8.89 g/m*3 19.5 C 0 km/h
1848 15-07-2010 09:41:57 19.9 C 8.42 g/m*3 19.9 C 0 km/h
1849 15-07-2010 09:53:57 20.3 C 8.27 g/m*3 20.3 C 0 km/h
1850 15-07-2010 10:05:57 20.5 C 7.65 g/m*3 20.5 C 0 km/h
Sensor: Nr:Datum:Temp:Abs-Feuchte:Windchill:Wind:
Aussen-T/F 1851 15-07-2010 10:17:57 20.9 C 7.83 g/m*3 20.9 C 0 km/h
1852 15-07-2010 10:29:57 21.3 C 7.64 g/m*3 21.3 C 0 km/h
1853 15-07-2010 10:41:57 21.6 C 7.59 g/m*3 21.6 C 0 km/h
1854 15-07-2010 10:53:57 21.8 C 7.1 g/m*3 21.8 C 0 km/h
1855 15-07-2010 11:05:57 21.9 C 6.95 g/m*3 21.9 C 0 km/h
1856 15-07-2010 11:17:57 21.9 C 6.95 g/m*3 21.9 C 0 km/h
1857 15-07-2010 11:29:58 22.5 C 6.99 g/m*3 22.5 C 0 km/h
1858 15-07-2010 11:41:58 22.8 C 6.71 g/m*3 22.8 C 0 km/h
1859 15-07-2010 11:53:58 22.5 C 6.19 g/m*3 22.5 C 0 km/h
1860 15-07-2010 12:05:58 23.7 C 6.2 g/m*3 23.7 C 0 km/h
1861 15-07-2010 12:17:58 24.4 C 5.56 g/m*3 24.4 C 0 km/h
1862 15-07-2010 12:29:58 24.7 C 5.88 g/m*3 24.7 C 0 km/h
1863 15-07-2010 12:41:58 24.7 C 5.88 g/m*3 24.7 C 0 km/h
1864 15-07-2010 12:53:58 24.6 C 5.63 g/m*3 24.6 C 0 km/h
1865 15-07-2010 13:05:58 25.2 C 5.12 g/m*3 25.2 C 0 km/h
1866 15-07-2010 13:17:58 26.1 C 5.14 g/m*3 26.1 C 0 km/h
1867 15-07-2010 13:29:58 26.4 C 5.23 g/m*3 26.4 C 0 km/h
1868 15-07-2010 13:41:58 26.3 C 4.95 g/m*3 26.3 C 0 km/h
1869 15-07-2010 13:53:58 26.7 C 5.06 g/m*3 26.7 C 0 km/h
1870 15-07-2010 14:05:58 26.2 C 4.92 g/m*3 26.2 C 0 km/h
1871 15-07-2010 14:17:58 25.6 C 4.76 g/m*3 25.6 C 0 km/h
1872 15-07-2010 14:29:58 26.3 C 4.95 g/m*3 26.3 C 0 km/h
1873 15-07-2010 14:41:58 26.6 C 5.03 g/m*3 26.6 C 0 km/h
1874 15-07-2010 14:53:58 26.4 C 4.98 g/m*3 26.4 C 0 km/h
1875 15-07-2010 15:05:58 26.4 C 4.98 g/m*3 26.4 C 0 km/h
Sensor: Nr:Datum:Temp:Abs-Feuchte:Windchill:Wind:
Aussen-T/F 1876 15-07-2010 15:17:58 27.7 C 5.35 g/m*3 27.7 C 0 km/h
1877 15-07-2010 15:29:58 26 C 4.87 g/m*3 26 C 0 km/h
1878 15-07-2010 15:41:59 27.2 C 5.2 g/m*3 27.2 C 0 km/h
1879 15-07-2010 15:53:59 27.2 C 5.2 g/m*3 27.2 C 0 km/h
1880 15-07-2010 16:05:59 27.6 C 5.32 g/m*3 27.6 C 0 km/h
1881 15-07-2010 16:17:59 27.5 C 5.29 g/m*3 27.5 C 0 km/h
1882 15-07-2010 16:29:59 27.9 C 5.41 g/m*3 27.9 C 0 km/h
1883 15-07-2010 16:41:59 27.9 C 5.41 g/m*3 27.9 C 0 km/h
1884 15-07-2010 16:53:59 28.2 C 5.5 g/m*3 28.2 C 0 km/h
1885 15-07-2010 17:05:59 28.6 C 5.62 g/m*3 28.6 C 0 km/h
1886 15-07-2010 17:17:59 27.9 C 5.41 g/m*3 27.9 C 0 km/h
1887 15-07-2010 17:29:59 28.3 C 5.53 g/m*3 28.3 C 0 km/h
1888 15-07-2010 17:41:59 28.8 C 5.68 g/m*3 28.8 C 0 km/h
1889 15-07-2010 17:53:59 28.7 C 5.65 g/m*3 28.7 C 0 km/h
1890 15-07-2010 18:05:59 28.5 C 5.59 g/m*3 28.5 C 0 km/h
1891 15-07-2010 18:17:59 29.1 C 5.78 g/m*3 29.1 C 0 km/h
1892 15-07-2010 18:29:59 27.9 C 5.41 g/m*3 27.9 C 0 km/h
1893 15-07-2010 18:41:59 26.5 C 5.01 g/m*3 26.5 C 0 km/h
1894 15-07-2010 18:52:59 27.9 C 5.41 g/m*3 27.9 C 0 km/h
1895 15-07-2010 19:04:59 27.7 C 5.35 g/m*3 27.7 C 0 km/h
1896 15-07-2010 19:16:59 27.3 C 5.23 g/m*3 27.3 C 0 km/h
1897 15-07-2010 19:28:59 28.1 C 5.47 g/m*3 28.1 C 0 km/h
1898 15-07-2010 19:40:59 26.4 C 4.98 g/m*3 26.4 C 0 km/h
1899 15-07-2010 19:53:00 26.8 C 5.09 g/m*3 26.8 C 0 km/h
1900 15-07-2010 20:05:00 26.9 C 5.12 g/m*3 26.9 C 0 km/h
Sensor: Nr:Datum:Temp:Abs-Feuchte:Windchill:Wind:
Aussen-T/F 1901 15-07-2010 20:17:00 26.8 C 5.09 g/m*3 26.8 C 0 km/h
1902 15-07-2010 20:29:00 26.5 C 5.01 g/m*3 26.5 C 0 km/h
1903 15-07-2010 20:41:00 26.4 C 5.23 g/m*3 26.4 C 0 km/h
1904 15-07-2010 20:53:00 26.4 C 5.73 g/m*3 26.4 C 0 km/h
1905 15-07-2010 21:05:00 25.4 C 5.89 g/m*3 25.4 C 0 km/h
1906 15-07-2010 21:17:00 24.5 C 6.04 g/m*3 24.5 C 0 km/h
1907 15-07-2010 21:29:00 23.5 C 5.92 g/m*3 23.5 C 0 km/h
1908 15-07-2010 21:41:00 22.8 C 6.3 g/m*3 22.8 C 0 km/h
1909 15-07-2010 21:53:00 22.5 C 6.19 g/m*3 22.5 C 0 km/h
1910 15-07-2010 22:05:00 22 C 6.02 g/m*3 22 C 0 km/h
1911 15-07-2010 22:17:00 21.8 C 6.33 g/m*3 21.8 C 0 km/h
1912 15-07-2010 22:29:00 21.5 C 6.41 g/m*3 21.5 C 0 km/h
1913 15-07-2010 22:41:00 21.1 C 6.45 g/m*3 21.1 C 0 km/h
1914 15-07-2010 22:53:00 20.9 C 6.74 g/m*3 20.9 C 0 km/h
1915 15-07-2010 23:05:00 20.5 C 6.58 g/m*3 20.5 C 0 km/h
1916 15-07-2010 23:17:00 20.2 C 6.82 g/m*3 20.2 C 0 km/h
1917 15-07-2010 23:29:00 19.9 C 6.87 g/m*3 19.9 C 0 km/h
1918 15-07-2010 23:41:00 19.7 C 6.79 g/m*3 19.7 C 0 km/h
1919 15-07-2010 23:53:00 19.3 C 6.8 g/m*3 19.3 C 0 km/h
1920 16-07-2010 00:05:01 19.1 C 6.72 g/m*3 19.1 C 0 km/h
1921 16-07-2010 00:17:01 18.8 C 6.93 g/m*3 18.8 C 0 km/h
1922 16-07-2010 00:29:01 18.6 C 6.84 g/m*3 18.6 C 0 km/h
1923 16-07-2010 00:41:01 18.3 C 7.04 g/m*3 18.3 C 0 km/h
1924 16-07-2010 00:53:01 18.2 C 6.99 g/m*3 18.2 C 0 km/h
1925 16-07-2010 01:05:01 18.1 C 7.11 g/m*3 18.1 C 0 km/h
Sensor: Nr:Datum:Temp:Abs-Feuchte:Windchill:Wind:
Aussen-T/F 1926 16-07-2010 01:17:01 17.9 C 7.18 g/m*3 17.9 C 0 km/h
1927 16-07-2010 01:29:01 17.7 C 7.24 g/m*3 17.7 C 0 km/h
1928 16-07-2010 01:41:01 17.6 C 7.5 g/m*3 17.6 C 0 km/h
1929 16-07-2010 01:53:01 17.5 C 7.45 g/m*3 17.5 C 0 km/h
1930 16-07-2010 02:05:01 17.1 C 7.57 g/m*3 17.1 C 0 km/h
1931 16-07-2010 02:17:01 16.9 C 7.77 g/m*3 16.9 C 0 km/h
1932 16-07-2010 02:29:01 16.8 C 8.01 g/m*3 16.8 C 0 km/h
1933 16-07-2010 02:41:01 16.5 C 8 g/m*3 16.5 C 0 km/h
1934 16-07-2010 02:53:01 16.4 C 8.1 g/m*3 16.4 C 0 km/h
1935 16-07-2010 03:05:01 16.3 C 8.05 g/m*3 16.3 C 0 km/h
1936 16-07-2010 03:17:01 16.1 C 8.09 g/m*3 16.1 C 0 km/h
1937 16-07-2010 03:29:01 16 C 8.17 g/m*3 16 C 0 km/h
1938 16-07-2010 03:41:01 15.8 C 8.21 g/m*3 15.8 C 0 km/h
1939 16-07-2010 03:53:01 15.6 C 7.98 g/m*3 15.6 C 0 km/h
1940 16-07-2010 04:05:01 15.5 C 8.06 g/m*3 15.5 C 0 km/h
1941 16-07-2010 04:17:01 15.4 C 8.15 g/m*3 15.4 C 0 km/h
1942 16-07-2010 04:29:02 15.2 C 8.31 g/m*3 15.2 C 0 km/h
1943 16-07-2010 04:41:02 15 C 8.08 g/m*3 15 C 0 km/h
1944 16-07-2010 04:53:02 15 C 8.21 g/m*3 15 C 0 km/h
1945 16-07-2010 05:05:02 14.8 C 8.36 g/m*3 14.8 C 0 km/h
1946 16-07-2010 05:17:02 14.7 C 8.31 g/m*3 14.7 C 0 km/h
1947 16-07-2010 05:29:02 14.6 C 8.13 g/m*3 14.6 C 0 km/h
1948 16-07-2010 05:41:02 14.6 C 8.26 g/m*3 14.6 C 0 km/h
1949 16-07-2010 05:53:02 14.5 C 8.46 g/m*3 14.5 C 0 km/h
1950 16-07-2010 06:05:02 14.4 C 8.41 g/m*3 14.4 C 0 km/h
Sensor: Nr:Datum:Temp:Abs-Feuchte:Windchill:Wind:
Aussen-T/F 1951 16-07-2010 06:17:02 14.3 C 8.48 g/m*3 14.3 C 0 km/h
1952 16-07-2010 06:29:02 14.4 C 8.65 g/m*3 14.4 C 0 km/h
1953 16-07-2010 06:41:02 14.5 C 8.71 g/m*3 14.5 C 0 km/h
1954 16-07-2010 06:53:02 14.7 C 8.81 g/m*3 14.7 C 0 km/h
1955 16-07-2010 07:05:02 14.8 C 8.87 g/m*3 14.8 C 0 km/h
1956 16-07-2010 07:17:02 14.9 C 8.92 g/m*3 14.9 C 0 km/h
1957 16-07-2010 07:29:02 15.2 C 8.83 g/m*3 15.2 C 0 km/h
1958 16-07-2010 07:41:02 15.3 C 8.88 g/m*3 15.3 C 0 km/h
1959 16-07-2010 07:53:02 15.6 C 8.91 g/m*3 15.6 C 0 km/h
1960 16-07-2010 08:05:02 15.9 C 8.94 g/m*3 15.9 C 0 km/h
1961 16-07-2010 08:17:02 16.2 C 8.83 g/m*3 16.2 C 0 km/h
1962 16-07-2010 08:29:02 16.6 C 9.04 g/m*3 16.6 C 0 km/h
1963 16-07-2010 08:41:03 17 C 8.97 g/m*3 17 C 0 km/h
1964 16-07-2010 08:53:03 17.4 C 9.19 g/m*3 17.4 C 0 km/h
1965 16-07-2010 09:05:03 18.1 C 9.27 g/m*3 18.1 C 0 km/h
1966 16-07-2010 09:17:03 19 C 9.45 g/m*3 19 C 0 km/h
1967 16-07-2010 09:29:03 19.6 C 9.45 g/m*3 19.6 C 0 km/h
1968 16-07-2010 09:41:03 20.4 C 9.2 g/m*3 20.4 C 0 km/h
1969 16-07-2010 09:53:03 21.3 C 9.32 g/m*3 21.3 C 0 km/h
1970 16-07-2010 10:05:03 22.1 C 9.17 g/m*3 22.1 C 0 km/h
1971 16-07-2010 10:17:03 23 C 9.25 g/m*3 23 C 0 km/h
1972 16-07-2010 10:29:03 23.8 C 9.25 g/m*3 23.8 C 0 km/h
1973 16-07-2010 10:41:03 24.2 C 8.14 g/m*3 24.2 C 0 km/h
1974 16-07-2010 10:53:03 24.9 C 7.55 g/m*3 24.9 C 0 km/h
1975 16-07-2010 11:05:03 25.6 C 7.14 g/m*3 25.6 C 0 km/h
Sensor: Nr:Datum:Temp:Abs-Feuchte:Windchill:Wind:
Aussen-T/F 1976 16-07-2010 11:17:03 26 C 5.11 g/m*3 26 C 0 km/h
1977 16-07-2010 11:29:03 26.3 C 5.69 g/m*3 26.3 C 0 km/h
1978 16-07-2010 11:41:03 26.5 C 5.51 g/m*3 26.5 C 0 km/h
1979 16-07-2010 11:53:03 26.9 C 5.63 g/m*3 26.9 C 0 km/h
1980 16-07-2010 12:05:03 27.3 C 5.49 g/m*3 27.3 C 0 km/h
1981 16-07-2010 12:17:03 27.9 C 5.41 g/m*3 27.9 C 0 km/h
1982 16-07-2010 12:29:03 28.6 C 5.62 g/m*3 28.6 C 0 km/h
1983 16-07-2010 12:41:03 29.2 C 5.81 g/m*3 29.2 C 0 km/h
1984 16-07-2010 12:53:04 29.7 C 5.97 g/m*3 29.7 C 0 km/h
1985 16-07-2010 13:05:04 30 C 6.06 g/m*3 30 C 0 km/h
1986 16-07-2010 13:17:04 30.6 C 6.26 g/m*3 30.6 C 0 km/h
1987 16-07-2010 13:29:04 30.5 C 6.23 g/m*3 30.5 C 0 km/h
1988 16-07-2010 13:41:04 31.4 C 6.54 g/m*3 31.4 C 0 km/h
1989 16-07-2010 13:53:04 30.9 C 6.37 g/m*3 30.9 C 0 km/h
1990 16-07-2010 14:05:04 31.1 C 6.43 g/m*3 31.1 C 0 km/h
1991 16-07-2010 14:17:04 30.7 C 6.3 g/m*3 30.7 C 0 km/h
1992 16-07-2010 14:29:04 31.1 C 6.43 g/m*3 31.1 C 0 km/h
1993 16-07-2010 14:41:04 31.2 C 6.47 g/m*3 31.2 C 0 km/h
1994 16-07-2010 14:53:04 31.2 C 6.47 g/m*3 31.2 C 0 km/h
1995 16-07-2010 15:05:04 31.5 C 6.57 g/m*3 31.5 C 0 km/h
1996 16-07-2010 15:17:04 31.5 C 6.57 g/m*3 31.5 C 0 km/h
1997 16-07-2010 15:29:04 31.9 C 6.72 g/m*3 31.9 C 0 km/h
1998 16-07-2010 15:41:04 32.1 C 6.79 g/m*3 32.1 C 0 km/h
1999 16-07-2010 15:53:04 32.3 C 6.86 g/m*3 32.3 C 0 km/h
2000 16-07-2010 16:05:04 32.4 C 6.9 g/m*3 32.4 C 0 km/h
Sensor: Nr:Datum:Temp:Abs-Feuchte:Windchill:Wind:
Aussen-T/F 2001 16-07-2010 16:17:04 32.3 C 6.86 g/m*3 32.3 C 0 km/h
2002 16-07-2010 16:29:04 32.6 C 6.97 g/m*3 32.6 C 0 km/h
2003 16-07-2010 16:41:04 32.4 C 6.9 g/m*3 32.4 C 0 km/h
2004 16-07-2010 16:53:05 32.5 C 6.93 g/m*3 32.5 C 0 km/h
2005 16-07-2010 17:05:05 32.5 C 6.93 g/m*3 32.5 C 0 km/h
2006 16-07-2010 17:17:05 32.5 C 6.93 g/m*3 32.5 C 0 km/h
2007 16-07-2010 17:29:05 32.5 C 6.93 g/m*3 32.5 C 0 km/h
2008 16-07-2010 17:41:05 32.8 C 7.04 g/m*3 32.8 C 0 km/h
2009 16-07-2010 17:53:05 32.5 C 6.93 g/m*3 32.5 C 0 km/h
2010 16-07-2010 18:05:05 32.8 C 7.04 g/m*3 32.8 C 0 km/h
2011 16-07-2010 18:17:05 32.7 C 7.01 g/m*3 32.7 C 0 km/h
2012 16-07-2010 18:29:05 32.7 C 7.01 g/m*3 32.7 C 0 km/h
2013 16-07-2010 18:41:05 32.7 C 7.01 g/m*3 32.7 C 0 km/h
2014 16-07-2010 18:53:05 32.7 C 7.01 g/m*3 32.7 C 0 km/h
2015 16-07-2010 19:05:05 32 C 6.75 g/m*3 32 C 0 km/h
2016 16-07-2010 19:17:05 31.7 C 6.64 g/m*3 31.7 C 0 km/h
2017 16-07-2010 19:29:05 31.3 C 6.5 g/m*3 31.3 C 0 km/h
2018 16-07-2010 19:41:05 30.8 C 6.33 g/m*3 30.8 C 0 km/h
2019 16-07-2010 19:53:05 30.4 C 6.51 g/m*3 30.4 C 0 km/h
2020 16-07-2010 20:05:05 30 C 6.67 g/m*3 30 C 0 km/h
2021 16-07-2010 20:17:05 29.6 C 7.42 g/m*3 29.6 C 0 km/h
2022 16-07-2010 20:29:05 29.1 C 7.22 g/m*3 29.1 C 0 km/h
2023 16-07-2010 20:41:05 29.2 C 7.26 g/m*3 29.2 C 0 km/h
2024 16-07-2010 20:53:05 29.1 C 7.51 g/m*3 29.1 C 0 km/h
2025 16-07-2010 21:05:06 28.9 C 7.43 g/m*3 28.9 C 0 km/h
Sensor: Nr:Datum:Temp:Abs-Feuchte:Windchill:Wind:
Aussen-T/F 2026 16-07-2010 21:17:06 28.8 C 7.39 g/m*3 28.8 C 0 km/h
2027 16-07-2010 21:29:06 28.4 C 7.51 g/m*3 28.4 C 0 km/h
2028 16-07-2010 21:41:06 28 C 7.34 g/m*3 28 C 0 km/h
2029 16-07-2010 21:53:06 27.4 C 7.63 g/m*3 27.4 C 0 km/h
2030 16-07-2010 22:05:06 27.2 C 7.81 g/m*3 27.2 C 0 km/h
2031 16-07-2010 22:17:06 26.8 C 7.64 g/m*3 26.8 C 0 km/h
2032 16-07-2010 22:29:01 26.3 C 7.43 g/m*3 26.3 C 0 km/h
2033 16-07-2010 22:41:01 25.8 C 7.7 g/m*3 25.8 C 0 km/h
2034 16-07-2010 22:53:01 25.8 C 7.94 g/m*3 25.8 C 0 km/h
2035 16-07-2010 23:05:01 25.9 C 8.23 g/m*3 25.9 C 0 km/h
2036 16-07-2010 23:17:02 25.8 C 8.43 g/m*3 25.8 C 0 km/h
2037 16-07-2010 23:29:02 25.6 C 8.33 g/m*3 25.6 C 0 km/h
2038 16-07-2010 23:41:01 25.5 C 8.52 g/m*3 25.5 C 0 km/h
2039 16-07-2010 23:53:03 25 C 8.75 g/m*3 25 C 0 km/h
2040 17-07-2010 00:06:04 24.5 C 8.28 g/m*3 24.5 C 0 km/h
2041 17-07-2010 00:18:04 23.8 C 8.6 g/m*3 23.8 C 0 km/h
2042 17-07-2010 00:30:04 23.5 C 8.88 g/m*3 23.5 C 0 km/h
2043 17-07-2010 00:42:04 22.5 C 10.19 g/m*3 22.5 C 0 km/h
2044 17-07-2010 00:54:04 22.2 C 9.42 g/m*3 22.2 C 0 km/h
2045 17-07-2010 01:06:04 22.3 C 9.87 g/m*3 22.3 C 0 km/h
2046 17-07-2010 01:18:04 21.4 C 11.25 g/m*3 21.4 C 0 km/h
2047 17-07-2010 01:30:04 19.9 C 11.68 g/m*3 19.9 C 0 km/h
2048 17-07-2010 01:42:04 19.8 C 11.44 g/m*3 19.8 C 0 km/h
2049 17-07-2010 01:54:04 20.1 C 11.47 g/m*3 20.1 C 0 km/h
2050 17-07-2010 02:06:04 20.3 C 11.43 g/m*3 20.3 C 0 km/h
Sensor: Nr:Datum:Temp:Abs-Feuchte:Windchill:Wind:
Aussen-T/F 2051 17-07-2010 02:18:04 20.3 C 11.08 g/m*3 20.3 C 0 km/h
2052 17-07-2010 02:30:04 20.1 C 10.95 g/m*3 20.1 C 0 km/h
2053 17-07-2010 02:42:04 20.1 C 10.95 g/m*3 20.1 C 0 km/h
2054 17-07-2010 02:54:04 20.1 C 11.13 g/m*3 20.1 C 0 km/h
2055 17-07-2010 03:06:04 20.1 C 11.3 g/m*3 20.1 C 0 km/h
2056 17-07-2010 03:18:04 19.8 C 11.96 g/m*3 19.8 C 0 km/h
2057 17-07-2010 03:30:04 19.7 C 11.89 g/m*3 19.7 C 0 km/h
2058 17-07-2010 03:42:04 20 C 11.92 g/m*3 20 C 0 km/h
2059 17-07-2010 03:54:04 19.8 C 12.3 g/m*3 19.8 C 0 km/h
2060 17-07-2010 04:06:05 19.7 C 11.89 g/m*3 19.7 C 0 km/h
2061 17-07-2010 04:18:05 19.9 C 11.85 g/m*3 19.9 C 0 km/h
2062 17-07-2010 04:30:05 19.2 C 12.37 g/m*3 19.2 C 0 km/h
2063 17-07-2010 04:42:05 18.7 C 13.13 g/m*3 18.7 C 0 km/h
2064 17-07-2010 04:54:05 18.3 C 13.13 g/m*3 18.3 C 0 km/h
2065 17-07-2010 05:06:05 18.4 C 13.37 g/m*3 18.4 C 0 km/h
2066 17-07-2010 05:18:05 18.3 C 13.45 g/m*3 18.3 C 0 km/h
2067 17-07-2010 05:30:05 18.1 C 13.29 g/m*3 18.1 C 0 km/h
2068 17-07-2010 05:42:05 17.9 C 13.44 g/m*3 17.9 C 0 km/h
2069 17-07-2010 05:54:05 17.7 C 13.28 g/m*3 17.7 C 0 km/h
2070 17-07-2010 06:06:05 17.6 C 13.2 g/m*3 17.6 C 0 km/h
2071 17-07-2010 06:18:05 17.5 C 13.12 g/m*3 17.5 C 0 km/h
2072 17-07-2010 06:30:05 17.7 C 13.43 g/m*3 17.7 C 0 km/h
2073 17-07-2010 06:42:05 17.8 C 13.51 g/m*3 17.8 C 0 km/h
2074 17-07-2010 06:54:05 17.8 C 13.66 g/m*3 17.8 C 0 km/h
2075 17-07-2010 07:06:05 17.8 C 13.66 g/m*3 17.8 C 0 km/h
Sensor: Nr:Datum:Temp:Abs-Feuchte:Windchill:Wind:
Aussen-T/F 2076 17-07-2010 07:18:05 17.8 C 13.66 g/m*3 17.8 C 0 km/h
2077 17-07-2010 07:30:05 17.9 C 13.59 g/m*3 17.9 C 0 km/h
2078 17-07-2010 07:42:05 18 C 13.36 g/m*3 18 C 0 km/h
2079 17-07-2010 07:54:05 17.9 C 13.44 g/m*3 17.9 C 0 km/h
2080 17-07-2010 08:06:04 17.8 C 13.36 g/m*3 17.8 C 0 km/h
2081 17-07-2010 08:18:04 17.7 C 13.43 g/m*3 17.7 C 0 km/h
2082 17-07-2010 08:30:04 17.5 C 13.27 g/m*3 17.5 C 0 km/h
2083 17-07-2010 08:42:03 17.5 C 13.27 g/m*3 17.5 C 0 km/h
2084 17-07-2010 08:54:01 17.7 C 13.58 g/m*3 17.7 C 0 km/h
2085 17-07-2010 09:06:02 17.8 C 13.66 g/m*3 17.8 C 0 km/h
2086 17-07-2010 09:18:03 18.1 C 13.75 g/m*3 18.1 C 0 km/h
2087 17-07-2010 09:30:03 18.8 C 13.85 g/m*3 18.8 C 0 km/h
2088 17-07-2010 09:42:02 18.9 C 13.28 g/m*3 18.9 C 0 km/h
2089 17-07-2010 09:54:02 19.1 C 12.95 g/m*3 19.1 C 0 km/h
2090 17-07-2010 10:06:01 19 C 12.71 g/m*3 19 C 0 km/h
2091 17-07-2010 10:18:02 19.2 C 12.53 g/m*3 19.2 C 0 km/h
2092 17-07-2010 10:30:03 19.7 C 12.74 g/m*3 19.7 C 0 km/h
2093 17-07-2010 10:42:01 20 C 12.44 g/m*3 20 C 0 km/h
2094 17-07-2010 10:54:02 20.1 C 12.34 g/m*3 20.1 C 0 km/h
2095 17-07-2010 11:06:01 21 C 12.46 g/m*3 21 C 0 km/h
2096 17-07-2010 11:18:02 21.2 C 11.86 g/m*3 21.2 C 0 km/h
2097 17-07-2010 11:30:02 21.8 C 11.13 g/m*3 21.8 C 0 km/h
2098 17-07-2010 11:42:02 23.3 C 11.08 g/m*3 23.3 C 0 km/h
2099 17-07-2010 11:54:02 23.7 C 10.69 g/m*3 23.7 C 0 km/h
2100 17-07-2010 12:06:01 23.7 C 10.27 g/m*3 23.7 C 0 km/h
Sensor: Nr:Datum:Temp:Abs-Feuchte:Windchill:Wind:
Aussen-T/F 2101 17-07-2010 12:18:02 23.7 C 9.84 g/m*3 23.7 C 0 km/h
2102 17-07-2010 12:30:02 24.6 C 8.55 g/m*3 24.6 C 0 km/h
2103 17-07-2010 12:42:02 25.3 C 8.66 g/m*3 25.3 C 0 km/h
2104 17-07-2010 12:54:01 26 C 7.79 g/m*3 26 C 0 km/h
2105 17-07-2010 13:06:02 26.5 C 8.01 g/m*3 26.5 C 0 km/h
2106 17-07-2010 13:18:01 25 C 7.37 g/m*3 25 C 0 km/h
2107 17-07-2010 13:30:01 26.3 C 7.67 g/m*3 26.3 C 0 km/h
2108 17-07-2010 13:42:02 25.7 C 7.66 g/m*3 25.7 C 0 km/h
2109 17-07-2010 13:54:02 26.6 C 7.05 g/m*3 26.6 C 0 km/h
2110 17-07-2010 14:06:02 26 C 7.55 g/m*3 26 C 0 km/h
2111 17-07-2010 14:18:02 25.9 C 7.51 g/m*3 25.9 C 0 km/h
2112 17-07-2010 14:30:02 26.3 C 7.43 g/m*3 26.3 C 0 km/h
2113 17-07-2010 14:42:02 26 C 6.82 g/m*3 26 C 0 km/h
2114 17-07-2010 14:54:01 26.5 C 7.01 g/m*3 26.5 C 0 km/h
2115 17-07-2010 15:06:02 27 C 6.69 g/m*3 27 C 0 km/h
2116 17-07-2010 15:18:01 27.5 C 6.35 g/m*3 27.5 C 0 km/h
2117 17-07-2010 15:30:01 27.3 C 6.54 g/m*3 27.3 C 0 km/h
2118 17-07-2010 15:42:02 27.5 C 6.61 g/m*3 27.5 C 0 km/h
2119 17-07-2010 15:54:01 26.6 C 6.29 g/m*3 26.6 C 0 km/h
2120 17-07-2010 16:06:02 27.3 C 6.54 g/m*3 27.3 C 0 km/h
2121 17-07-2010 16:18:02 26.4 C 6.22 g/m*3 26.4 C 0 km/h
2122 17-07-2010 16:30:02 26 C 5.84 g/m*3 26 C 0 km/h
2123 17-07-2010 16:42:02 26.9 C 5.89 g/m*3 26.9 C 0 km/h
2124 17-07-2010 16:54:02 27 C 5.92 g/m*3 27 C 0 km/h
2125 17-07-2010 17:06:02 26.6 C 6.29 g/m*3 26.6 C 0 km/h
Sensor: Nr:Datum:Temp:Abs-Feuchte:Windchill:Wind:
Aussen-T/F 2126 17-07-2010 17:18:03 25.7 C 7.42 g/m*3 25.7 C 0 km/h
2127 17-07-2010 17:30:03 26 C 7.79 g/m*3 26 C 0 km/h
2128 17-07-2010 17:42:02 26.1 C 7.59 g/m*3 26.1 C 0 km/h
2129 17-07-2010 17:54:02 24.6 C 7.88 g/m*3 24.6 C 0 km/h
2130 17-07-2010 18:06:01 24.2 C 7.7 g/m*3 24.2 C 0 km/h
2131 17-07-2010 18:18:02 23.7 C 7.7 g/m*3 23.7 C 0 km/h
2132 17-07-2010 18:30:02 24 C 7.61 g/m*3 24 C 0 km/h
2133 17-07-2010 18:42:01 24.1 C 7.44 g/m*3 24.1 C 0 km/h
2134 17-07-2010 18:54:02 24 C 7.4 g/m*3 24 C 0 km/h
2135 17-07-2010 19:06:02 24.6 C 7.43 g/m*3 24.6 C 0 km/h
2136 17-07-2010 19:18:02 24.6 C 7.2 g/m*3 24.6 C 0 km/h
2137 17-07-2010 19:30:03 24.2 C 7.26 g/m*3 24.2 C 0 km/h
2138 17-07-2010 19:42:02 23.8 C 7.1 g/m*3 23.8 C 0 km/h
2139 17-07-2010 19:54:02 23.6 C 6.59 g/m*3 23.6 C 0 km/h
2140 17-07-2010 20:06:02 23.7 C 6.84 g/m*3 23.7 C 0 km/h
2141 17-07-2010 20:18:02 24.7 C 6.11 g/m*3 24.7 C 0 km/h
2142 17-07-2010 20:30:02 25.4 C 5.41 g/m*3 25.4 C 0 km/h
2143 17-07-2010 20:42:03 24.7 C 5.21 g/m*3 24.7 C 0 km/h
2144 17-07-2010 20:54:02 23.8 C 5.38 g/m*3 23.8 C 0 km/h
2145 17-07-2010 21:06:01 22.9 C 5.72 g/m*3 22.9 C 0 km/h
2146 17-07-2010 21:18:02 22.4 C 5.96 g/m*3 22.4 C 0 km/h
2147 17-07-2010 21:30:02 22.1 C 6.44 g/m*3 22.1 C 0 km/h
2148 17-07-2010 21:42:02 22 C 6.21 g/m*3 22 C 0 km/h
2149 17-07-2010 21:54:01 21.9 C 6.37 g/m*3 21.9 C 0 km/h
2150 17-07-2010 22:06:02 21.6 C 6.26 g/m*3 21.6 C 0 km/h
Sensor: Nr:Datum:Temp:Abs-Feuchte:Windchill:Wind:
Aussen-T/F 2151 17-07-2010 22:18:01 21.7 C 6.49 g/m*3 21.7 C 0 km/h
2152 17-07-2010 22:30:01 21.6 C 6.26 g/m*3 21.6 C 0 km/h
2153 17-07-2010 22:42:02 21.3 C 6.15 g/m*3 21.3 C 0 km/h
2154 17-07-2010 22:54:02 21 C 6.23 g/m*3 21 C 0 km/h
2155 17-07-2010 23:06:02 20.4 C 6.19 g/m*3 20.4 C 0 km/h
2156 17-07-2010 23:18:02 20.3 C 6.16 g/m*3 20.3 C 0 km/h
2157 17-07-2010 23:30:02 20.2 C 6.12 g/m*3 20.2 C 0 km/h
2158 17-07-2010 23:42:02 19.9 C 6.01 g/m*3 19.9 C 0 km/h
2159 17-07-2010 23:54:01 19.8 C 6.15 g/m*3 19.8 C 0 km/h
2160 18-07-2010 00:06:02 19.3 C 5.97 g/m*3 19.3 C 0 km/h
2161 18-07-2010 00:18:02 19 C 5.87 g/m*3 19 C 0 km/h
2162 18-07-2010 00:30:02 18.6 C 6.21 g/m*3 18.6 C 0 km/h
2163 18-07-2010 00:42:01 18.3 C 6.1 g/m*3 18.3 C 0 km/h
2164 18-07-2010 00:54:02 18 C 6.14 g/m*3 18 C 0 km/h
2165 18-07-2010 01:06:01 17.7 C 6.19 g/m*3 17.7 C 0 km/h
2166 18-07-2010 01:18:02 17.4 C 6.22 g/m*3 17.4 C 0 km/h
2167 18-07-2010 01:30:02 17.2 C 6.3 g/m*3 17.2 C 0 km/h
2168 18-07-2010 01:42:01 16.8 C 6.43 g/m*3 16.8 C 0 km/h
2169 18-07-2010 01:54:03 16.7 C 6.54 g/m*3 16.7 C 0 km/h
2170 18-07-2010 02:06:02 16.5 C 6.6 g/m*3 16.5 C 0 km/h
2171 18-07-2010 02:18:02 16.3 C 6.38 g/m*3 16.3 C 0 km/h
2172 18-07-2010 02:30:02 16 C 6.95 g/m*3 16 C 0 km/h
2173 18-07-2010 02:42:02 15.6 C 7.18 g/m*3 15.6 C 0 km/h
2174 18-07-2010 02:55:04 15.4 C 7.23 g/m*3 15.4 C 0 km/h
2175 18-07-2010 03:07:04 15.2 C 7.14 g/m*3 15.2 C 0 km/h
Sensor: Nr:Datum:Temp:Abs-Feuchte:Windchill:Wind:
Aussen-T/F 2176 18-07-2010 03:19:04 15 C 6.92 g/m*3 15 C 0 km/h
2177 18-07-2010 03:31:02 14.8 C 7.22 g/m*3 14.8 C 0 km/h
2178 18-07-2010 03:43:02 14.6 C 7.26 g/m*3 14.6 C 0 km/h
2179 18-07-2010 03:55:02 14.4 C 7.17 g/m*3 14.4 C 0 km/h
2180 18-07-2010 04:07:02 14.1 C 7.28 g/m*3 14.1 C 0 km/h
2181 18-07-2010 04:19:01 14.1 C 7.52 g/m*3 14.1 C 0 km/h
2182 18-07-2010 04:31:02 14 C 7.48 g/m*3 14 C 0 km/h
2183 18-07-2010 04:43:02 13.7 C 7.46 g/m*3 13.7 C 0 km/h
2184 18-07-2010 04:55:02 13.6 C 7.65 g/m*3 13.6 C 0 km/h
2185 18-07-2010 05:07:02 13.4 C 7.9 g/m*3 13.4 C 0 km/h
2186 18-07-2010 05:19:01 13.1 C 7.76 g/m*3 13.1 C 0 km/h
2187 18-07-2010 05:31:02 13 C 7.71 g/m*3 13 C 0 km/h
2188 18-07-2010 05:43:02 12.8 C 7.84 g/m*3 12.8 C 0 km/h
2189 18-07-2010 05:55:02 12.7 C 7.9 g/m*3 12.7 C 0 km/h
2190 18-07-2010 06:07:02 12.6 C 8.08 g/m*3 12.6 C 0 km/h
2191 18-07-2010 06:19:02 12.5 C 8.03 g/m*3 12.5 C 0 km/h
2192 18-07-2010 06:31:02 12.5 C 8.03 g/m*3 12.5 C 0 km/h
2193 18-07-2010 06:43:02 12.6 C 8.19 g/m*3 12.6 C 0 km/h
2194 18-07-2010 06:55:02 12.6 C 8.19 g/m*3 12.6 C 0 km/h
2195 18-07-2010 07:07:02 12.7 C 8.13 g/m*3 12.7 C 0 km/h
2196 18-07-2010 07:19:02 12.8 C 8.06 g/m*3 12.8 C 0 km/h
2197 18-07-2010 07:31:01 12.9 C 8 g/m*3 12.9 C 0 km/h
2198 18-07-2010 07:43:01 13.1 C 7.99 g/m*3 13.1 C 0 km/h
2199 18-07-2010 07:55:02 13.3 C 8.09 g/m*3 13.3 C 0 km/h
2200 18-07-2010 08:07:01 13.8 C 8.22 g/m*3 13.8 C 0 km/h
Sensor: Nr:Datum:Temp:Abs-Feuchte:Windchill:Wind:
Aussen-T/F 2201 18-07-2010 08:19:01 14.1 C 8.01 g/m*3 14.1 C 0 km/h
2202 18-07-2010 08:31:01 14.4 C 8.16 g/m*3 14.4 C 0 km/h
2203 18-07-2010 08:43:01 15 C 7.44 g/m*3 15 C 0 km/h
2204 18-07-2010 08:55:02 15.4 C 7.62 g/m*3 15.4 C 0 km/h
2205 18-07-2010 09:07:01 15.9 C 7.58 g/m*3 15.9 C 0 km/h
2206 18-07-2010 09:19:02 16.5 C 7.58 g/m*3 16.5 C 0 km/h
2207 18-07-2010 09:31:02 17.1 C 7.57 g/m*3 17.1 C 0 km/h
2208 18-07-2010 09:43:02 17.8 C 7.89 g/m*3 17.8 C 0 km/h
2209 18-07-2010 09:55:02 18.5 C 7.75 g/m*3 18.5 C 0 km/h
2210 18-07-2010 10:07:02 19 C 7.5 g/m*3 19 C 0 km/h
2211 18-07-2010 10:19:02 19.7 C 7.47 g/m*3 19.7 C 0 km/h
2212 18-07-2010 10:31:02 20.1 C 7.3 g/m*3 20.1 C 0 km/h
2213 18-07-2010 10:43:02 20.8 C 7.24 g/m*3 20.8 C 0 km/h
2214 18-07-2010 10:55:02 21.3 C 5.78 g/m*3 21.3 C 0 km/h
2215 18-07-2010 11:07:01 20.8 C 5.61 g/m*3 20.8 C 0 km/h
2216 18-07-2010 11:19:02 21.6 C 5.69 g/m*3 21.6 C 0 km/h
2217 18-07-2010 11:31:02 21.7 C 5.72 g/m*3 21.7 C 0 km/h
2218 18-07-2010 11:43:02 22.7 C 6.06 g/m*3 22.7 C 0 km/h
2219 18-07-2010 11:55:02 23.8 C 5.59 g/m*3 23.8 C 0 km/h
2220 18-07-2010 12:07:01 24.3 C 5.53 g/m*3 24.3 C 0 km/h
2221 18-07-2010 12:19:02 25.3 C 4.68 g/m*3 25.3 C 0 km/h
2222 18-07-2010 12:31:02 25.3 C 4.68 g/m*3 25.3 C 0 km/h
2223 18-07-2010 12:43:02 26.1 C 4.9 g/m*3 26.1 C 0 km/h
2224 18-07-2010 12:55:02 24.8 C 4.55 g/m*3 24.8 C 0 km/h
2225 18-07-2010 13:07:03 25.8 C 4.82 g/m*3 25.8 C 0 km/h
Sensor: Nr:Datum:Temp:Abs-Feuchte:Windchill:Wind:
Aussen-T/F 2226 18-07-2010 13:19:02 27.6 C 5.32 g/m*3 27.6 C 0 km/h
2227 18-07-2010 13:31:02 28.3 C 5.53 g/m*3 28.3 C 0 km/h
2228 18-07-2010 13:43:03 28 C 5.44 g/m*3 28 C 0 km/h
2229 18-07-2010 13:55:01 28.4 C 5.56 g/m*3 28.4 C 0 km/h
2230 18-07-2010 14:07:02 27.7 C 5.35 g/m*3 27.7 C 0 km/h
2231 18-07-2010 14:19:01 27.1 C 5.18 g/m*3 27.1 C 0 km/h
2232 18-07-2010 14:31:01 27.9 C 5.41 g/m*3 27.9 C 0 km/h
2233 18-07-2010 14:43:01 26.7 C 5.06 g/m*3 26.7 C 0 km/h
2234 18-07-2010 14:55:01 27.3 C 5.23 g/m*3 27.3 C 0 km/h
2235 18-07-2010 15:07:02 28.1 C 5.47 g/m*3 28.1 C 0 km/h
2236 18-07-2010 15:19:01 29.4 C 5.87 g/m*3 29.4 C 0 km/h
2237 18-07-2010 15:31:01 30 C 6.06 g/m*3 30 C 0 km/h
2238 18-07-2010 15:43:01 30.1 C 6.1 g/m*3 30.1 C 0 km/h
2239 18-07-2010 15:55:01 30.3 C 6.16 g/m*3 30.3 C 0 km/h
2240 18-07-2010 16:07:01 30.6 C 6.26 g/m*3 30.6 C 0 km/h
2241 18-07-2010 16:19:02 30.7 C 6.3 g/m*3 30.7 C 0 km/h
2242 18-07-2010 16:31:01 31 C 6.4 g/m*3 31 C 0 km/h
2243 18-07-2010 16:43:01 30.8 C 6.33 g/m*3 30.8 C 0 km/h
2244 18-07-2010 16:55:01 30.7 C 6.3 g/m*3 30.7 C 0 km/h
2245 18-07-2010 17:07:01 30.9 C 6.37 g/m*3 30.9 C 0 km/h
2246 18-07-2010 17:19:02 30.4 C 6.2 g/m*3 30.4 C 0 km/h
2247 18-07-2010 17:31:01 31.4 C 6.54 g/m*3 31.4 C 0 km/h
2248 18-07-2010 17:43:01 31.8 C 6.68 g/m*3 31.8 C 0 km/h
2249 18-07-2010 17:55:02 31.8 C 6.68 g/m*3 31.8 C 0 km/h
2250 18-07-2010 18:07:02 31.3 C 6.5 g/m*3 31.3 C 0 km/h
Sensor: Nr:Datum:Temp:Abs-Feuchte:Windchill:Wind:
Aussen-T/F 2251 18-07-2010 18:19:02 31.3 C 6.5 g/m*3 31.3 C 0 km/h
2252 18-07-2010 18:31:02 31.1 C 6.43 g/m*3 31.1 C 0 km/h
2253 18-07-2010 18:43:02 31.1 C 6.43 g/m*3 31.1 C 0 km/h
2254 18-07-2010 18:55:02 31.5 C 6.57 g/m*3 31.5 C 0 km/h
2255 18-07-2010 19:07:01 31.2 C 6.47 g/m*3 31.2 C 0 km/h
2256 18-07-2010 19:19:02 30.7 C 6.3 g/m*3 30.7 C 0 km/h
2257 18-07-2010 19:31:02 30 C 6.06 g/m*3 30 C 0 km/h
2258 18-07-2010 19:43:02 30.1 C 6.1 g/m*3 30.1 C 0 km/h
2259 18-07-2010 19:55:01 30.4 C 6.2 g/m*3 30.4 C 0 km/h
2260 18-07-2010 20:07:01 30.2 C 6.13 g/m*3 30.2 C 0 km/h
2261 18-07-2010 20:19:01 29.8 C 6 g/m*3 29.8 C 0 km/h
2262 18-07-2010 20:31:02 29.1 C 5.78 g/m*3 29.1 C 0 km/h
2263 18-07-2010 20:43:02 28.8 C 5.68 g/m*3 28.8 C 0 km/h
2264 18-07-2010 20:55:02 27.6 C 5.32 g/m*3 27.6 C 0 km/h
2265 18-07-2010 21:07:02 25.9 C 5.08 g/m*3 25.9 C 0 km/h
2266 18-07-2010 21:19:02 24.8 C 5.24 g/m*3 24.8 C 0 km/h
2267 18-07-2010 21:31:02 23.9 C 5.41 g/m*3 23.9 C 0 km/h
2268 18-07-2010 21:43:02 23.3 C 5.44 g/m*3 23.3 C 0 km/h
2269 18-07-2010 21:55:02 22.7 C 5.66 g/m*3 22.7 C 0 km/h
2270 18-07-2010 22:08:02 22.2 C 5.89 g/m*3 22.2 C 0 km/h
2271 18-07-2010 22:20:02 21.9 C 5.79 g/m*3 21.9 C 0 km/h
2272 18-07-2010 22:32:02 21.8 C 5.95 g/m*3 21.8 C 0 km/h
2273 18-07-2010 22:44:02 21.5 C 5.85 g/m*3 21.5 C 0 km/h
2274 18-07-2010 22:56:02 21.2 C 6.12 g/m*3 21.2 C 0 km/h
2275 18-07-2010 23:08:02 21 C 6.05 g/m*3 21 C 0 km/h
Sensor: Nr:Datum:Temp:Abs-Feuchte:Windchill:Wind:
Aussen-T/F 2276 18-07-2010 23:20:02 20.6 C 6.26 g/m*3 20.6 C 0 km/h
2277 18-07-2010 23:32:02 20.3 C 6.16 g/m*3 20.3 C 0 km/h
2278 18-07-2010 23:44:02 20.1 C 6.43 g/m*3 20.1 C 0 km/h
2279 18-07-2010 23:56:02 19.7 C 6.45 g/m*3 19.7 C 0 km/h
2280 19-07-2010 00:08:02 19.5 C 6.38 g/m*3 19.5 C 0 km/h
2281 19-07-2010 00:20:02 19.2 C 6.27 g/m*3 19.2 C 0 km/h
2282 19-07-2010 00:32:02 18.8 C 6.28 g/m*3 18.8 C 0 km/h
2283 19-07-2010 00:44:03 18.6 C 6.37 g/m*3 18.6 C 0 km/h
2284 19-07-2010 00:56:03 18.5 C 6.49 g/m*3 18.5 C 0 km/h
2285 19-07-2010 01:08:03 18.2 C 6.53 g/m*3 18.2 C 0 km/h
2286 19-07-2010 01:20:03 17.9 C 6.57 g/m*3 17.9 C 0 km/h
2287 19-07-2010 01:32:03 17.7 C 6.64 g/m*3 17.7 C 0 km/h
2288 19-07-2010 01:44:03 17.5 C 6.71 g/m*3 17.5 C 0 km/h
2289 19-07-2010 01:56:03 17.1 C 6.84 g/m*3 17.1 C 0 km/h
2290 19-07-2010 02:08:03 16.8 C 6.86 g/m*3 16.8 C 0 km/h
2291 19-07-2010 02:20:03 16.7 C 7.11 g/m*3 16.7 C 0 km/h
2292 19-07-2010 02:32:03 16.5 C 6.88 g/m*3 16.5 C 0 km/h
2293 19-07-2010 02:44:04 16.3 C 6.66 g/m*3 16.3 C 0 km/h
2294 19-07-2010 02:56:04 16 C 6.81 g/m*3 16 C 0 km/h
2295 19-07-2010 03:08:04 15.8 C 7 g/m*3 15.8 C 0 km/h
2296 19-07-2010 03:20:04 15.7 C 6.96 g/m*3 15.7 C 0 km/h
2297 19-07-2010 03:32:04 15.5 C 7.14 g/m*3 15.5 C 0 km/h
2298 19-07-2010 03:44:04 15.3 C 7.31 g/m*3 15.3 C 0 km/h
2299 19-07-2010 03:56:04 15.1 C 7.1 g/m*3 15.1 C 0 km/h
2300 19-07-2010 04:08:04 14.9 C 7.14 g/m*3 14.9 C 0 km/h
Sensor: Nr:Datum:Temp:Abs-Feuchte:Windchill:Wind:
Aussen-T/F 2301 19-07-2010 04:20:04 14.7 C 7.18 g/m*3 14.7 C 0 km/h
2302 19-07-2010 04:32:04 14.6 C 7.38 g/m*3 14.6 C 0 km/h
2303 19-07-2010 04:44:04 14.7 C 7.43 g/m*3 14.7 C 0 km/h
2304 19-07-2010 04:56:04 14.2 C 7.45 g/m*3 14.2 C 0 km/h
2305 19-07-2010 05:08:04 14.1 C 7.28 g/m*3 14.1 C 0 km/h
2306 19-07-2010 05:20:04 13.9 C 7.55 g/m*3 13.9 C 0 km/h
2307 19-07-2010 05:32:04 13.8 C 7.63 g/m*3 13.8 C 0 km/h
2308 19-07-2010 05:44:04 13.6 C 7.53 g/m*3 13.6 C 0 km/h
2309 19-07-2010 05:56:04 13.6 C 7.53 g/m*3 13.6 C 0 km/h
2310 19-07-2010 06:08:04 13.6 C 7.53 g/m*3 13.6 C 0 km/h
2311 19-07-2010 06:20:04 13.5 C 7.6 g/m*3 13.5 C 0 km/h
2312 19-07-2010 06:32:04 13.7 C 7.93 g/m*3 13.7 C 0 km/h
2313 19-07-2010 06:44:05 13.5 C 8.07 g/m*3 13.5 C 0 km/h
2314 19-07-2010 06:56:02 13.6 C 8.24 g/m*3 13.6 C 0 km/h
2315 19-07-2010 07:08:02 13.7 C 8.29 g/m*3 13.7 C 0 km/h
2316 19-07-2010 07:20:02 13.8 C 8.22 g/m*3 13.8 C 0 km/h
2317 19-07-2010 07:32:01 14 C 8.2 g/m*3 14 C 0 km/h
2318 19-07-2010 07:44:01 14.2 C 8.18 g/m*3 14.2 C 0 km/h
2319 19-07-2010 07:56:02 14.4 C 8.16 g/m*3 14.4 C 0 km/h
2320 19-07-2010 08:08:01 14.5 C 8.21 g/m*3 14.5 C 0 km/h
2321 19-07-2010 08:20:02 14.8 C 8.23 g/m*3 14.8 C 0 km/h
2322 19-07-2010 08:32:02 15.2 C 8.18 g/m*3 15.2 C 0 km/h
2323 19-07-2010 08:44:02 15.7 C 8.3 g/m*3 15.7 C 0 km/h
2324 19-07-2010 08:56:02 16.3 C 8.46 g/m*3 16.3 C 0 km/h
2325 19-07-2010 09:08:02 16.9 C 8.63 g/m*3 16.9 C 0 km/h
Sensor: Nr:Datum:Temp:Abs-Feuchte:Windchill:Wind:
Aussen-T/F 2326 19-07-2010 09:20:02 17.7 C 8.6 g/m*3 17.7 C 0 km/h
2327 19-07-2010 09:32:02 18.4 C 8.49 g/m*3 18.4 C 0 km/h
2328 19-07-2010 09:44:02 19.4 C 8.51 g/m*3 19.4 C 0 km/h
2329 19-07-2010 09:56:02 20.2 C 8.39 g/m*3 20.2 C 0 km/h
2330 19-07-2010 10:08:02 20.8 C 8.33 g/m*3 20.8 C 0 km/h
2331 19-07-2010 10:20:01 21.7 C 8.39 g/m*3 21.7 C 0 km/h
2332 19-07-2010 10:32:02 22.6 C 8.24 g/m*3 22.6 C 0 km/h
2333 19-07-2010 10:44:03 23.3 C 7.74 g/m*3 23.3 C 0 km/h
2334 19-07-2010 10:56:02 23.9 C 7.14 g/m*3 23.9 C 0 km/h
2335 19-07-2010 11:08:02 24.7 C 7.02 g/m*3 24.7 C 0 km/h
2336 19-07-2010 11:20:02 25.2 C 6.98 g/m*3 25.2 C 0 km/h
2337 19-07-2010 11:32:02 25.9 C 6.29 g/m*3 25.9 C 0 km/h
2338 19-07-2010 11:44:02 26.5 C 6.51 g/m*3 26.5 C 0 km/h
2339 19-07-2010 11:56:02 26.6 C 5.79 g/m*3 26.6 C 0 km/h
2340 19-07-2010 12:08:02 27.1 C 5.69 g/m*3 27.1 C 0 km/h
2341 19-07-2010 12:20:02 28.2 C 5.5 g/m*3 28.2 C 0 km/h
2342 19-07-2010 12:32:02 28.9 C 5.71 g/m*3 28.9 C 0 km/h
2343 19-07-2010 12:44:02 29.7 C 5.97 g/m*3 29.7 C 0 km/h
2344 19-07-2010 12:56:02 30.2 C 6.13 g/m*3 30.2 C 0 km/h
2345 19-07-2010 13:08:02 30.4 C 6.2 g/m*3 30.4 C 0 km/h
2346 19-07-2010 13:20:03 31.2 C 6.47 g/m*3 31.2 C 0 km/h
2347 19-07-2010 13:32:02 31.6 C 6.61 g/m*3 31.6 C 0 km/h
2348 19-07-2010 13:44:02 31.5 C 6.57 g/m*3 31.5 C 0 km/h
2349 19-07-2010 13:56:03 31.3 C 6.5 g/m*3 31.3 C 0 km/h
2350 19-07-2010 14:08:02 30.9 C 6.37 g/m*3 30.9 C 0 km/h
Sensor: Nr:Datum:Temp:Abs-Feuchte:Windchill:Wind:
Aussen-T/F 2351 19-07-2010 14:20:03 30.8 C 6.33 g/m*3 30.8 C 0 km/h
2352 19-07-2010 14:32:02 31 C 6.4 g/m*3 31 C 0 km/h
2353 19-07-2010 14:44:02 30.6 C 6.26 g/m*3 30.6 C 0 km/h
2354 19-07-2010 14:56:02 30.9 C 6.37 g/m*3 30.9 C 0 km/h
2355 19-07-2010 15:08:02 30.6 C 6.26 g/m*3 30.6 C 0 km/h
2356 19-07-2010 15:20:02 31.4 C 6.54 g/m*3 31.4 C 0 km/h
2357 19-07-2010 15:32:02 31.9 C 6.72 g/m*3 31.9 C 0 km/h
2358 19-07-2010 15:44:02 32.2 C 6.82 g/m*3 32.2 C 0 km/h
2359 19-07-2010 15:56:02 32.4 C 6.9 g/m*3 32.4 C 0 km/h
2360 19-07-2010 16:08:02 32.5 C 6.93 g/m*3 32.5 C 0 km/h
2361 19-07-2010 16:20:02 32.8 C 7.04 g/m*3 32.8 C 0 km/h
2362 19-07-2010 16:32:02 32.9 C 7.08 g/m*3 32.9 C 0 km/h
2363 19-07-2010 16:44:02 32.8 C 7.04 g/m*3 32.8 C 0 km/h
2364 19-07-2010 16:56:02 33.1 C 7.16 g/m*3 33.1 C 0 km/h
2365 19-07-2010 17:08:01 33.3 C 7.23 g/m*3 33.3 C 0 km/h
2366 19-07-2010 17:20:01 33.6 C 7.35 g/m*3 33.6 C 0 km/h
2367 19-07-2010 17:32:02 33.5 C 7.31 g/m*3 33.5 C 0 km/h
2368 19-07-2010 17:44:02 33.7 C 7.39 g/m*3 33.7 C 0 km/h
2369 19-07-2010 17:56:02 33.8 C 7.43 g/m*3 33.8 C 0 km/h
2370 19-07-2010 18:08:02 33.7 C 7.39 g/m*3 33.7 C 0 km/h
2371 19-07-2010 18:20:02 33.5 C 7.31 g/m*3 33.5 C 0 km/h
2372 19-07-2010 18:32:02 33.6 C 7.35 g/m*3 33.6 C 0 km/h
2373 19-07-2010 18:44:03 33.5 C 7.31 g/m*3 33.5 C 0 km/h
2374 19-07-2010 18:56:01 33.2 C 7.2 g/m*3 33.2 C 0 km/h
2375 19-07-2010 19:08:02 33.3 C 7.23 g/m*3 33.3 C 0 km/h
Sensor: Nr:Datum:Temp:Abs-Feuchte:Windchill:Wind:
Aussen-T/F 2376 19-07-2010 19:20:01 33 C 7.12 g/m*3 33 C 0 km/h
2377 19-07-2010 19:32:01 32.8 C 7.04 g/m*3 32.8 C 0 km/h
2378 19-07-2010 19:44:02 32.7 C 7.01 g/m*3 32.7 C 0 km/h
2379 19-07-2010 19:56:02 32.4 C 6.9 g/m*3 32.4 C 0 km/h
2380 19-07-2010 20:08:02 32 C 6.75 g/m*3 32 C 0 km/h
2381 19-07-2010 20:20:02 31.9 C 6.72 g/m*3 31.9 C 0 km/h
2382 19-07-2010 20:32:01 31.5 C 6.57 g/m*3 31.5 C 0 km/h
2383 19-07-2010 20:44:01 31.1 C 6.43 g/m*3 31.1 C 0 km/h
2384 19-07-2010 20:56:01 30.4 C 6.2 g/m*3 30.4 C 0 km/h
2385 19-07-2010 21:08:02 29.1 C 6.06 g/m*3 29.1 C 0 km/h
2386 19-07-2010 21:20:02 27.8 C 6.46 g/m*3 27.8 C 0 km/h
2387 19-07-2010 21:32:02 26.3 C 6.93 g/m*3 26.3 C 0 km/h
2388 19-07-2010 21:44:02 25.6 C 7.14 g/m*3 25.6 C 0 km/h
2389 19-07-2010 21:56:01 25.4 C 7.06 g/m*3 25.4 C 0 km/h
2390 19-07-2010 22:08:01 24.6 C 6.98 g/m*3 24.6 C 0 km/h
2391 19-07-2010 22:20:02 24.4 C 7.12 g/m*3 24.4 C 0 km/h
2392 19-07-2010 22:32:02 24 C 6.96 g/m*3 24 C 0 km/h
2393 19-07-2010 22:44:02 23.9 C 7.14 g/m*3 23.9 C 0 km/h
2394 19-07-2010 22:56:02 23.7 C 7.06 g/m*3 23.7 C 0 km/h
2395 19-07-2010 23:08:01 23.5 C 7.19 g/m*3 23.5 C 0 km/h
2396 19-07-2010 23:20:02 23.1 C 7.03 g/m*3 23.1 C 0 km/h
2397 19-07-2010 23:32:02 22.7 C 7.27 g/m*3 22.7 C 0 km/h
2398 19-07-2010 23:44:02 22.7 C 7.48 g/m*3 22.7 C 0 km/h
2399 19-07-2010 23:56:03 22.5 C 7.59 g/m*3 22.5 C 0 km/h
2400 20-07-2010 00:08:02 22.3 C 7.7 g/m*3 22.3 C 0 km/h
Sensor: Nr:Datum:Temp:Abs-Feuchte:Windchill:Wind:
Aussen-T/F 2401 20-07-2010 00:20:03 22 C 7.76 g/m*3 22 C 0 km/h
2402 20-07-2010 00:32:02 21.7 C 7.82 g/m*3 21.7 C 0 km/h
2403 20-07-2010 00:44:02 21.5 C 7.92 g/m*3 21.5 C 0 km/h
2404 20-07-2010 00:56:01 21.2 C 7.97 g/m*3 21.2 C 0 km/h
2405 20-07-2010 01:08:01 20.9 C 8.2 g/m*3 20.9 C 0 km/h
2406 20-07-2010 01:20:02 20.7 C 8.1 g/m*3 20.7 C 0 km/h
2407 20-07-2010 01:32:01 20.4 C 8.14 g/m*3 20.4 C 0 km/h
2408 20-07-2010 01:44:01 20.2 C 7.87 g/m*3 20.2 C 0 km/h
2409 20-07-2010 01:56:01 19.9 C 8.08 g/m*3 19.9 C 0 km/h
2410 20-07-2010 02:08:02 19.7 C 8.15 g/m*3 19.7 C 0 km/h
2411 20-07-2010 02:20:02 19.6 C 8.1 g/m*3 19.6 C 0 km/h
2412 20-07-2010 02:32:01 19.4 C 8.18 g/m*3 19.4 C 0 km/h
2413 20-07-2010 02:44:01 19.1 C 8.36 g/m*3 19.1 C 0 km/h
2414 20-07-2010 02:56:02 18.8 C 8.37 g/m*3 18.8 C 0 km/h
2415 20-07-2010 03:08:02 18.5 C 8.23 g/m*3 18.5 C 0 km/h
2416 20-07-2010 03:20:01 18.4 C 8.34 g/m*3 18.4 C 0 km/h
2417 20-07-2010 03:32:01 18.1 C 8.19 g/m*3 18.1 C 0 km/h
2418 20-07-2010 03:44:01 18.1 C 8.34 g/m*3 18.1 C 0 km/h
2419 20-07-2010 03:56:01 17.9 C 8.7 g/m*3 17.9 C 0 km/h
2420 20-07-2010 04:08:01 17.7 C 8.45 g/m*3 17.7 C 0 km/h
2421 20-07-2010 04:20:01 17.4 C 8.45 g/m*3 17.4 C 0 km/h
2422 20-07-2010 04:32:01 17.3 C 8.54 g/m*3 17.3 C 0 km/h
2423 20-07-2010 04:44:01 17 C 8.39 g/m*3 17 C 0 km/h
2424 20-07-2010 04:56:01 16.8 C 8.58 g/m*3 16.8 C 0 km/h
2425 20-07-2010 05:08:01 16.7 C 8.53 g/m*3 16.7 C 0 km/h
Sensor: Nr:Datum:Temp:Abs-Feuchte:Windchill:Wind:
Aussen-T/F 2426 20-07-2010 05:20:02 16.6 C 8.62 g/m*3 16.6 C 0 km/h
2427 20-07-2010 05:32:01 16.4 C 8.51 g/m*3 16.4 C 0 km/h
2428 20-07-2010 05:44:01 16.4 C 8.65 g/m*3 16.4 C 0 km/h
2429 20-07-2010 05:56:02 16.3 C 8.6 g/m*3 16.3 C 0 km/h
2430 20-07-2010 06:08:01 16.1 C 8.77 g/m*3 16.1 C 0 km/h
2431 20-07-2010 06:20:02 16 C 8.86 g/m*3 16 C 0 km/h
2432 20-07-2010 06:32:01 16.1 C 9.05 g/m*3 16.1 C 0 km/h
2433 20-07-2010 06:44:01 16.1 C 9.05 g/m*3 16.1 C 0 km/h
2434 20-07-2010 06:56:02 16.2 C 9.1 g/m*3 16.2 C 0 km/h
2435 20-07-2010 07:08:01 16.4 C 9.21 g/m*3 16.4 C 0 km/h
2436 20-07-2010 07:20:01 16.5 C 9.27 g/m*3 16.5 C 0 km/h
2437 20-07-2010 07:32:01 16.8 C 9.29 g/m*3 16.8 C 0 km/h
2438 20-07-2010 07:44:01 17.1 C 9.32 g/m*3 17.1 C 0 km/h
2439 20-07-2010 07:56:02 17.1 C 9.17 g/m*3 17.1 C 0 km/h
2440 20-07-2010 08:08:01 17.3 C 9.13 g/m*3 17.3 C 0 km/h
2441 20-07-2010 08:20:01 17.6 C 9.15 g/m*3 17.6 C 0 km/h
2442 20-07-2010 08:32:02 17.9 C 9.16 g/m*3 17.9 C 0 km/h
2443 20-07-2010 08:44:02 18.5 C 9.33 g/m*3 18.5 C 0 km/h
2444 20-07-2010 08:56:01 18.9 C 9.4 g/m*3 18.9 C 0 km/h
2445 20-07-2010 09:08:02 19.6 C 9.45 g/m*3 19.6 C 0 km/h
2446 20-07-2010 09:20:01 20.3 C 9.32 g/m*3 20.3 C 0 km/h
2447 20-07-2010 09:32:02 20.9 C 9.29 g/m*3 20.9 C 0 km/h
2448 20-07-2010 09:44:02 21.7 C 8.97 g/m*3 21.7 C 0 km/h
2449 20-07-2010 09:56:01 22.3 C 8.89 g/m*3 22.3 C 0 km/h
2450 20-07-2010 10:08:02 23.2 C 8.73 g/m*3 23.2 C 0 km/h
Sensor: Nr:Datum:Temp:Abs-Feuchte:Windchill:Wind:
Aussen-T/F 2451 20-07-2010 10:20:01 24.1 C 8.53 g/m*3 24.1 C 0 km/h
2452 20-07-2010 10:32:01 24.8 C 8.19 g/m*3 24.8 C 0 km/h
2453 20-07-2010 10:44:01 25.6 C 8.09 g/m*3 25.6 C 0 km/h
2454 20-07-2010 10:56:01 26.3 C 7.67 g/m*3 26.3 C 0 km/h
2455 20-07-2010 11:08:02 26.9 C 6.91 g/m*3 26.9 C 0 km/h
2456 20-07-2010 11:20:01 27.4 C 6.84 g/m*3 27.4 C 0 km/h
2457 20-07-2010 11:32:01 27.9 C 6.76 g/m*3 27.9 C 0 km/h
2458 20-07-2010 11:44:01 28.2 C 6.6 g/m*3 28.2 C 0 km/h
2459 20-07-2010 11:56:01 28.3 C 6.63 g/m*3 28.3 C 0 km/h
2460 20-07-2010 12:08:01 29 C 6.03 g/m*3 29 C 0 km/h
2461 20-07-2010 12:20:02 30 C 6.37 g/m*3 30 C 0 km/h
2462 20-07-2010 12:32:01 30.7 C 6.3 g/m*3 30.7 C 0 km/h
2463 20-07-2010 12:44:01 31 C 6.4 g/m*3 31 C 0 km/h
2464 20-07-2010 12:56:01 31.4 C 6.54 g/m*3 31.4 C 0 km/h
2465 20-07-2010 13:08:01 31.7 C 6.64 g/m*3 31.7 C 0 km/h
2466 20-07-2010 13:20:02 32.1 C 6.79 g/m*3 32.1 C 0 km/h
2467 20-07-2010 13:32:01 32.5 C 6.93 g/m*3 32.5 C 0 km/h
2468 20-07-2010 13:44:01 32.5 C 6.93 g/m*3 32.5 C 0 km/h
2469 20-07-2010 13:56:02 32.3 C 6.86 g/m*3 32.3 C 0 km/h
2470 20-07-2010 14:08:01 31.8 C 6.68 g/m*3 31.8 C 0 km/h
2471 20-07-2010 14:20:02 31.8 C 6.68 g/m*3 31.8 C 0 km/h
2472 20-07-2010 14:32:01 31.5 C 6.57 g/m*3 31.5 C 0 km/h
2473 20-07-2010 14:44:01 31.8 C 6.68 g/m*3 31.8 C 0 km/h
2474 20-07-2010 14:56:02 32 C 6.75 g/m*3 32 C 0 km/h
2475 20-07-2010 15:08:01 32 C 6.75 g/m*3 32 C 0 km/h
Sensor: Nr:Datum:Temp:Abs-Feuchte:Windchill:Wind:
Aussen-T/F 2476 20-07-2010 15:20:01 32.1 C 6.79 g/m*3 32.1 C 0 km/h
2477 20-07-2010 15:32:02 32.3 C 6.86 g/m*3 32.3 C 0 km/h
2478 20-07-2010 15:44:02 32.8 C 7.04 g/m*3 32.8 C 0 km/h
2479 20-07-2010 15:56:01 32.5 C 6.93 g/m*3 32.5 C 0 km/h
2480 20-07-2010 16:08:02 32.7 C 7.01 g/m*3 32.7 C 0 km/h
2481 20-07-2010 16:20:01 33.1 C 7.16 g/m*3 33.1 C 0 km/h
2482 20-07-2010 16:32:02 33 C 7.12 g/m*3 33 C 0 km/h
2483 20-07-2010 16:44:02 33 C 7.12 g/m*3 33 C 0 km/h
2484 20-07-2010 16:56:01 33.5 C 7.31 g/m*3 33.5 C 0 km/h
2485 20-07-2010 17:08:02 33.3 C 7.23 g/m*3 33.3 C 0 km/h
2486 20-07-2010 17:20:01 33.3 C 7.23 g/m*3 33.3 C 0 km/h
2487 20-07-2010 17:32:01 33.2 C 7.2 g/m*3 33.2 C 0 km/h
2488 20-07-2010 17:44:02 33.4 C 7.27 g/m*3 33.4 C 0 km/h
2489 20-07-2010 17:56:01 33.1 C 7.16 g/m*3 33.1 C 0 km/h
2490 20-07-2010 18:08:02 33.3 C 7.23 g/m*3 33.3 C 0 km/h
2491 20-07-2010 18:20:02 33.3 C 7.23 g/m*3 33.3 C 0 km/h
2492 20-07-2010 18:32:01 32.7 C 7.01 g/m*3 32.7 C 0 km/h
2493 20-07-2010 18:44:01 32.7 C 7.01 g/m*3 32.7 C 0 km/h
2494 20-07-2010 18:56:01 32.6 C 6.97 g/m*3 32.6 C 0 km/h
2495 20-07-2010 19:08:02 32.3 C 6.86 g/m*3 32.3 C 0 km/h
2496 20-07-2010 19:20:01 31.7 C 6.64 g/m*3 31.7 C 0 km/h
2497 20-07-2010 19:32:02 31.9 C 6.72 g/m*3 31.9 C 0 km/h
2498 20-07-2010 19:44:02 32.1 C 6.79 g/m*3 32.1 C 0 km/h
2499 20-07-2010 19:56:01 32.1 C 6.79 g/m*3 32.1 C 0 km/h
2500 20-07-2010 20:08:02 32 C 6.75 g/m*3 32 C 0 km/h
Sensor: Nr:Datum:Temp:Abs-Feuchte:Windchill:Wind:
Aussen-T/F 2501 20-07-2010 20:20:01 31.5 C 6.57 g/m*3 31.5 C 0 km/h
2502 20-07-2010 20:32:01 30.8 C 6.33 g/m*3 30.8 C 0 km/h
2503 20-07-2010 20:44:01 30 C 6.06 g/m*3 30 C 0 km/h
2504 20-07-2010 20:56:01 29.3 C 6.13 g/m*3 29.3 C 0 km/h
2505 20-07-2010 21:08:02 28.1 C 6.56 g/m*3 28.1 C 0 km/h
2506 20-07-2010 21:20:01 26.9 C 6.65 g/m*3 26.9 C 0 km/h
2507 20-07-2010 21:32:01 26.4 C 6.47 g/m*3 26.4 C 0 km/h
2508 20-07-2010 21:44:02 25.7 C 6.22 g/m*3 25.7 C 0 km/h
2509 20-07-2010 21:56:01 25.3 C 6.09 g/m*3 25.3 C 0 km/h
2510 20-07-2010 22:09:02 24.5 C 6.27 g/m*3 24.5 C 0 km/h
2511 20-07-2010 22:21:02 24.5 C 6.71 g/m*3 24.5 C 0 km/h
2512 20-07-2010 22:33:02 24.5 C 6.71 g/m*3 24.5 C 0 km/h
2513 20-07-2010 22:45:02 24.4 C 6.68 g/m*3 24.4 C 0 km/h
2514 20-07-2010 22:57:02 24.1 C 6.56 g/m*3 24.1 C 0 km/h
2515 20-07-2010 23:09:02 23.8 C 6.67 g/m*3 23.8 C 0 km/h
2516 20-07-2010 23:21:02 23.7 C 6.84 g/m*3 23.7 C 0 km/h
2517 20-07-2010 23:33:02 23.5 C 6.98 g/m*3 23.5 C 0 km/h
2518 20-07-2010 23:45:02 23.4 C 6.94 g/m*3 23.4 C 0 km/h
2519 20-07-2010 23:57:02 23 C 7.19 g/m*3 23 C 0 km/h
2520 21-07-2010 00:09:02 22.5 C 7.39 g/m*3 22.5 C 0 km/h
2521 21-07-2010 00:21:02 22.3 C 7.5 g/m*3 22.3 C 0 km/h
2522 21-07-2010 00:33:02 21.9 C 7.72 g/m*3 21.9 C 0 km/h
2523 21-07-2010 00:45:02 21.7 C 7.63 g/m*3 21.7 C 0 km/h
2524 21-07-2010 00:57:02 21.5 C 7.73 g/m*3 21.5 C 0 km/h
2525 21-07-2010 01:09:03 21.3 C 7.83 g/m*3 21.3 C 0 km/h
Sensor: Nr:Datum:Temp:Abs-Feuchte:Windchill:Wind:
Aussen-T/F 2526 21-07-2010 01:21:03 21.1 C 7.92 g/m*3 21.1 C 0 km/h
2527 21-07-2010 01:33:03 20.9 C 8.01 g/m*3 20.9 C 0 km/h
2528 21-07-2010 01:45:03 20.6 C 8.05 g/m*3 20.6 C 0 km/h
2529 21-07-2010 01:57:03 20.4 C 8.31 g/m*3 20.4 C 0 km/h
2530 21-07-2010 02:09:03 20 C 8.12 g/m*3 20 C 0 km/h
2531 21-07-2010 02:21:03 20 C 8.3 g/m*3 20 C 0 km/h
2532 21-07-2010 02:33:03 19.7 C 8.49 g/m*3 19.7 C 0 km/h
2533 21-07-2010 02:45:03 19.4 C 8.34 g/m*3 19.4 C 0 km/h
2534 21-07-2010 02:57:03 19.3 C 8.29 g/m*3 19.3 C 0 km/h
2535 21-07-2010 03:09:03 19.2 C 8.41 g/m*3 19.2 C 0 km/h
2536 21-07-2010 03:21:03 19 C 8.31 g/m*3 19 C 0 km/h
2537 21-07-2010 03:33:03 18.7 C 8.33 g/m*3 18.7 C 0 km/h
2538 21-07-2010 03:45:03 18.6 C 8.44 g/m*3 18.6 C 0 km/h
2539 21-07-2010 03:57:03 18.4 C 8.49 g/m*3 18.4 C 0 km/h
2540 21-07-2010 04:09:03 18.4 C 8.49 g/m*3 18.4 C 0 km/h
2541 21-07-2010 04:21:03 18.3 C 8.44 g/m*3 18.3 C 0 km/h
2542 21-07-2010 04:33:03 18.1 C 8.65 g/m*3 18.1 C 0 km/h
2543 21-07-2010 04:45:03 17.9 C 8.7 g/m*3 17.9 C 0 km/h
2544 21-07-2010 04:57:03 17.7 C 8.6 g/m*3 17.7 C 0 km/h
2545 21-07-2010 05:09:03 17.6 C 8.55 g/m*3 17.6 C 0 km/h
2546 21-07-2010 05:21:04 17.4 C 8.6 g/m*3 17.4 C 0 km/h
2547 21-07-2010 05:33:04 17.4 C 8.74 g/m*3 17.4 C 0 km/h
2548 21-07-2010 05:45:04 17.2 C 8.93 g/m*3 17.2 C 0 km/h
2549 21-07-2010 05:57:04 17.3 C 8.99 g/m*3 17.3 C 0 km/h
2550 21-07-2010 06:09:04 17.1 C 8.88 g/m*3 17.1 C 0 km/h
Sensor: Nr:Datum:Temp:Abs-Feuchte:Windchill:Wind:
Aussen-T/F 2551 21-07-2010 06:21:04 17 C 8.68 g/m*3 17 C 0 km/h
2552 21-07-2010 06:33:04 17.1 C 8.88 g/m*3 17.1 C 0 km/h
2553 21-07-2010 06:45:04 17.2 C 8.93 g/m*3 17.2 C 0 km/h
2554 21-07-2010 06:57:04 17.4 C 9.19 g/m*3 17.4 C 0 km/h
2555 21-07-2010 07:09:02 17.4 C 9.19 g/m*3 17.4 C 0 km/h
2556 21-07-2010 07:21:01 17.6 C 9.45 g/m*3 17.6 C 0 km/h
2557 21-07-2010 07:33:02 17.7 C 9.35 g/m*3 17.7 C 0 km/h
2558 21-07-2010 07:45:02 18 C 9.22 g/m*3 18 C 0 km/h
2559 21-07-2010 07:57:02 18.3 C 9.38 g/m*3 18.3 C 0 km/h
2560 21-07-2010 08:09:02 18.5 C 9.18 g/m*3 18.5 C 0 km/h
2561 21-07-2010 08:21:01 18.8 C 9.18 g/m*3 18.8 C 0 km/h
2562 21-07-2010 08:33:02 19.2 C 9.07 g/m*3 19.2 C 0 km/h
2563 21-07-2010 08:45:01 19.4 C 9.01 g/m*3 19.4 C 0 km/h
2564 21-07-2010 08:57:01 20.1 C 8.87 g/m*3 20.1 C 0 km/h
2565 21-07-2010 09:09:02 20.6 C 9.31 g/m*3 20.6 C 0 km/h
2566 21-07-2010 09:21:02 21.4 C 9.37 g/m*3 21.4 C 0 km/h
2567 21-07-2010 09:33:02 22.4 C 9.53 g/m*3 22.4 C 0 km/h
2568 21-07-2010 09:45:01 23.3 C 9.41 g/m*3 23.3 C 0 km/h
2569 21-07-2010 09:57:01 23.9 C 9.3 g/m*3 23.9 C 0 km/h
2570 21-07-2010 10:09:02 24.7 C 9.28 g/m*3 24.7 C 0 km/h
2571 21-07-2010 10:21:02 25.7 C 9.1 g/m*3 25.7 C 0 km/h
2572 21-07-2010 10:33:01 26.6 C 8.56 g/m*3 26.6 C 0 km/h
2573 21-07-2010 10:45:02 27.3 C 8.11 g/m*3 27.3 C 0 km/h
2574 21-07-2010 10:57:02 28.4 C 7.78 g/m*3 28.4 C 0 km/h
2575 21-07-2010 11:09:01 28.9 C 7.43 g/m*3 28.9 C 0 km/h
Sensor: Nr:Datum:Temp:Abs-Feuchte:Windchill:Wind:
Aussen-T/F 2576 21-07-2010 11:21:02 29.3 C 7.3 g/m*3 29.3 C 0 km/h
2577 21-07-2010 11:33:01 29.7 C 7.46 g/m*3 29.7 C 0 km/h
2578 21-07-2010 11:45:02 30 C 7.58 g/m*3 30 C 0 km/h
2579 21-07-2010 11:57:02 30.4 C 7.13 g/m*3 30.4 C 0 km/h
2580 21-07-2010 12:09:02 30.7 C 6.61 g/m*3 30.7 C 0 km/h
2581 21-07-2010 12:21:02 31.2 C 6.47 g/m*3 31.2 C 0 km/h
2582 21-07-2010 12:33:02 31.6 C 6.61 g/m*3 31.6 C 0 km/h
2583 21-07-2010 12:45:02 31.6 C 6.61 g/m*3 31.6 C 0 km/h
2584 21-07-2010 12:57:02 31.7 C 6.64 g/m*3 31.7 C 0 km/h
2585 21-07-2010 13:09:01 32.1 C 6.79 g/m*3 32.1 C 0 km/h
2586 21-07-2010 13:21:02 32.5 C 6.93 g/m*3 32.5 C 0 km/h
2587 21-07-2010 13:33:02 32.6 C 6.97 g/m*3 32.6 C 0 km/h
2588 21-07-2010 13:45:02 32.6 C 6.97 g/m*3 32.6 C 0 km/h
2589 21-07-2010 13:57:02 32.8 C 7.04 g/m*3 32.8 C 0 km/h
2590 21-07-2010 14:09:02 32.6 C 6.97 g/m*3 32.6 C 0 km/h
2591 21-07-2010 14:21:02 32.4 C 6.9 g/m*3 32.4 C 0 km/h
2592 21-07-2010 14:33:02 32.5 C 6.93 g/m*3 32.5 C 0 km/h
2593 21-07-2010 14:45:01 32.6 C 6.97 g/m*3 32.6 C 0 km/h
2594 21-07-2010 14:57:01 32.8 C 7.04 g/m*3 32.8 C 0 km/h
2595 21-07-2010 15:09:02 32.6 C 6.97 g/m*3 32.6 C 0 km/h
2596 21-07-2010 15:21:01 32.6 C 6.97 g/m*3 32.6 C 0 km/h
2597 21-07-2010 15:33:01 32.4 C 6.9 g/m*3 32.4 C 0 km/h
2598 21-07-2010 15:45:01 32.8 C 7.04 g/m*3 32.8 C 0 km/h
2599 21-07-2010 15:57:01 32.4 C 6.9 g/m*3 32.4 C 0 km/h
2600 21-07-2010 16:09:02 32.3 C 6.86 g/m*3 32.3 C 0 km/h
Sensor: Nr:Datum:Temp:Abs-Feuchte:Windchill:Wind:
Aussen-T/F 2601 21-07-2010 16:21:01 32.3 C 6.86 g/m*3 32.3 C 0 km/h
2602 21-07-2010 16:33:02 32.3 C 6.86 g/m*3 32.3 C 0 km/h
2603 21-07-2010 16:45:02 32.8 C 7.04 g/m*3 32.8 C 0 km/h
2604 21-07-2010 16:57:02 32.5 C 6.93 g/m*3 32.5 C 0 km/h
2605 21-07-2010 17:09:02 32.1 C 6.79 g/m*3 32.1 C 0 km/h
2606 21-07-2010 17:21:02 31.9 C 6.72 g/m*3 31.9 C 0 km/h
2607 21-07-2010 17:33:02 31.7 C 6.64 g/m*3 31.7 C 0 km/h
2608 21-07-2010 17:45:02 31.1 C 6.76 g/m*3 31.1 C 0 km/h
2609 21-07-2010 17:57:02 30.7 C 6.93 g/m*3 30.7 C 0 km/h
2610 21-07-2010 18:09:02 30.4 C 7.13 g/m*3 30.4 C 0 km/h
2611 21-07-2010 18:21:02 30.3 C 7.4 g/m*3 30.3 C 0 km/h
2612 21-07-2010 18:33:02 30.3 C 7.4 g/m*3 30.3 C 0 km/h
2613 21-07-2010 18:45:02 30 C 7.28 g/m*3 30 C 0 km/h
2614 21-07-2010 18:57:02 29.6 C 7.42 g/m*3 29.6 C 0 km/h
2615 21-07-2010 19:09:02 29.5 C 7.67 g/m*3 29.5 C 0 km/h
2616 21-07-2010 19:21:02 29.4 C 7.63 g/m*3 29.4 C 0 km/h
2617 21-07-2010 19:33:02 28.9 C 7.71 g/m*3 28.9 C 0 km/h
2618 21-07-2010 19:45:01 28.5 C 7.83 g/m*3 28.5 C 0 km/h
2619 21-07-2010 19:57:01 27.3 C 9.16 g/m*3 27.3 C 0 km/h
2620 21-07-2010 20:09:02 23.7 C 11.55 g/m*3 23.7 C 0 km/h
2621 21-07-2010 20:21:01 23.4 C 12.41 g/m*3 23.4 C 0 km/h
2622 21-07-2010 20:33:01 23.7 C 12.62 g/m*3 23.7 C 0 km/h
2623 21-07-2010 20:45:01 23.9 C 12.33 g/m*3 23.9 C 0 km/h
2624 21-07-2010 20:57:01 23.2 C 11.85 g/m*3 23.2 C 0 km/h
2625 21-07-2010 21:09:01 23.3 C 11.71 g/m*3 23.3 C 0 km/h
Sensor: Nr:Datum:Temp:Abs-Feuchte:Windchill:Wind:
Aussen-T/F 2626 21-07-2010 21:21:02 23.1 C 11.78 g/m*3 23.1 C 0 km/h
2627 21-07-2010 21:33:01 22.6 C 12.05 g/m*3 22.6 C 0 km/h
2628 21-07-2010 21:45:01 23 C 11.92 g/m*3 23 C 0 km/h
2629 21-07-2010 21:57:01 23.1 C 11.78 g/m*3 23.1 C 0 km/h
2630 21-07-2010 22:10:03 23.3 C 11.92 g/m*3 23.3 C 0 km/h
2631 21-07-2010 22:22:03 23 C 11.51 g/m*3 23 C 0 km/h
2632 21-07-2010 22:34:03 22.9 C 11.85 g/m*3 22.9 C 0 km/h
2633 21-07-2010 22:46:03 22.9 C 11.85 g/m*3 22.9 C 0 km/h
2634 21-07-2010 22:58:03 22.9 C 11.65 g/m*3 22.9 C 0 km/h
2635 21-07-2010 23:10:03 23 C 11.51 g/m*3 23 C 0 km/h
2636 21-07-2010 23:22:03 23 C 11.3 g/m*3 23 C 0 km/h
2637 21-07-2010 23:34:03 22.9 C 11.44 g/m*3 22.9 C 0 km/h
2638 21-07-2010 23:46:03 22.7 C 11.52 g/m*3 22.7 C 0 km/h
2639 21-07-2010 23:58:03 22.8 C 11.58 g/m*3 22.8 C 0 km/h
2640 22-07-2010 00:10:03 22.7 C 11.52 g/m*3 22.7 C 0 km/h
2641 22-07-2010 00:22:03 22.6 C 11.65 g/m*3 22.6 C 0 km/h
2642 22-07-2010 00:34:03 22.5 C 11.58 g/m*3 22.5 C 0 km/h
2643 22-07-2010 00:46:04 22.5 C 11.58 g/m*3 22.5 C 0 km/h
2644 22-07-2010 00:58:04 22.5 C 11.58 g/m*3 22.5 C 0 km/h
2645 22-07-2010 01:10:04 22.4 C 11.72 g/m*3 22.4 C 0 km/h
2646 22-07-2010 01:22:04 22.4 C 11.72 g/m*3 22.4 C 0 km/h
2647 22-07-2010 01:34:04 22.3 C 11.65 g/m*3 22.3 C 0 km/h
2648 22-07-2010 01:46:04 22 C 11.45 g/m*3 22 C 0 km/h
2649 22-07-2010 01:58:04 21.7 C 11.64 g/m*3 21.7 C 0 km/h
2650 22-07-2010 02:10:04 21.5 C 11.69 g/m*3 21.5 C 0 km/h
Sensor: Nr:Datum:Temp:Abs-Feuchte:Windchill:Wind:
Aussen-T/F 2651 22-07-2010 02:22:04 21.3 C 11.56 g/m*3 21.3 C 0 km/h
2652 22-07-2010 02:34:04 21.2 C 11.49 g/m*3 21.2 C 0 km/h
2653 22-07-2010 02:46:04 21.2 C 11.49 g/m*3 21.2 C 0 km/h
2654 22-07-2010 02:58:04 21.2 C 11.3 g/m*3 21.2 C 0 km/h
2655 22-07-2010 03:10:04 21.1 C 11.42 g/m*3 21.1 C 0 km/h
2656 22-07-2010 03:22:04 21.1 C 11.42 g/m*3 21.1 C 0 km/h
2657 22-07-2010 03:34:04 20.9 C 11.29 g/m*3 20.9 C 0 km/h
2658 22-07-2010 03:46:04 20.8 C 11.05 g/m*3 20.8 C 0 km/h
2659 22-07-2010 03:58:04 20.7 C 10.62 g/m*3 20.7 C 0 km/h
2660 22-07-2010 04:10:04 20.7 C 10.62 g/m*3 20.7 C 0 km/h
2661 22-07-2010 04:22:04 20.8 C 10.5 g/m*3 20.8 C 0 km/h
2662 22-07-2010 04:34:04 20.5 C 10.5 g/m*3 20.5 C 0 km/h
2663 22-07-2010 04:46:04 20.3 C 10.2 g/m*3 20.3 C 0 km/h
2664 22-07-2010 04:58:05 20.2 C 9.97 g/m*3 20.2 C 0 km/h
2665 22-07-2010 05:10:05 20.1 C 9.73 g/m*3 20.1 C 0 km/h
2666 22-07-2010 05:22:05 20.1 C 9.73 g/m*3 20.1 C 0 km/h
2667 22-07-2010 05:34:05 20 C 9.68 g/m*3 20 C 0 km/h
2668 22-07-2010 05:46:05 19.9 C 9.79 g/m*3 19.9 C 0 km/h
2669 22-07-2010 05:58:05 19.4 C 10.18 g/m*3 19.4 C 0 km/h
2670 22-07-2010 06:10:05 19.4 C 10.01 g/m*3 19.4 C 0 km/h
2671 22-07-2010 06:22:05 19.1 C 10.33 g/m*3 19.1 C 0 km/h
2672 22-07-2010 06:34:05 18.6 C 11.14 g/m*3 18.6 C 0 km/h
2673 22-07-2010 06:46:01 18.5 C 11.39 g/m*3 18.5 C 0 km/h
2674 22-07-2010 06:58:01 19 C 11.73 g/m*3 19 C 0 km/h
2675 22-07-2010 07:10:02 19 C 11.57 g/m*3 19 C 0 km/h
Sensor: Nr:Datum:Temp:Abs-Feuchte:Windchill:Wind:
Aussen-T/F 2676 22-07-2010 07:22:01 18.8 C 11.76 g/m*3 18.8 C 0 km/h
2677 22-07-2010 07:34:01 18.9 C 11.66 g/m*3 18.9 C 0 km/h
2678 22-07-2010 07:46:01 19.5 C 11.58 g/m*3 19.5 C 0 km/h
2679 22-07-2010 07:58:01 20 C 11.06 g/m*3 20 C 0 km/h
2680 22-07-2010 08:10:02 20.3 C 11.08 g/m*3 20.3 C 0 km/h
2681 22-07-2010 08:22:02 20.7 C 11.16 g/m*3 20.7 C 0 km/h
2682 22-07-2010 08:34:01 21 C 10.81 g/m*3 21 C 0 km/h
2683 22-07-2010 08:46:02 21.4 C 10.87 g/m*3 21.4 C 0 km/h
2684 22-07-2010 08:58:02 21.8 C 10.74 g/m*3 21.8 C 0 km/h
2685 22-07-2010 09:10:01 21.6 C 10.62 g/m*3 21.6 C 0 km/h
2686 22-07-2010 09:22:02 21.5 C 10.56 g/m*3 21.5 C 0 km/h
2687 22-07-2010 09:34:01 22.2 C 10.21 g/m*3 22.2 C 0 km/h
2688 22-07-2010 09:46:02 22.4 C 10.13 g/m*3 22.4 C 0 km/h
2689 22-07-2010 09:58:02 22.6 C 10.04 g/m*3 22.6 C 0 km/h
2690 22-07-2010 10:10:02 22.3 C 10.07 g/m*3 22.3 C 0 km/h
2691 22-07-2010 10:22:02 22.2 C 10.21 g/m*3 22.2 C 0 km/h
2692 22-07-2010 10:34:02 22.1 C 10.15 g/m*3 22.1 C 0 km/h
2693 22-07-2010 10:46:02 20.9 C 11.11 g/m*3 20.9 C 0 km/h
2694 22-07-2010 10:58:03 20.4 C 11.68 g/m*3 20.4 C 0 km/h
2695 22-07-2010 11:10:01 20.4 C 11.85 g/m*3 20.4 C 0 km/h
2696 22-07-2010 11:22:02 21.4 C 12.19 g/m*3 21.4 C 0 km/h
2697 22-07-2010 11:34:02 22 C 11.84 g/m*3 22 C 0 km/h
2698 22-07-2010 11:46:02 22.4 C 11.72 g/m*3 22.4 C 0 km/h
2699 22-07-2010 11:58:02 22.7 C 11.52 g/m*3 22.7 C 0 km/h
2700 22-07-2010 12:10:02 22.9 C 11.24 g/m*3 22.9 C 0 km/h
Sensor: Nr:Datum:Temp:Abs-Feuchte:Windchill:Wind:
Aussen-T/F 2701 22-07-2010 12:22:02 22.4 C 11.32 g/m*3 22.4 C 0 km/h
2702 22-07-2010 12:34:02 22.5 C 11.58 g/m*3 22.5 C 0 km/h
2703 22-07-2010 12:46:01 22.4 C 11.32 g/m*3 22.4 C 0 km/h
2704 22-07-2010 12:58:01 21.7 C 11.83 g/m*3 21.7 C 0 km/h
2705 22-07-2010 13:10:02 21.5 C 12.63 g/m*3 21.5 C 0 km/h
2706 22-07-2010 13:22:01 21 C 12.09 g/m*3 21 C 0 km/h
2707 22-07-2010 13:34:01 20.1 C 12.69 g/m*3 20.1 C 0 km/h
2708 22-07-2010 13:46:01 20.4 C 13.44 g/m*3 20.4 C 0 km/h
2709 22-07-2010 13:58:01 21.5 C 13.01 g/m*3 21.5 C 0 km/h
2710 22-07-2010 14:10:02 21.4 C 12.56 g/m*3 21.4 C 0 km/h
2711 22-07-2010 14:22:01 21.3 C 12.68 g/m*3 21.3 C 0 km/h
2712 22-07-2010 14:34:01 21.8 C 12.28 g/m*3 21.8 C 0 km/h
2713 22-07-2010 14:46:01 20.9 C 12.38 g/m*3 20.9 C 0 km/h
2714 22-07-2010 14:58:01 20.9 C 12.75 g/m*3 20.9 C 0 km/h
2715 22-07-2010 15:10:02 20.8 C 12.86 g/m*3 20.8 C 0 km/h
2716 22-07-2010 15:22:01 20.4 C 12.91 g/m*3 20.4 C 0 km/h
2717 22-07-2010 15:34:01 21.2 C 13.34 g/m*3 21.2 C 0 km/h
2718 22-07-2010 15:46:01 22 C 13 g/m*3 22 C 0 km/h
2719 22-07-2010 15:58:01 22.5 C 12.38 g/m*3 22.5 C 0 km/h
2720 22-07-2010 16:10:01 23.3 C 11.71 g/m*3 23.3 C 0 km/h
2721 22-07-2010 16:22:02 23.4 C 11.57 g/m*3 23.4 C 0 km/h
2722 22-07-2010 16:34:01 23.2 C 11.43 g/m*3 23.2 C 0 km/h
2723 22-07-2010 16:46:03 23.3 C 11.29 g/m*3 23.3 C 0 km/h
2724 22-07-2010 16:58:03 22.8 C 11.79 g/m*3 22.8 C 0 km/h
2725 22-07-2010 17:10:02 21.7 C 12.97 g/m*3 21.7 C 0 km/h
Sensor: Nr:Datum:Temp:Abs-Feuchte:Windchill:Wind:
Aussen-T/F 2726 22-07-2010 17:22:02 21.9 C 13.7 g/m*3 21.9 C 0 km/h
2727 22-07-2010 17:34:02 21.8 C 13.43 g/m*3 21.8 C 0 km/h
2728 22-07-2010 17:46:02 22.1 C 13.27 g/m*3 22.1 C 0 km/h
2729 22-07-2010 17:58:03 22.7 C 13.13 g/m*3 22.7 C 0 km/h
2730 22-07-2010 18:10:02 22.5 C 12.78 g/m*3 22.5 C 0 km/h
2731 22-07-2010 18:22:02 23.1 C 12.2 g/m*3 23.1 C 0 km/h
2732 22-07-2010 18:34:01 23.1 C 11.78 g/m*3 23.1 C 0 km/h
2733 22-07-2010 18:46:02 23 C 11.92 g/m*3 23 C 0 km/h
2734 22-07-2010 18:58:02 23.3 C 11.71 g/m*3 23.3 C 0 km/h
2735 22-07-2010 19:10:02 23.1 C 11.58 g/m*3 23.1 C 0 km/h
2736 22-07-2010 19:22:01 22.8 C 11.99 g/m*3 22.8 C 0 km/h
2737 22-07-2010 19:34:01 22.7 C 11.92 g/m*3 22.7 C 0 km/h
2738 22-07-2010 19:46:02 22.5 C 11.98 g/m*3 22.5 C 0 km/h
2739 22-07-2010 19:58:02 22.3 C 12.05 g/m*3 22.3 C 0 km/h
2740 22-07-2010 20:10:01 22.1 C 11.91 g/m*3 22.1 C 0 km/h
2741 22-07-2010 20:22:01 22 C 12.03 g/m*3 22 C 0 km/h
2742 22-07-2010 20:34:00 21.9 C 12.16 g/m*3 21.9 C 0 km/h
2743 22-07-2010 20:46:02 21.7 C 12.02 g/m*3 21.7 C 0 km/h
2744 22-07-2010 20:58:02 21.6 C 11.95 g/m*3 21.6 C 0 km/h
2745 22-07-2010 21:10:02 21.4 C 12 g/m*3 21.4 C 0 km/h
2746 22-07-2010 21:22:02 21.2 C 11.86 g/m*3 21.2 C 0 km/h
2747 22-07-2010 21:34:03 21 C 11.91 g/m*3 21 C 0 km/h
2748 22-07-2010 21:46:02 20.9 C 11.84 g/m*3 20.9 C 0 km/h
2749 22-07-2010 21:58:02 20.8 C 11.95 g/m*3 20.8 C 0 km/h
2750 22-07-2010 22:10:02 20.7 C 11.88 g/m*3 20.7 C 0 km/h
Sensor: Nr:Datum:Temp:Abs-Feuchte:Windchill:Wind:
Aussen-T/F 2751 22-07-2010 22:22:02 20.6 C 11.81 g/m*3 20.6 C 0 km/h
2752 22-07-2010 22:34:02 20.4 C 11.68 g/m*3 20.4 C 0 km/h
2753 22-07-2010 22:46:02 20.4 C 11.85 g/m*3 20.4 C 0 km/h
2754 22-07-2010 22:58:02 20.3 C 11.78 g/m*3 20.3 C 0 km/h
2755 22-07-2010 23:10:02 20.2 C 11.71 g/m*3 20.2 C 0 km/h
2756 22-07-2010 23:22:03 20.3 C 11.78 g/m*3 20.3 C 0 km/h
2757 22-07-2010 23:34:03 20.2 C 11.89 g/m*3 20.2 C 0 km/h
2758 22-07-2010 23:46:02 20.1 C 11.82 g/m*3 20.1 C 0 km/h
2759 22-07-2010 23:58:02 20.2 C 11.89 g/m*3 20.2 C 0 km/h
2760 23-07-2010 00:10:02 20.2 C 11.89 g/m*3 20.2 C 0 km/h
2761 23-07-2010 00:22:02 20.1 C 11.99 g/m*3 20.1 C 0 km/h
2762 23-07-2010 00:34:02 20 C 12.1 g/m*3 20 C 0 km/h
2763 23-07-2010 00:46:02 20.1 C 12.17 g/m*3 20.1 C 0 km/h
2764 23-07-2010 00:58:02 20.1 C 12.17 g/m*3 20.1 C 0 km/h
2765 23-07-2010 01:10:03 20 C 12.1 g/m*3 20 C 0 km/h
2766 23-07-2010 01:22:02 20 C 12.27 g/m*3 20 C 0 km/h
2767 23-07-2010 01:34:02 20 C 12.27 g/m*3 20 C 0 km/h
2768 23-07-2010 01:46:01 20 C 12.44 g/m*3 20 C 0 km/h
2769 23-07-2010 01:58:01 20 C 12.44 g/m*3 20 C 0 km/h
2770 23-07-2010 02:10:02 19.8 C 12.3 g/m*3 19.8 C 0 km/h
2771 23-07-2010 02:22:01 19.7 C 12.4 g/m*3 19.7 C 0 km/h
2772 23-07-2010 02:34:01 19.4 C 12.68 g/m*3 19.4 C 0 km/h
2773 23-07-2010 02:47:03 19 C 12.39 g/m*3 19 C 0 km/h
2774 23-07-2010 02:59:03 18.2 C 11.35 g/m*3 18.2 C 0 km/h
2775 23-07-2010 03:11:03 16.9 C 11.51 g/m*3 16.9 C 0 km/h
Sensor: Nr:Datum:Temp:Abs-Feuchte:Windchill:Wind:
Aussen-T/F 2776 23-07-2010 03:23:03 16.4 C 11.58 g/m*3 16.4 C 0 km/h
2777 23-07-2010 03:35:01 16.2 C 11.72 g/m*3 16.2 C 0 km/h
2778 23-07-2010 03:47:01 16.2 C 11.72 g/m*3 16.2 C 0 km/h
2779 23-07-2010 03:59:01 16 C 11.58 g/m*3 16 C 0 km/h
2780 23-07-2010 04:11:02 15.9 C 11.65 g/m*3 15.9 C 0 km/h
2781 23-07-2010 04:23:02 16 C 11.72 g/m*3 16 C 0 km/h
2782 23-07-2010 04:35:01 16.1 C 11.79 g/m*3 16.1 C 0 km/h
2783 23-07-2010 04:47:02 16.1 C 11.65 g/m*3 16.1 C 0 km/h
2784 23-07-2010 04:59:02 16.1 C 11.65 g/m*3 16.1 C 0 km/h
2785 23-07-2010 05:11:01 16 C 11.58 g/m*3 16 C 0 km/h
2786 23-07-2010 05:23:01 15.9 C 11.51 g/m*3 15.9 C 0 km/h
2787 23-07-2010 05:35:01 15.9 C 11.51 g/m*3 15.9 C 0 km/h
2788 23-07-2010 05:47:02 15.9 C 11.51 g/m*3 15.9 C 0 km/h
2789 23-07-2010 05:59:02 15.8 C 11.44 g/m*3 15.8 C 0 km/h
2790 23-07-2010 06:11:01 15.6 C 11.3 g/m*3 15.6 C 0 km/h
2791 23-07-2010 06:23:01 15.6 C 11.3 g/m*3 15.6 C 0 km/h
2792 23-07-2010 06:35:02 15.7 C 11.51 g/m*3 15.7 C 0 km/h
2793 23-07-2010 06:47:02 16 C 11.58 g/m*3 16 C 0 km/h
2794 23-07-2010 06:59:02 16.4 C 12 g/m*3 16.4 C 0 km/h
2795 23-07-2010 07:11:02 16.7 C 12.08 g/m*3 16.7 C 0 km/h
2796 23-07-2010 07:23:01 17 C 12.15 g/m*3 17 C 0 km/h
2797 23-07-2010 07:35:00 17.4 C 12.45 g/m*3 17.4 C 0 km/h
2798 23-07-2010 07:47:01 17.5 C 12.37 g/m*3 17.5 C 0 km/h
2799 23-07-2010 07:59:01 17.7 C 12.22 g/m*3 17.7 C 0 km/h
2800 23-07-2010 08:11:01 17.8 C 12.14 g/m*3 17.8 C 0 km/h
Sensor: Nr:Datum:Temp:Abs-Feuchte:Windchill:Wind:
Aussen-T/F 2801 23-07-2010 08:23:01 18 C 12.13 g/m*3 18 C 0 km/h
2802 23-07-2010 08:35:00 18 C 11.98 g/m*3 18 C 0 km/h
2803 23-07-2010 08:47:03 18.1 C 12.05 g/m*3 18.1 C 0 km/h
2804 23-07-2010 08:59:03 18.2 C 12.12 g/m*3 18.2 C 0 km/h
2805 23-07-2010 09:11:02 18.4 C 12.27 g/m*3 18.4 C 0 km/h
2806 23-07-2010 09:23:03 18.6 C 12.26 g/m*3 18.6 C 0 km/h
2807 23-07-2010 09:35:02 18.9 C 12.15 g/m*3 18.9 C 0 km/h
2808 23-07-2010 09:47:02 19.5 C 11.41 g/m*3 19.5 C 0 km/h
2809 23-07-2010 09:59:02 20 C 10.89 g/m*3 20 C 0 km/h
2810 23-07-2010 10:11:02 20.4 C 10.44 g/m*3 20.4 C 0 km/h
2811 23-07-2010 10:23:02 20.9 C 10.56 g/m*3 20.9 C 0 km/h
2812 23-07-2010 10:35:03 21.5 C 10.75 g/m*3 21.5 C 0 km/h
2813 23-07-2010 10:47:02 22 C 10.29 g/m*3 22 C 0 km/h
2814 23-07-2010 10:59:02 22.2 C 10.21 g/m*3 22.2 C 0 km/h
2815 23-07-2010 11:11:03 23.2 C 10.19 g/m*3 23.2 C 0 km/h
2816 23-07-2010 11:23:02 23.7 C 10.05 g/m*3 23.7 C 0 km/h
2817 23-07-2010 11:35:02 24.4 C 9.57 g/m*3 24.4 C 0 km/h
2818 23-07-2010 11:47:01 24.6 C 9.45 g/m*3 24.6 C 0 km/h
2819 23-07-2010 11:59:01 24.8 C 9.1 g/m*3 24.8 C 0 km/h
2820 23-07-2010 12:11:02 25.9 C 9.2 g/m*3 25.9 C 0 km/h
2821 23-07-2010 12:23:01 26.4 C 7.97 g/m*3 26.4 C 0 km/h
2822 23-07-2010 12:35:01 27.2 C 7.81 g/m*3 27.2 C 0 km/h
2823 23-07-2010 12:47:01 26.9 C 7.68 g/m*3 26.9 C 0 km/h
2824 23-07-2010 12:59:01 25.9 C 7.75 g/m*3 25.9 C 0 km/h
2825 23-07-2010 13:11:01 26.4 C 7.22 g/m*3 26.4 C 0 km/h
Sensor: Nr:Datum:Temp:Abs-Feuchte:Windchill:Wind:
Aussen-T/F 2826 23-07-2010 13:23:02 28.2 C 6.87 g/m*3 28.2 C 0 km/h
2827 23-07-2010 13:35:01 28.7 C 6.22 g/m*3 28.7 C 0 km/h
2828 23-07-2010 13:47:02 28 C 5.98 g/m*3 28 C 0 km/h
2829 23-07-2010 13:59:02 27.8 C 6.72 g/m*3 27.8 C 0 km/h
2830 23-07-2010 14:11:02 28.8 C 6.82 g/m*3 28.8 C 0 km/h
2831 23-07-2010 14:23:02 28.6 C 6.74 g/m*3 28.6 C 0 km/h
2832 23-07-2010 14:35:02 29.5 C 6.49 g/m*3 29.5 C 0 km/h
2833 23-07-2010 14:47:03 29.7 C 6.56 g/m*3 29.7 C 0 km/h
2834 23-07-2010 14:59:03 30.1 C 6.1 g/m*3 30.1 C 0 km/h
2835 23-07-2010 15:11:02 28.9 C 5.71 g/m*3 28.9 C 0 km/h
2836 23-07-2010 15:23:02 28.9 C 6.57 g/m*3 28.9 C 0 km/h
2837 23-07-2010 15:35:02 28.5 C 6.43 g/m*3 28.5 C 0 km/h
2838 23-07-2010 15:47:02 27.8 C 6.46 g/m*3 27.8 C 0 km/h
2839 23-07-2010 15:59:02 27.9 C 6.76 g/m*3 27.9 C 0 km/h
2840 23-07-2010 16:11:02 28.8 C 6.25 g/m*3 28.8 C 0 km/h
2841 23-07-2010 16:23:03 29.5 C 6.2 g/m*3 29.5 C 0 km/h
2842 23-07-2010 16:35:02 28.7 C 6.22 g/m*3 28.7 C 0 km/h
2843 23-07-2010 16:47:02 28.2 C 6.32 g/m*3 28.2 C 0 km/h
2844 23-07-2010 16:59:02 27.5 C 6.61 g/m*3 27.5 C 0 km/h
2845 23-07-2010 17:11:02 26.4 C 7.22 g/m*3 26.4 C 0 km/h
2846 23-07-2010 17:23:02 24.5 C 6.94 g/m*3 24.5 C 0 km/h
2847 23-07-2010 17:35:03 21.9 C 8.88 g/m*3 21.9 C 0 km/h
2848 23-07-2010 17:47:02 20.1 C 10.26 g/m*3 20.1 C 0 km/h
2849 23-07-2010 17:59:02 18.7 C 11.37 g/m*3 18.7 C 0 km/h
2850 23-07-2010 18:11:02 18.3 C 11.26 g/m*3 18.3 C 0 km/h
Sensor: Nr:Datum:Temp:Abs-Feuchte:Windchill:Wind:
Aussen-T/F 2851 23-07-2010 18:23:02 18 C 11.52 g/m*3 18 C 0 km/h
2852 23-07-2010 18:35:02 18 C 11.67 g/m*3 18 C 0 km/h
2853 23-07-2010 18:47:02 18.2 C 11.66 g/m*3 18.2 C 0 km/h
2854 23-07-2010 18:59:02 18 C 11.52 g/m*3 18 C 0 km/h
2855 23-07-2010 19:11:01 17.3 C 11.79 g/m*3 17.3 C 0 km/h
2856 23-07-2010 19:23:02 17.5 C 12.37 g/m*3 17.5 C 0 km/h
2857 23-07-2010 19:35:01 17 C 12.15 g/m*3 17 C 0 km/h
2858 23-07-2010 19:47:01 16.8 C 12.44 g/m*3 16.8 C 0 km/h
2859 23-07-2010 19:59:01 16.2 C 12.14 g/m*3 16.2 C 0 km/h
2860 23-07-2010 20:11:01 16 C 12.13 g/m*3 16 C 0 km/h
2861 23-07-2010 20:23:02 15.9 C 12.19 g/m*3 15.9 C 0 km/h
2862 23-07-2010 20:35:01 16 C 12.26 g/m*3 16 C 0 km/h
2863 23-07-2010 20:47:02 16.1 C 12.47 g/m*3 16.1 C 0 km/h
2864 23-07-2010 20:59:02 15.9 C 12.46 g/m*3 15.9 C 0 km/h
2865 23-07-2010 21:11:01 15.9 C 12.46 g/m*3 15.9 C 0 km/h
2866 23-07-2010 21:23:02 15.8 C 12.38 g/m*3 15.8 C 0 km/h
2867 23-07-2010 21:35:01 15.6 C 12.23 g/m*3 15.6 C 0 km/h
2868 23-07-2010 21:47:01 15.4 C 12.09 g/m*3 15.4 C 0 km/h
2869 23-07-2010 21:59:01 15.2 C 12.07 g/m*3 15.2 C 0 km/h
2870 23-07-2010 22:11:01 15.1 C 12 g/m*3 15.1 C 0 km/h
2871 23-07-2010 22:23:02 15.2 C 12.07 g/m*3 15.2 C 0 km/h
2872 23-07-2010 22:35:01 15.1 C 12 g/m*3 15.1 C 0 km/h
2873 23-07-2010 22:48:02 15.1 C 12 g/m*3 15.1 C 0 km/h
2874 23-07-2010 23:00:02 15.3 C 12.14 g/m*3 15.3 C 0 km/h
2875 23-07-2010 23:12:02 15.1 C 12 g/m*3 15.1 C 0 km/h
Sensor: Nr:Datum:Temp:Abs-Feuchte:Windchill:Wind:
Aussen-T/F 2876 23-07-2010 23:24:02 15.1 C 12.13 g/m*3 15.1 C 0 km/h
2877 23-07-2010 23:36:02 15 C 12.05 g/m*3 15 C 0 km/h
2878 23-07-2010 23:48:02 15 C 12.05 g/m*3 15 C 0 km/h
2879 24-07-2010 00:00:02 15 C 12.05 g/m*3 15 C 0 km/h
2880 24-07-2010 00:12:02 15 C 12.05 g/m*3 15 C 0 km/h
2881 24-07-2010 00:24:02 15 C 12.05 g/m*3 15 C 0 km/h
2882 24-07-2010 00:36:02 15 C 12.05 g/m*3 15 C 0 km/h
2883 24-07-2010 00:48:03 15.1 C 12.13 g/m*3 15.1 C 0 km/h
2884 24-07-2010 01:00:03 15 C 12.05 g/m*3 15 C 0 km/h
2885 24-07-2010 01:12:03 15 C 12.05 g/m*3 15 C 0 km/h
2886 24-07-2010 01:24:03 15.2 C 12.2 g/m*3 15.2 C 0 km/h
2887 24-07-2010 01:36:03 15.2 C 12.2 g/m*3 15.2 C 0 km/h
2888 24-07-2010 01:48:03 15.2 C 12.2 g/m*3 15.2 C 0 km/h
2889 24-07-2010 02:00:03 15.2 C 12.33 g/m*3 15.2 C 0 km/h
2890 24-07-2010 02:12:03 15.2 C 12.33 g/m*3 15.2 C 0 km/h
2891 24-07-2010 02:24:03 15.2 C 12.33 g/m*3 15.2 C 0 km/h
2892 24-07-2010 02:36:03 15.3 C 12.41 g/m*3 15.3 C 0 km/h
2893 24-07-2010 02:48:03 15.4 C 12.48 g/m*3 15.4 C 0 km/h
2894 24-07-2010 03:00:03 15.4 C 12.48 g/m*3 15.4 C 0 km/h
2895 24-07-2010 03:12:03 15.4 C 12.48 g/m*3 15.4 C 0 km/h
2896 24-07-2010 03:24:03 15.6 C 12.63 g/m*3 15.6 C 0 km/h
2897 24-07-2010 03:36:03 15.7 C 12.71 g/m*3 15.7 C 0 km/h
2898 24-07-2010 03:48:03 15.7 C 12.71 g/m*3 15.7 C 0 km/h
2899 24-07-2010 04:00:03 15.7 C 12.71 g/m*3 15.7 C 0 km/h
2900 24-07-2010 04:12:03 15.6 C 12.5 g/m*3 15.6 C 0 km/h
Sensor: Nr:Datum:Temp:Abs-Feuchte:Windchill:Wind:
Aussen-T/F 2901 24-07-2010 04:24:03 15.7 C 12.44 g/m*3 15.7 C 0 km/h
2902 24-07-2010 04:36:03 15.6 C 12.23 g/m*3 15.6 C 0 km/h
2903 24-07-2010 04:48:03 15.6 C 12.1 g/m*3 15.6 C 0 km/h
2904 24-07-2010 05:00:03 15.6 C 12.1 g/m*3 15.6 C 0 km/h
2905 24-07-2010 05:12:04 15.6 C 11.97 g/m*3 15.6 C 0 km/h
2906 24-07-2010 05:24:04 15.5 C 11.9 g/m*3 15.5 C 0 km/h
2907 24-07-2010 05:36:04 15.5 C 11.9 g/m*3 15.5 C 0 km/h
2908 24-07-2010 05:48:04 15.5 C 11.9 g/m*3 15.5 C 0 km/h
2909 24-07-2010 06:00:04 15.4 C 11.82 g/m*3 15.4 C 0 km/h
2910 24-07-2010 06:12:04 15.4 C 11.69 g/m*3 15.4 C 0 km/h
2911 24-07-2010 06:24:04 15.4 C 11.56 g/m*3 15.4 C 0 km/h
2912 24-07-2010 06:36:04 15.5 C 11.63 g/m*3 15.5 C 0 km/h
2913 24-07-2010 06:48:04 15.4 C 11.56 g/m*3 15.4 C 0 km/h
2914 24-07-2010 07:00:04 15.4 C 11.56 g/m*3 15.4 C 0 km/h
2915 24-07-2010 07:12:04 15.4 C 11.56 g/m*3 15.4 C 0 km/h
2916 24-07-2010 07:24:04 15.5 C 11.63 g/m*3 15.5 C 0 km/h
2917 24-07-2010 07:36:04 15.6 C 11.57 g/m*3 15.6 C 0 km/h
2918 24-07-2010 07:48:04 15.6 C 11.57 g/m*3 15.6 C 0 km/h
2919 24-07-2010 08:00:04 15.8 C 11.58 g/m*3 15.8 C 0 km/h
2920 24-07-2010 08:12:04 16 C 11.31 g/m*3 16 C 0 km/h
2921 24-07-2010 08:24:04 16.1 C 11.24 g/m*3 16.1 C 0 km/h
2922 24-07-2010 08:36:02 16.4 C 11.31 g/m*3 16.4 C 0 km/h
2923 24-07-2010 08:48:02 16.5 C 11.09 g/m*3 16.5 C 0 km/h
2924 24-07-2010 09:00:02 16.6 C 11.02 g/m*3 16.6 C 0 km/h
2925 24-07-2010 09:12:02 17 C 11 g/m*3 17 C 0 km/h
Sensor: Nr:Datum:Temp:Abs-Feuchte:Windchill:Wind:
Aussen-T/F 2926 24-07-2010 09:24:02 17.4 C 11.12 g/m*3 17.4 C 0 km/h
2927 24-07-2010 09:36:03 17.6 C 10.65 g/m*3 17.6 C 0 km/h
2928 24-07-2010 09:48:02 17.6 C 10.2 g/m*3 17.6 C 0 km/h
2929 24-07-2010 10:00:02 17.6 C 9.9 g/m*3 17.6 C 0 km/h
2930 24-07-2010 10:12:02 18.4 C 10.22 g/m*3 18.4 C 0 km/h
2931 24-07-2010 10:24:02 18.9 C 9.88 g/m*3 18.9 C 0 km/h
2932 24-07-2010 10:36:02 19.2 C 9.56 g/m*3 19.2 C 0 km/h
2933 24-07-2010 10:48:02 19 C 8.64 g/m*3 19 C 0 km/h
2934 24-07-2010 11:00:02 19.8 C 9.39 g/m*3 19.8 C 0 km/h
2935 24-07-2010 11:12:02 19.9 C 8.76 g/m*3 19.9 C 0 km/h
2936 24-07-2010 11:24:02 18.7 C 8.97 g/m*3 18.7 C 0 km/h
2937 24-07-2010 11:36:02 19.4 C 8.51 g/m*3 19.4 C 0 km/h
2938 24-07-2010 11:48:02 19.4 C 8.51 g/m*3 19.4 C 0 km/h
2939 24-07-2010 12:00:02 19.5 C 8.39 g/m*3 19.5 C 0 km/h
2940 24-07-2010 12:12:01 20.5 C 8.36 g/m*3 20.5 C 0 km/h
2941 24-07-2010 12:24:01 20.3 C 8.09 g/m*3 20.3 C 0 km/h
2942 24-07-2010 12:36:01 20.8 C 8.33 g/m*3 20.8 C 0 km/h
2943 24-07-2010 12:48:02 21.5 C 7.73 g/m*3 21.5 C 0 km/h
2944 24-07-2010 13:00:02 20.9 C 7.1 g/m*3 20.9 C 0 km/h
2945 24-07-2010 13:12:02 22.9 C 6.95 g/m*3 22.9 C 0 km/h
2946 24-07-2010 13:24:02 24.3 C 6.2 g/m*3 24.3 C 0 km/h
2947 24-07-2010 13:36:01 23.4 C 6.31 g/m*3 23.4 C 0 km/h
2948 24-07-2010 13:48:02 22.1 C 6.44 g/m*3 22.1 C 0 km/h
2949 24-07-2010 14:00:02 23.8 C 6.02 g/m*3 23.8 C 0 km/h
2950 24-07-2010 14:12:01 23.4 C 5.89 g/m*3 23.4 C 0 km/h
Sensor: Nr:Datum:Temp:Abs-Feuchte:Windchill:Wind:
Aussen-T/F 2951 24-07-2010 14:24:02 23.1 C 6.41 g/m*3 23.1 C 0 km/h
2952 24-07-2010 14:36:01 22.8 C 6.3 g/m*3 22.8 C 0 km/h
2953 24-07-2010 14:48:02 24.3 C 6.2 g/m*3 24.3 C 0 km/h
2954 24-07-2010 15:00:02 24 C 5.66 g/m*3 24 C 0 km/h
2955 24-07-2010 15:12:02 23.2 C 5.61 g/m*3 23.2 C 0 km/h
2956 24-07-2010 15:24:02 24.5 C 6.27 g/m*3 24.5 C 0 km/h
2957 24-07-2010 15:36:02 25.1 C 5.32 g/m*3 25.1 C 0 km/h
2958 24-07-2010 15:48:01 23.7 C 4.49 g/m*3 23.7 C 0 km/h
2959 24-07-2010 16:00:01 23.2 C 5.2 g/m*3 23.2 C 0 km/h
2960 24-07-2010 16:12:02 23.6 C 4.68 g/m*3 23.6 C 0 km/h
2961 24-07-2010 16:24:01 24.8 C 4.55 g/m*3 24.8 C 0 km/h
2962 24-07-2010 16:36:01 23.6 C 4.47 g/m*3 23.6 C 0 km/h
2963 24-07-2010 16:48:01 24.1 C 4.38 g/m*3 24.1 C 0 km/h
2964 24-07-2010 17:00:01 24.2 C 4.4 g/m*3 24.2 C 0 km/h
2965 24-07-2010 17:12:02 25.5 C 4.73 g/m*3 25.5 C 0 km/h
2966 24-07-2010 17:24:02 25.1 C 4.63 g/m*3 25.1 C 0 km/h
2967 24-07-2010 17:36:01 24.1 C 4.38 g/m*3 24.1 C 0 km/h
2968 24-07-2010 17:48:02 22.9 C 4.09 g/m*3 22.9 C 0 km/h
2969 24-07-2010 18:00:02 23 C 4.11 g/m*3 23 C 0 km/h
2970 24-07-2010 18:12:01 23.8 C 4.3 g/m*3 23.8 C 0 km/h
2971 24-07-2010 18:24:02 24.1 C 4.38 g/m*3 24.1 C 0 km/h
2972 24-07-2010 18:36:01 23.4 C 4.21 g/m*3 23.4 C 0 km/h
2973 24-07-2010 18:48:02 23.1 C 4.13 g/m*3 23.1 C 0 km/h
2974 24-07-2010 19:00:02 23.6 C 4.25 g/m*3 23.6 C 0 km/h
2975 24-07-2010 19:12:02 23.5 C 4.23 g/m*3 23.5 C 0 km/h
Sensor: Nr:Datum:Temp:Abs-Feuchte:Windchill:Wind:
Aussen-T/F 2976 24-07-2010 19:24:02 23.4 C 4.21 g/m*3 23.4 C 0 km/h
2977 24-07-2010 19:36:02 22.7 C 4.04 g/m*3 22.7 C 0 km/h
2978 24-07-2010 19:48:02 22.9 C 4.09 g/m*3 22.9 C 0 km/h
2979 24-07-2010 20:00:02 23 C 4.11 g/m*3 23 C 0 km/h
2980 24-07-2010 20:12:02 23.1 C 4.13 g/m*3 23.1 C 0 km/h
2981 24-07-2010 20:24:01 22.8 C 4.06 g/m*3 22.8 C 0 km/h
2982 24-07-2010 20:36:02 22.6 C 4.02 g/m*3 22.6 C 0 km/h
2983 24-07-2010 20:48:02 22.1 C 3.9 g/m*3 22.1 C 0 km/h
2984 24-07-2010 21:00:02 21.2 C 3.71 g/m*3 21.2 C 0 km/h
2985 24-07-2010 21:12:02 20.3 C 4.4 g/m*3 20.3 C 0 km/h
2986 24-07-2010 21:24:01 19.7 C 4.58 g/m*3 19.7 C 0 km/h
2987 24-07-2010 21:36:02 19 C 4.73 g/m*3 19 C 0 km/h
2988 24-07-2010 21:48:01 18.6 C 4.93 g/m*3 18.6 C 0 km/h
2989 24-07-2010 22:00:01 18.1 C 5.1 g/m*3 18.1 C 0 km/h
2990 24-07-2010 22:12:02 17.6 C 5.25 g/m*3 17.6 C 0 km/h
2991 24-07-2010 22:24:01 17.5 C 5.07 g/m*3 17.5 C 0 km/h
2992 24-07-2010 22:36:02 17.2 C 5.13 g/m*3 17.2 C 0 km/h
2993 24-07-2010 22:49:02 17.1 C 5.39 g/m*3 17.1 C 0 km/h
2994 24-07-2010 23:01:02 16.7 C 5.83 g/m*3 16.7 C 0 km/h
2995 24-07-2010 23:13:02 16.3 C 5.83 g/m*3 16.3 C 0 km/h
2996 24-07-2010 23:25:02 15.9 C 6.23 g/m*3 15.9 C 0 km/h
2997 24-07-2010 23:37:02 15.5 C 6.34 g/m*3 15.5 C 0 km/h
2998 24-07-2010 23:49:02 15.2 C 6.23 g/m*3 15.2 C 0 km/h
2999 25-07-2010 00:01:02 15 C 6.41 g/m*3 15 C 0 km/h
3000 25-07-2010 00:13:02 14.8 C 6.71 g/m*3 14.8 C 0 km/h
Sensor: Nr:Datum:Temp:Abs-Feuchte:Windchill:Wind:
Aussen-T/F 3001 25-07-2010 00:25:02 14.6 C 6.76 g/m*3 14.6 C 0 km/h
3002 25-07-2010 00:37:02 14.2 C 6.47 g/m*3 14.2 C 0 km/h
3003 25-07-2010 00:49:02 14.1 C 6.55 g/m*3 14.1 C 0 km/h
3004 25-07-2010 01:01:02 13.8 C 6.79 g/m*3 13.8 C 0 km/h
3005 25-07-2010 01:13:03 13.7 C 6.87 g/m*3 13.7 C 0 km/h
3006 25-07-2010 01:25:03 13.5 C 6.78 g/m*3 13.5 C 0 km/h
3007 25-07-2010 01:37:03 13.3 C 6.82 g/m*3 13.3 C 0 km/h
3008 25-07-2010 01:49:03 13.2 C 6.77 g/m*3 13.2 C 0 km/h
3009 25-07-2010 02:01:03 13.1 C 6.96 g/m*3 13.1 C 0 km/h
3010 25-07-2010 02:13:03 12.9 C 6.99 g/m*3 12.9 C 0 km/h
3011 25-07-2010 02:25:03 12.7 C 7.01 g/m*3 12.7 C 0 km/h
3012 25-07-2010 02:37:03 12.5 C 6.93 g/m*3 12.5 C 0 km/h
3013 25-07-2010 02:49:03 12.3 C 6.95 g/m*3 12.3 C 0 km/h
3014 25-07-2010 03:01:03 12.2 C 7.01 g/m*3 12.2 C 0 km/h
3015 25-07-2010 03:13:03 12 C 7.14 g/m*3 12 C 0 km/h
3016 25-07-2010 03:25:03 11.8 C 7.05 g/m*3 11.8 C 0 km/h
3017 25-07-2010 03:37:03 11.8 C 7.05 g/m*3 11.8 C 0 km/h
3018 25-07-2010 03:49:03 11.5 C 7.02 g/m*3 11.5 C 0 km/h
3019 25-07-2010 04:01:03 11.3 C 7.14 g/m*3 11.3 C 0 km/h
3020 25-07-2010 04:13:03 11.1 C 7.25 g/m*3 11.1 C 0 km/h
3021 25-07-2010 04:25:03 11 C 7.31 g/m*3 11 C 0 km/h
3022 25-07-2010 04:37:03 10.8 C 7.41 g/m*3 10.8 C 0 km/h
3023 25-07-2010 04:49:03 10.6 C 7.42 g/m*3 10.6 C 0 km/h
3024 25-07-2010 05:01:03 10.5 C 7.47 g/m*3 10.5 C 0 km/h
3025 25-07-2010 05:13:03 10.3 C 7.37 g/m*3 10.3 C 0 km/h
Sensor: Nr:Datum:Temp:Abs-Feuchte:Windchill:Wind:
Aussen-T/F 3026 25-07-2010 05:25:03 10.1 C 7.38 g/m*3 10.1 C 0 km/h
3027 25-07-2010 05:37:04 10 C 7.33 g/m*3 10 C 0 km/h
3028 25-07-2010 05:49:04 9.9 C 7.38 g/m*3 9.9 C 0 km/h
3029 25-07-2010 06:01:04 10 C 7.33 g/m*3 10 C 0 km/h
3030 25-07-2010 06:13:04 10 C 7.42 g/m*3 10 C 0 km/h
3031 25-07-2010 06:25:04 10 C 7.42 g/m*3 10 C 0 km/h
3032 25-07-2010 06:37:04 10 C 7.42 g/m*3 10 C 0 km/h
3033 25-07-2010 06:49:04 10.2 C 7.42 g/m*3 10.2 C 0 km/h
3034 25-07-2010 07:01:04 10.3 C 7.47 g/m*3 10.3 C 0 km/h
3035 25-07-2010 07:13:04 10.7 C 7.56 g/m*3 10.7 C 0 km/h
3036 25-07-2010 07:25:04 11 C 7.61 g/m*3 11 C 0 km/h
3037 25-07-2010 07:37:04 11.2 C 7.5 g/m*3 11.2 C 0 km/h
3038 25-07-2010 07:49:04 11.4 C 7.6 g/m*3 11.4 C 0 km/h
3039 25-07-2010 08:01:04 11.5 C 7.75 g/m*3 11.5 C 0 km/h
3040 25-07-2010 08:13:04 11.5 C 7.95 g/m*3 11.5 C 0 km/h
3041 25-07-2010 08:25:04 12 C 7.99 g/m*3 12 C 0 km/h
3042 25-07-2010 08:37:04 12.5 C 7.92 g/m*3 12.5 C 0 km/h
3043 25-07-2010 08:49:04 13.1 C 7.87 g/m*3 13.1 C 0 km/h
3044 25-07-2010 09:01:04 13.8 C 7.86 g/m*3 13.8 C 0 km/h
3045 25-07-2010 09:13:04 14.3 C 7.49 g/m*3 14.3 C 0 km/h
3046 25-07-2010 09:25:04 14.8 C 7.6 g/m*3 14.8 C 0 km/h
3047 25-07-2010 09:37:04 15.6 C 7.58 g/m*3 15.6 C 0 km/h
3048 25-07-2010 09:49:02 16.2 C 7.45 g/m*3 16.2 C 0 km/h
3049 25-07-2010 10:01:02 16.6 C 7.2 g/m*3 16.6 C 0 km/h
3050 25-07-2010 10:13:02 17.5 C 7.01 g/m*3 17.5 C 0 km/h
Sensor: Nr:Datum:Temp:Abs-Feuchte:Windchill:Wind:
Aussen-T/F 3051 25-07-2010 10:25:02 17.8 C 6.68 g/m*3 17.8 C 0 km/h
3052 25-07-2010 10:37:02 18.4 C 6.45 g/m*3 18.4 C 0 km/h
3053 25-07-2010 10:49:02 18.7 C 6.4 g/m*3 18.7 C 0 km/h
3054 25-07-2010 11:01:02 19.3 C 6.3 g/m*3 19.3 C 0 km/h
3055 25-07-2010 11:13:02 20.9 C 6.37 g/m*3 20.9 C 0 km/h
3056 25-07-2010 11:25:03 21.2 C 5.93 g/m*3 21.2 C 0 km/h
3057 25-07-2010 11:37:02 21.2 C 5.93 g/m*3 21.2 C 0 km/h
3058 25-07-2010 11:49:03 21.7 C 6.1 g/m*3 21.7 C 0 km/h
3059 25-07-2010 12:01:02 21.5 C 6.03 g/m*3 21.5 C 0 km/h
3060 25-07-2010 12:13:03 22.3 C 6.12 g/m*3 22.3 C 0 km/h
3061 25-07-2010 12:25:02 23.2 C 5.82 g/m*3 23.2 C 0 km/h
3062 25-07-2010 12:37:02 24.2 C 5.72 g/m*3 24.2 C 0 km/h
3063 25-07-2010 12:49:02 23.5 C 5.71 g/m*3 23.5 C 0 km/h
3064 25-07-2010 13:01:02 23.5 C 6.13 g/m*3 23.5 C 0 km/h
3065 25-07-2010 13:13:02 23.3 C 6.06 g/m*3 23.3 C 0 km/h
3066 25-07-2010 13:25:03 23.2 C 6.24 g/m*3 23.2 C 0 km/h
3067 25-07-2010 13:37:02 23.5 C 6.34 g/m*3 23.5 C 0 km/h
3068 25-07-2010 13:49:03 23.4 C 6.31 g/m*3 23.4 C 0 km/h
3069 25-07-2010 14:01:02 23.2 C 6.44 g/m*3 23.2 C 0 km/h
3070 25-07-2010 14:13:02 22.6 C 7.43 g/m*3 22.6 C 0 km/h
3071 25-07-2010 14:25:02 21.5 C 6.79 g/m*3 21.5 C 0 km/h
3072 25-07-2010 14:37:02 21.6 C 7.21 g/m*3 21.6 C 0 km/h
3073 25-07-2010 14:49:02 22.1 C 6.83 g/m*3 22.1 C 0 km/h
3074 25-07-2010 15:01:02 22.2 C 6.87 g/m*3 22.2 C 0 km/h
3075 25-07-2010 15:13:02 22.2 C 6.68 g/m*3 22.2 C 0 km/h
Sensor: Nr:Datum:Temp:Abs-Feuchte:Windchill:Wind:
Aussen-T/F 3076 25-07-2010 15:25:02 21.6 C 6.83 g/m*3 21.6 C 0 km/h
3077 25-07-2010 15:37:01 21 C 7.14 g/m*3 21 C 0 km/h
3078 25-07-2010 15:49:02 20.9 C 7.47 g/m*3 20.9 C 0 km/h
3079 25-07-2010 16:01:01 21.6 C 7.21 g/m*3 21.6 C 0 km/h
3080 25-07-2010 16:13:01 21.9 C 7.14 g/m*3 21.9 C 0 km/h
3081 25-07-2010 16:25:02 22.1 C 6.83 g/m*3 22.1 C 0 km/h
3082 25-07-2010 16:37:02 22.1 C 7.03 g/m*3 22.1 C 0 km/h
3083 25-07-2010 16:49:02 22.2 C 7.46 g/m*3 22.2 C 0 km/h
3084 25-07-2010 17:01:03 23.5 C 6.77 g/m*3 23.5 C 0 km/h
3085 25-07-2010 17:13:03 23.7 C 6.63 g/m*3 23.7 C 0 km/h
3086 25-07-2010 17:25:02 23.3 C 6.69 g/m*3 23.3 C 0 km/h
3087 25-07-2010 17:37:02 23.4 C 6.31 g/m*3 23.4 C 0 km/h
3088 25-07-2010 17:49:01 23.1 C 6.61 g/m*3 23.1 C 0 km/h
3089 25-07-2010 18:01:02 22.8 C 7.32 g/m*3 22.8 C 0 km/h
3090 25-07-2010 18:13:02 22.5 C 7.39 g/m*3 22.5 C 0 km/h
3091 25-07-2010 18:25:01 22.4 C 7.35 g/m*3 22.4 C 0 km/h
3092 25-07-2010 18:37:01 22 C 7.57 g/m*3 22 C 0 km/h
3093 25-07-2010 18:49:01 21.6 C 7.97 g/m*3 21.6 C 0 km/h
3094 25-07-2010 19:01:02 21.3 C 8.2 g/m*3 21.3 C 0 km/h
3095 25-07-2010 19:13:02 20.9 C 8.2 g/m*3 20.9 C 0 km/h
3096 25-07-2010 19:25:02 20.6 C 8.59 g/m*3 20.6 C 0 km/h
3097 25-07-2010 19:37:01 20.6 C 7.34 g/m*3 20.6 C 0 km/h
3098 25-07-2010 19:49:01 20.6 C 7.16 g/m*3 20.6 C 0 km/h
3099 25-07-2010 20:01:01 20.6 C 7.34 g/m*3 20.6 C 0 km/h
3100 25-07-2010 20:13:01 20.5 C 7.3 g/m*3 20.5 C 0 km/h
Sensor: Nr:Datum:Temp:Abs-Feuchte:Windchill:Wind:
Aussen-T/F 3101 25-07-2010 20:25:02 20.4 C 7.43 g/m*3 20.4 C 0 km/h
3102 25-07-2010 20:37:01 19.9 C 8.08 g/m*3 19.9 C 0 km/h
3103 25-07-2010 20:49:02 19.4 C 8.84 g/m*3 19.4 C 0 km/h
3104 25-07-2010 21:01:01 19.1 C 9.18 g/m*3 19.1 C 0 km/h
3105 25-07-2010 21:13:01 19.2 C 9.23 g/m*3 19.2 C 0 km/h
3106 25-07-2010 21:25:02 19.1 C 9.51 g/m*3 19.1 C 0 km/h
3107 25-07-2010 21:37:01 19.1 C 9.51 g/m*3 19.1 C 0 km/h
3108 25-07-2010 21:49:01 18.9 C 9.72 g/m*3 18.9 C 0 km/h
3109 25-07-2010 22:01:01 18.8 C 9.82 g/m*3 18.8 C 0 km/h
3110 25-07-2010 22:13:01 18.5 C 9.97 g/m*3 18.5 C 0 km/h
3111 25-07-2010 22:26:02 18.3 C 10.16 g/m*3 18.3 C 0 km/h
3112 25-07-2010 22:38:02 18.2 C 10.41 g/m*3 18.2 C 0 km/h
3113 25-07-2010 22:50:02 18.1 C 10.51 g/m*3 18.1 C 0 km/h
3114 25-07-2010 23:02:03 17.9 C 10.54 g/m*3 17.9 C 0 km/h
3115 25-07-2010 23:14:03 18 C 10.29 g/m*3 18 C 0 km/h
3116 25-07-2010 23:26:03 17.9 C 10.23 g/m*3 17.9 C 0 km/h
3117 25-07-2010 23:38:03 17.8 C 10.17 g/m*3 17.8 C 0 km/h
3118 25-07-2010 23:50:03 17.8 C 10.17 g/m*3 17.8 C 0 km/h
3119 26-07-2010 00:02:03 17.6 C 9.9 g/m*3 17.6 C 0 km/h
3120 26-07-2010 00:14:03 17.6 C 9.9 g/m*3 17.6 C 0 km/h
3121 26-07-2010 00:26:03 17.6 C 9.9 g/m*3 17.6 C 0 km/h
3122 26-07-2010 00:38:03 17.6 C 10.05 g/m*3 17.6 C 0 km/h
3123 26-07-2010 00:50:03 17.4 C 9.93 g/m*3 17.4 C 0 km/h
3124 26-07-2010 01:02:03 17.3 C 9.87 g/m*3 17.3 C 0 km/h
3125 26-07-2010 01:14:03 17.2 C 9.96 g/m*3 17.2 C 0 km/h
Sensor: Nr:Datum:Temp:Abs-Feuchte:Windchill:Wind:
Aussen-T/F 3126 26-07-2010 01:26:03 17.2 C 9.96 g/m*3 17.2 C 0 km/h
3127 26-07-2010 01:38:03 17.3 C 10.02 g/m*3 17.3 C 0 km/h
3128 26-07-2010 01:50:03 17.3 C 10.16 g/m*3 17.3 C 0 km/h
3129 26-07-2010 02:02:03 17 C 9.98 g/m*3 17 C 0 km/h
3130 26-07-2010 02:14:03 16.9 C 10.07 g/m*3 16.9 C 0 km/h
3131 26-07-2010 02:26:03 16.8 C 10.01 g/m*3 16.8 C 0 km/h
3132 26-07-2010 02:38:03 16.8 C 10.15 g/m*3 16.8 C 0 km/h
3133 26-07-2010 02:50:03 16.5 C 9.97 g/m*3 16.5 C 0 km/h
3134 26-07-2010 03:02:03 16.4 C 10.05 g/m*3 16.4 C 0 km/h
3135 26-07-2010 03:14:03 16.4 C 10.19 g/m*3 16.4 C 0 km/h
3136 26-07-2010 03:26:03 16.4 C 10.33 g/m*3 16.4 C 0 km/h
3137 26-07-2010 03:38:04 16.4 C 10.33 g/m*3 16.4 C 0 km/h
3138 26-07-2010 03:50:04 16.5 C 10.11 g/m*3 16.5 C 0 km/h
3139 26-07-2010 04:02:04 16.6 C 10.17 g/m*3 16.6 C 0 km/h
3140 26-07-2010 04:14:04 16.4 C 10.47 g/m*3 16.4 C 0 km/h
3141 26-07-2010 04:26:04 16.4 C 10.61 g/m*3 16.4 C 0 km/h
3142 26-07-2010 04:38:04 16.1 C 10.69 g/m*3 16.1 C 0 km/h
3143 26-07-2010 04:50:04 15.7 C 10.97 g/m*3 15.7 C 0 km/h
3144 26-07-2010 05:02:04 15.6 C 11.04 g/m*3 15.6 C 0 km/h
3145 26-07-2010 05:14:04 15.6 C 11.3 g/m*3 15.6 C 0 km/h
3146 26-07-2010 05:26:04 15.5 C 11.37 g/m*3 15.5 C 0 km/h
3147 26-07-2010 05:38:04 15.6 C 11.44 g/m*3 15.6 C 0 km/h
3148 26-07-2010 05:50:04 15.3 C 11.23 g/m*3 15.3 C 0 km/h
3149 26-07-2010 06:02:04 15.4 C 11.3 g/m*3 15.4 C 0 km/h
3150 26-07-2010 06:14:04 15.4 C 11.43 g/m*3 15.4 C 0 km/h
Sensor: Nr:Datum:Temp:Abs-Feuchte:Windchill:Wind:
Aussen-T/F 3151 26-07-2010 06:26:04 15.4 C 11.43 g/m*3 15.4 C 0 km/h
3152 26-07-2010 06:38:04 15.4 C 11.56 g/m*3 15.4 C 0 km/h
3153 26-07-2010 06:50:04 15.4 C 11.56 g/m*3 15.4 C 0 km/h
3154 26-07-2010 07:02:02 15.7 C 11.91 g/m*3 15.7 C 0 km/h
3155 26-07-2010 07:14:02 16 C 11.99 g/m*3 16 C 0 km/h
3156 26-07-2010 07:26:03 16 C 11.99 g/m*3 16 C 0 km/h
3157 26-07-2010 07:38:02 16.1 C 11.93 g/m*3 16.1 C 0 km/h
3158 26-07-2010 07:50:02 16.3 C 11.93 g/m*3 16.3 C 0 km/h
3159 26-07-2010 08:02:02 16.5 C 11.94 g/m*3 16.5 C 0 km/h
3160 26-07-2010 08:14:02 16.6 C 11.87 g/m*3 16.6 C 0 km/h
3161 26-07-2010 08:26:02 16.9 C 11.94 g/m*3 16.9 C 0 km/h
3162 26-07-2010 08:38:02 17.5 C 12.08 g/m*3 17.5 C 0 km/h
3163 26-07-2010 08:50:01 17.4 C 11.71 g/m*3 17.4 C 0 km/h
3164 26-07-2010 09:02:02 17.8 C 11.84 g/m*3 17.8 C 0 km/h
3165 26-07-2010 09:14:02 18.2 C 11.81 g/m*3 18.2 C 0 km/h
3166 26-07-2010 09:26:01 18.3 C 11.57 g/m*3 18.3 C 0 km/h
3167 26-07-2010 09:38:01 18.8 C 11.92 g/m*3 18.8 C 0 km/h
3168 26-07-2010 09:50:02 18.8 C 11.43 g/m*3 18.8 C 0 km/h
3169 26-07-2010 10:02:02 18.7 C 11.37 g/m*3 18.7 C 0 km/h
3170 26-07-2010 10:14:02 19.1 C 10.98 g/m*3 19.1 C 0 km/h
3171 26-07-2010 10:26:02 20.2 C 11.02 g/m*3 20.2 C 0 km/h
3172 26-07-2010 10:38:02 21.1 C 10.32 g/m*3 21.1 C 0 km/h
3173 26-07-2010 10:50:02 22.1 C 9.76 g/m*3 22.1 C 0 km/h
3174 26-07-2010 11:02:01 21.8 C 9.78 g/m*3 21.8 C 0 km/h
3175 26-07-2010 11:14:01 22.6 C 10.04 g/m*3 22.6 C 0 km/h
Sensor: Nr:Datum:Temp:Abs-Feuchte:Windchill:Wind:
Aussen-T/F 3176 26-07-2010 11:26:02 22.5 C 9.59 g/m*3 22.5 C 0 km/h
3177 26-07-2010 11:38:02 19.4 C 10.68 g/m*3 19.4 C 0 km/h
3178 26-07-2010 11:50:02 18.4 C 12.11 g/m*3 18.4 C 0 km/h
3179 26-07-2010 12:02:02 19.1 C 13.11 g/m*3 19.1 C 0 km/h
3180 26-07-2010 12:14:02 19.5 C 12.59 g/m*3 19.5 C 0 km/h
3181 26-07-2010 12:26:02 19.5 C 12.25 g/m*3 19.5 C 0 km/h
3182 26-07-2010 12:38:02 18.5 C 12.18 g/m*3 18.5 C 0 km/h
3183 26-07-2010 12:50:01 18.6 C 12.57 g/m*3 18.6 C 0 km/h
3184 26-07-2010 13:02:01 19 C 13.04 g/m*3 19 C 0 km/h
3185 26-07-2010 13:14:01 18.5 C 12.34 g/m*3 18.5 C 0 km/h
3186 26-07-2010 13:26:01 18 C 12.44 g/m*3 18 C 0 km/h
3187 26-07-2010 13:38:01 17.8 C 12.9 g/m*3 17.8 C 0 km/h
3188 26-07-2010 13:50:01 17.5 C 12.82 g/m*3 17.5 C 0 km/h
3189 26-07-2010 14:02:01 17.5 C 12.97 g/m*3 17.5 C 0 km/h
3190 26-07-2010 14:14:01 17.7 C 13.43 g/m*3 17.7 C 0 km/h
3191 26-07-2010 14:26:02 17.3 C 13.11 g/m*3 17.3 C 0 km/h
3192 26-07-2010 14:38:01 17.1 C 13.1 g/m*3 17.1 C 0 km/h
3193 26-07-2010 14:50:02 17.2 C 13.18 g/m*3 17.2 C 0 km/h
3194 26-07-2010 15:02:02 17.4 C 13.49 g/m*3 17.4 C 0 km/h
3195 26-07-2010 15:14:02 17.3 C 13.41 g/m*3 17.3 C 0 km/h
3196 26-07-2010 15:26:02 17.6 C 13.65 g/m*3 17.6 C 0 km/h
3197 26-07-2010 15:38:03 18.2 C 13.83 g/m*3 18.2 C 0 km/h
3198 26-07-2010 15:50:02 19.1 C 14.1 g/m*3 19.1 C 0 km/h
3199 26-07-2010 16:02:02 19.1 C 13.77 g/m*3 19.1 C 0 km/h
3200 26-07-2010 16:14:02 19.5 C 13.26 g/m*3 19.5 C 0 km/h
Sensor: Nr:Datum:Temp:Abs-Feuchte:Windchill:Wind:
Aussen-T/F 3201 26-07-2010 16:26:02 19.1 C 12.79 g/m*3 19.1 C 0 km/h
3202 26-07-2010 16:38:02 19.5 C 13.43 g/m*3 19.5 C 0 km/h
3203 26-07-2010 16:50:02 21.2 C 13.71 g/m*3 21.2 C 0 km/h
3204 26-07-2010 17:02:02 21 C 12.64 g/m*3 21 C 0 km/h
3205 26-07-2010 17:14:02 19.5 C 10.74 g/m*3 19.5 C 0 km/h
3206 26-07-2010 17:26:02 18.7 C 10.73 g/m*3 18.7 C 0 km/h
3207 26-07-2010 17:38:02 18.1 C 11.28 g/m*3 18.1 C 0 km/h
3208 26-07-2010 17:50:02 18.1 C 11.28 g/m*3 18.1 C 0 km/h
3209 26-07-2010 18:02:02 18.2 C 11.19 g/m*3 18.2 C 0 km/h
3210 26-07-2010 18:14:02 17.3 C 11.05 g/m*3 17.3 C 0 km/h
3211 26-07-2010 18:26:03 16.8 C 11.29 g/m*3 16.8 C 0 km/h
3212 26-07-2010 18:38:02 16.8 C 11.44 g/m*3 16.8 C 0 km/h
3213 26-07-2010 18:50:03 16.7 C 11.65 g/m*3 16.7 C 0 km/h
3214 26-07-2010 19:02:02 16.8 C 11.72 g/m*3 16.8 C 0 km/h
3215 26-07-2010 19:14:02 17.1 C 11.79 g/m*3 17.1 C 0 km/h
3216 26-07-2010 19:26:02 17.1 C 11.65 g/m*3 17.1 C 0 km/h
3217 26-07-2010 19:38:02 16.8 C 11.58 g/m*3 16.8 C 0 km/h
3218 26-07-2010 19:50:02 16.8 C 11.29 g/m*3 16.8 C 0 km/h
3219 26-07-2010 20:02:01 16.7 C 10.94 g/m*3 16.7 C 0 km/h
3220 26-07-2010 20:14:01 16.4 C 11.03 g/m*3 16.4 C 0 km/h
3221 26-07-2010 20:26:02 16.2 C 11.17 g/m*3 16.2 C 0 km/h
3222 26-07-2010 20:38:02 15.9 C 11.24 g/m*3 15.9 C 0 km/h
3223 26-07-2010 20:50:01 15.6 C 11.17 g/m*3 15.6 C 0 km/h
3224 26-07-2010 21:02:02 15.4 C 11.04 g/m*3 15.4 C 0 km/h
3225 26-07-2010 21:14:02 15.4 C 11.3 g/m*3 15.4 C 0 km/h
Sensor: Nr:Datum:Temp:Abs-Feuchte:Windchill:Wind:
Aussen-T/F 3226 26-07-2010 21:26:01 15.3 C 11.36 g/m*3 15.3 C 0 km/h
3227 26-07-2010 21:38:01 15.2 C 11.29 g/m*3 15.2 C 0 km/h